N Moorhead
5/1/18 12:00 AM : 1 Month
Gateway Gateway Gateway Gateway Gateway Gateway Gateway Gateway Gateway Gateway Gateway Gateway Gateway Gateway Gateway Gateway Gateway Gateway Gateway
Vantage Pro2 Vantage Pro2 Vantage Pro2 Vantage Pro2 Vantage Pro2 Vantage Pro2 Vantage Pro2 Vantage Pro2 Vantage Pro2 Vantage Pro2 Vantage Pro2 Vantage Pro2 Vantage Pro2 Vantage Pro2 Vantage Pro2 Vantage Pro2 Vantage Pro2 Vantage Pro2 Vantage Pro2
Date & Time Temp - F High Temp - F Low Temp - F Hum - % Dew Point - F Wind Speed - mph Wind Direction Wind Run - mi High Wind Speed - mph High Wind Direction Wind Chill - F Heat Index - F THW Index - F Barometer - in Hg Rain - in Rain Rate - in ET - in Heating Degree Days Cooling Degree Days
5/1/18 0:00 41.9 42.7 41.9 66 31.4 8 NNW 4 21 N 36.9 41.2 36.2 29.603 0 0 0 0.481 0
5/1/18 0:30 41.7 42.1 41.7 70 32.6 8 NNW 4 19 NNW 36.6 41.1 36 29.631 0 0 0 0.485 0
5/1/18 1:00 39 41.7 39 80 33.4 7 NNW 3.5 20 N 33.9 38.7 33.6 29.639 0.11 1.76 0 0.542 0
5/1/18 1:30 38.9 39.2 38.8 81 33.6 8 N 4 22 WNW 33.2 38.6 33 29.659 0 0 0 0.544 0
5/1/18 2:00 38.9 39 38.8 82 33.9 7 N 3.5 15 N 33.8 38.6 33.6 29.636 0 0 0 0.544 0
5/1/18 2:30 38 38.9 38 83 33.3 5 N 2.5 14 NNE 34.1 37.8 33.9 29.635 0 0 0 0.562 0
5/1/18 3:00 37.7 38.1 37.7 84 33.3 5 NW 2.5 15 N 33.8 37.5 33.6 29.631 0 0 0 0.569 0
5/1/18 3:30 37.6 37.8 37.5 83 32.9 6 NW 3 20 N 32.9 37.4 32.7 29.656 0 0 0 0.571 0
5/1/18 4:00 37.5 37.6 37.4 83 32.8 7 NW 3.5 19 NW 32.1 37.3 31.9 29.656 0 0 0 0.573 0
5/1/18 4:30 37.1 37.5 37.1 83 32.4 6 NW 3 18 NNW 32.3 36.9 32.1 29.658 0 0 0 0.581 0
5/1/18 5:00 37.1 37.3 37 82 32.1 6 NW 3 19 WNW 32.3 36.8 32 29.674 0 0 0 0.581 0
5/1/18 5:30 37.1 37.1 36.9 82 32.1 5 NNW 2.5 16 NW 33.1 36.8 32.8 29.707 0 0 0 0.581 0
5/1/18 6:00 37.1 37.2 37 82 32.1 3 NW 1.5 12 NW 35.1 36.8 34.8 29.717 0 0 0 0.581 0
5/1/18 6:30 37.1 37.1 37 82 32.1 4 N 2 12 NW 34 36.8 33.7 29.724 0 0 0 0.581 0
5/1/18 7:00 36.8 37 36.8 83 32.1 4 N 2 13 NW 33.6 36.6 33.4 29.746 0 0 0 0.588 0
5/1/18 7:30 37.3 37.3 36.8 82 32.3 3 NW 1.5 9 NNW 35.3 37 35.1 29.758 0 0 0 0.577 0
5/1/18 8:00 37.3 37.5 37.1 82 32.3 3 NW 1.5 11 WNW 35.3 37 35.1 29.771 0 0 0 0.577 0
5/1/18 8:30 37 37.4 36.9 83 32.3 4 WNW 2 13 W 33.9 36.8 33.6 29.785 0 0 0 0.583 0
5/1/18 9:00 37.6 37.6 37.1 82 32.6 4 NW 2 14 W 34.5 37.3 34.3 29.78 0 0 0 0.571 0
5/1/18 9:30 38.1 38.1 37.6 81 32.8 5 WNW 2.5 12 W 34.2 37.8 34 29.796 0 0 0 0.56 0
5/1/18 10:00 39 39 38 79 33 5 NW 2.5 13 WNW 35.3 38.7 35 29.786 0 0 0 0.542 0
5/1/18 10:30 40.3 40.4 39 78 34 4 NW 2 12 N 37.7 39.9 37.3 29.796 0 0 0 0.515 0
5/1/18 11:00 40 40.3 39.4 78 33.7 4 WNW 2 13 NW 37.3 39.6 36.9 29.798 0 0 0 0.521 0
5/1/18 11:30 41.8 41.8 39.9 76 34.8 4 N 2 13 WNW 39.4 41.4 39 29.799 0 0 0 0.483 0
5/1/18 12:00 42.2 42.2 41.1 75 34.8 3 NW 1.5 11 WNW 40.8 41.8 40.4 29.808 0 0 0 0.475 0
5/1/18 12:30 43.9 44 42.3 72 35.5 3 N 1.5 10 WNW 42.8 43.4 42.3 29.821 0 0 0 0.44 0
5/1/18 13:00 45.4 45.4 43.7 69 35.8 4 WNW 2 11 W 43.5 44.9 43 29.827 0 0 0 0.408 0
5/1/18 13:30 45.3 45.7 44.6 68 35.4 3 WNW 1.5 9 WNW 44.4 44.7 43.8 29.841 0 0 0 0.41 0
5/1/18 14:00 45.9 46 44.9 68 35.9 4 WNW 2 12 NW 44.1 45.3 43.5 29.847 0 0 0 0.398 0
5/1/18 14:30 46 46.3 45.4 70 36.8 3 WNW 1.5 9 WNW 45.2 45.5 44.7 29.853 0 0 0 0.396 0
5/1/18 15:00 46.4 46.4 45.7 69 36.8 4 WNW 2 10 WNW 44.7 45.9 44.1 29.859 0 0 0 0.387 0
5/1/18 15:30 46.1 47 45.9 69 36.5 3 WNW 1.5 10 WNW 45.3 45.6 44.8 29.855 0 0 0 0.394 0
5/1/18 16:00 46.1 46.6 45.7 69 36.5 3 WNW 1.5 8 WNW 45.3 45.6 44.8 29.853 0 0 0 0.394 0
5/1/18 16:30 46.3 46.7 46 70 37 3 NW 1.5 9 WNW 45.5 45.8 45 29.87 0 0 0 0.39 0
5/1/18 17:00 45.8 46.3 45.6 70 36.6 3 WNW 1.5 8 WNW 45 45.3 44.5 29.867 0 0 0 0.4 0
5/1/18 17:30 46.3 46.5 45.9 71 37.4 2 N 1 8 WNW 46.3 45.8 45.8 29.869 0 0 0 0.39 0
5/1/18 18:00 46 46.4 45.8 70 36.8 3 N 1.5 9 N 45.2 45.5 44.7 29.873 0 0 0 0.396 0
5/1/18 18:30 45.9 46.1 45.8 70 36.7 2 NNW 1 10 WNW 45.9 45.4 45.4 29.877 0 0 0 0.398 0
5/1/18 19:00 45.8 46 45.7 70 36.6 2 NNW 1 9 NW 45.8 45.3 45.3 29.869 0 0 0 0.4 0
5/1/18 19:30 45.7 45.8 45.6 72 37.2 3 N 1.5 8 NNW 44.8 45.2 44.4 29.868 0 0 0 0.402 0
5/1/18 20:00 45.2 45.7 45.2 72 36.7 3 N 1.5 8 NNW 44.2 44.7 43.8 29.86 0 0 0 0.412 0
5/1/18 20:30 43.6 45.3 43.6 75 36.2 1 N 0.5 9 N 43.6 43.2 43.2 29.846 0 0 0 0.446 0
5/1/18 21:00 43.8 43.8 43.4 75 36.4 0 -- 0 2 NNW 43.8 43.4 43.4 29.861 0 0 0 0.442 0
5/1/18 21:30 43.8 44 43.7 76 36.7 1 ENE 0.5 3 ENE 43.8 43.4 43.4 29.884 0 0 0 0.442 0
5/1/18 22:00 44.2 44.2 43.8 74 36.4 1 SSE 0.5 3 SSE 44.2 43.8 43.8 29.892 0 0 0 0.433 0
5/1/18 22:30 43.3 44.2 43.3 75 35.9 1 ESE 0.5 3 SE 43.3 42.9 42.9 29.905 0 0 0 0.452 0
5/1/18 23:00 43.6 43.8 43.3 74 35.9 2 SSE 1 5 SSE 43.6 43.2 43.2 29.9 0 0 0 0.446 0
5/1/18 23:30 43 43.6 43 74 35.3 1 SSE 0.5 5 SSE 43 42.6 42.6 29.892 0 0 0 0.458 0
5/2/18 0:00 40.6 43 40.5 78 34.3 0 -- 0 3 SSE 40.6 40.2 40.2 29.89 0 0 0 0.508 0
5/2/18 0:30 39.2 40.7 39.1 80 33.5 0 -- 0 3 SSE 39.2 38.9 38.9 29.884 0 0 0 0.537 0
5/2/18 1:00 37.9 39.3 37.9 82 32.9 0 -- 0 1 SSE 37.9 37.6 37.6 29.885 0 0 0 0.565 0
5/2/18 1:30 37.1 37.9 37 82 32.1 0 -- 0 3 SSE 37.1 36.8 36.8 29.892 0 0 0 0.581 0
5/2/18 2:00 38.2 38.2 37 83 33.5 1 W 0.5 3 WSW 38.2 38 38 29.907 0 0 0 0.558 0
5/2/18 2:30 37.4 38.4 37.4 83 32.7 0 -- 0 2 W 37.4 37.2 37.2 29.916 0 0 0 0.575 0
5/2/18 3:00 37.1 37.5 36.8 84 32.7 1 W 0.5 4 NW 37.1 36.9 36.9 29.908 0 0 0 0.581 0
5/2/18 3:30 37.4 37.6 37 83 32.7 0 -- 0 2 WNW 37.4 37.2 37.2 29.909 0 0 0 0.575 0
5/2/18 4:00 37.1 37.5 37 84 32.7 0 -- 0 0 -- 37.1 36.9 36.9 29.913 0 0 0 0.581 0
5/2/18 4:30 35.3 37.1 35.2 85 31.2 0 -- 0 0 -- 35.3 35.1 35.1 29.911 0 0 0 0.619 0
5/2/18 5:00 34.5 35.3 34.5 85 30.5 0 -- 0 0 -- 34.5 34.2 34.2 29.908 0 0 0 0.635 0
5/2/18 5:30 34.1 34.6 33.9 86 30.4 0 -- 0 0 -- 34.1 33.8 33.8 29.903 0 0 0 0.644 0
5/2/18 6:00 33.6 34.1 33.4 87 30.1 0 -- 0 1 W 33.6 33.4 33.4 29.918 0 0 0 0.654 0
5/2/18 6:30 33.7 33.7 33.2 87 30.2 0 -- 0 0 -- 33.7 33.5 33.5 29.928 0 0 0 0.652 0
5/2/18 7:00 33.9 34 33.5 87 30.4 0 -- 0 0 -- 33.9 33.6 33.6 29.937 0 0 0 0.648 0
5/2/18 7:30 38 38 33.8 85 33.9 0 -- 0 3 S 38 37.8 37.8 29.946 0 0 0 0.562 0
5/2/18 8:00 42.3 42.3 38 80 36.6 2 S 1 6 W 42.3 42 42 29.952 0 0 0 0.473 0
5/2/18 8:30 44.6 44.6 42.3 76 37.5 4 WSW 2 12 WSW 42.6 44.2 42.3 29.952 0 0 0 0.425 0
5/2/18 9:00 47 47 44.6 71 38.1 2 WSW 1 8 WSW 47 46.5 46.5 29.934 0 0 0 0.375 0
5/2/18 9:30 49.5 49.9 47 66 38.6 2 S 1 6 S 49.5 48.9 48.9 29.925 0 0 0 0.323 0
5/2/18 10:00 52.2 52.2 49.5 62 39.6 2 SSW 1 7 WSW 52.2 51.2 51.2 29.918 0 0 0 0.267 0
5/2/18 10:30 54.8 54.8 52.2 59 40.7 2 WSW 1 9 WNW 54.8 53.4 53.4 29.907 0 0 0 0.213 0
5/2/18 11:00 56.4 57 54.5 53 39.5 3 W 1.5 11 SW 56.4 54.6 54.6 29.911 0 0 0 0.179 0
5/2/18 11:30 59.3 59.5 56.3 47 39.1 3 WSW 1.5 10 W 59.3 57.1 57.1 29.911 0 0 0 0.119 0
5/2/18 12:00 61 61 58.8 48 41.2 4 WSW 2 11 WSW 61 58.9 58.9 29.915 0 0 0 0.083 0
5/2/18 12:30 62.2 62.3 60.6 43 39.4 5 WSW 2.5 16 WNW 62.2 59.7 59.7 29.909 0 0 0 0.058 0
5/2/18 13:00 63.2 63.2 61.5 40 38.5 6 WSW 3 14 WSW 63.2 60.5 60.5 29.907 0 0 0 0.037 0
5/2/18 13:30 63.2 64.4 61.7 44 40.9 5 WSW 2.5 14 W 63.2 60.8 60.8 29.902 0 0 0 0.037 0
5/2/18 14:00 64.3 65.3 63 41 40.1 4 WSW 2 17 WSW 64.3 61.8 61.8 29.89 0 0 0 0.015 0
5/2/18 14:30 65.7 66.7 64.4 37 38.7 5 WNW 2.5 13 W 65.7 62.9 62.9 29.89 0 0 0 0 0.015
5/2/18 15:00 68.1 68.1 65.1 38 41.5 4 WSW 2 14 WNW 68.1 65.6 65.6 29.882 0 0 0 0 0.065
5/2/18 15:30 68.9 69.2 67.5 35 40.1 4 WSW 2 12 WSW 68.9 65.9 65.9 29.874 0 0 0 0 0.081
5/2/18 16:00 68.8 69.4 67.7 35 40 5 W 2.5 13 W 68.8 65.8 65.8 29.861 0 0 0 0 0.079
5/2/18 16:30 71 71.1 68.7 32 39.6 5 WSW 2.5 15 WNW 71 68.1 68.1 29.849 0 0 0 0 0.125
5/2/18 17:00 71.7 71.8 70 31 39.4 5 WSW 2.5 16 WSW 71.7 69 69 29.835 0 0 0 0 0.14
5/2/18 17:30 71 71.7 70.4 32 39.6 5 SW 2.5 12 W 71 68.1 68.1 29.818 0 0 0 0 0.125
5/2/18 18:00 71.3 71.4 70.3 32 39.9 4 SW 2 11 WSW 71.3 68.5 68.5 29.8 0 0 0 0 0.131
5/2/18 18:30 69.9 71.5 69.9 31 37.9 4 WSW 2 13 SW 69.9 66.4 66.4 29.783 0 0 0 0 0.102
5/2/18 19:00 69 69.9 69 33 38.7 4 WSW 2 15 WSW 69 65.8 65.8 29.784 0 0 0 0 0.083
5/2/18 19:30 65.3 69.2 65.3 47 44.5 5 WNW 2.5 15 WNW 65.3 63.4 63.4 29.795 0 0 0 0 0.006
5/2/18 20:00 63.6 65.3 63.6 50 44.6 3 WNW 1.5 10 NW 63.6 61.7 61.7 29.802 0 0 0 0.029 0
5/2/18 20:30 63.3 63.7 63.3 50 44.3 2 W 1 6 W 63.3 61.4 61.4 29.809 0 0 0 0.035 0
5/2/18 21:00 62.3 63.3 62.3 52 44.4 1 W 0.5 2 WSW 62.3 60.5 60.5 29.812 0 0 0 0.056 0
5/2/18 21:30 61 62.3 61 56 45.2 0 -- 0 2 W 61 59.4 59.4 29.823 0 0 0 0.083 0
5/2/18 22:00 59.5 61.1 59.5 60 45.6 1 NNE 0.5 3 NNE 59.5 58.1 58.1 29.841 0 0 0 0.115 0
5/2/18 22:30 56.4 59.5 56 73 47.9 0 -- 0 3 N 56.4 55.7 55.7 29.839 0 0 0 0.179 0
5/2/18 23:00 56.5 56.6 56 72 47.6 0 -- 0 2 E 56.5 55.7 55.7 29.839 0 0 0 0.177 0
5/2/18 23:30 55.8 56.8 55.8 75 48 0 -- 0 0 -- 55.8 55.2 55.2 29.853 0.01 0 0 0.192 0
5/3/18 0:00 54.8 55.9 54.7 79 48.4 0 -- 0 0 -- 54.8 54.4 54.4 29.858 0 0 0 0.213 0
5/3/18 0:30 54.3 54.8 54.3 81 48.6 0 -- 0 0 -- 54.3 54 54 29.857 0 0 0 0.223 0
5/3/18 1:00 54.1 54.5 53.7 83 49.1 0 -- 0 0 -- 54.1 53.9 53.9 29.856 0 0 0 0.227 0
5/3/18 1:30 53 54.3 53 84 48.3 0 -- 0 0 -- 53 52.9 52.9 29.859 0 0 0 0.25 0
5/3/18 2:00 51 53 51 85 46.6 0 -- 0 0 -- 51 51 51 29.857 0 0 0 0.292 0
5/3/18 2:30 48.7 51 48.7 86 44.7 0 -- 0 2 NNE 48.7 48.8 48.8 29.859 0 0 0 0.34 0
5/3/18 3:00 47 48.8 47 88 43.6 0 -- 0 0 -- 47 47.1 47.1 29.867 0 0 0 0.375 0
5/3/18 3:30 46.1 47.1 46.1 88 42.7 0 -- 0 0 -- 46.1 46.2 46.2 29.868 0 0 0 0.394 0
5/3/18 4:00 45.5 46.2 45.5 88 42.2 0 -- 0 1 NNE 45.5 45.5 45.5 29.868 0 0 0 0.406 0
5/3/18 4:30 45.8 46 45.2 86 41.9 1 NW 0.5 2 NNW 45.8 45.8 45.8 29.868 0 0 0 0.4 0
5/3/18 5:00 45.7 45.9 45.4 80 39.9 1 NW 0.5 3 WNW 45.7 45.5 45.5 29.868 0 0 0 0.402 0
5/3/18 5:30 44.6 45.8 44.5 78 38.2 1 WNW 0.5 2 WNW 44.6 44.3 44.3 29.867 0 0 0 0.425 0
5/3/18 6:00 42.2 44.6 42.2 80 36.5 0 -- 0 2 WNW 42.2 41.9 41.9 29.872 0 0 0 0.475 0
5/3/18 6:30 41.3 42.2 41.2 81 35.9 0 -- 0 0 -- 41.3 41 41 29.881 0 0 0 0.494 0
5/3/18 7:00 42.2 42.2 41.1 80 36.5 0 -- 0 2 WNW 42.2 41.9 41.9 29.888 0 0 0 0.475 0
5/3/18 7:30 45.4 45.4 42.1 74 37.6 0 -- 0 2 WNW 45.4 45 45 29.891 0 0 0 0.408 0
5/3/18 8:00 49 49 45.4 71 40 0 -- 0 2 NW 49 48.6 48.6 29.889 0 0 0 0.333 0
5/3/18 8:30 52.5 52.5 49 63 40.3 1 N 0.5 2 N 52.5 51.5 51.5 29.892 0 0 0 0.26 0
5/3/18 9:00 55.6 55.6 52.5 55 39.7 1 N 0.5 4 N 55.6 54 54 29.897 0 0 0 0.196 0
5/3/18 9:30 57.9 58.1 55.6 47 37.8 2 N 1 5 NNE 57.9 55.7 55.7 29.9 0 0 0 0.148 0
5/3/18 10:00 59.9 60.1 57.8 43 37.3 2 NNE 1 4 ENE 59.9 57.4 57.4 29.895 0 0 0 0.106 0
5/3/18 10:30 60.8 61.3 59.7 40 36.3 2 N 1 4 N 60.8 58.1 58.1 29.897 0 0 0 0.088 0
5/3/18 11:00 62.9 63.3 60.9 39 37.5 1 E 0.5 4 NE 62.9 60.1 60.1 29.897 0 0 0 0.044 0
5/3/18 11:30 65.3 65.3 62.7 32 34.7 2 WSW 1 8 WSW 65.3 62 62 29.889 0 0 0 0 0.006
5/3/18 12:00 66 66.1 64.7 32 35.3 3 W 1.5 9 WNW 66 62.8 62.8 29.886 0 0 0 0 0.021
5/3/18 12:30 66.4 66.8 65.2 31 34.8 2 W 1 8 W 66.4 63.1 63.1 29.887 0 0 0 0 0.029
5/3/18 13:00 67.8 68.2 66.1 28 33.5 3 WNW 1.5 10 WSW 67.8 64.1 64.1 29.883 0 0 0 0 0.058
5/3/18 13:30 68.7 70.7 67 26 32.4 3 WSW 1.5 9 WNW 68.7 64.7 64.7 29.878 0 0 0 0 0.077
5/3/18 14:00 69.5 71.1 68.7 24 31.1 4 WNW 2 14 NW 69.5 65.3 65.3 29.869 0 0 0 0 0.094
5/3/18 14:30 71.3 71.5 68.9 27 35.6 5 WNW 2.5 17 WNW 71.3 68 68 29.864 0 0 0 0 0.131
5/3/18 15:00 72.3 72.6 71.1 24 33.5 6 WNW 3 16 WNW 72.3 69.2 69.2 29.851 0 0 0 0 0.152
5/3/18 15:30 72.4 72.6 71.3 24 33.5 6 WNW 3 18 NNW 72.4 69.3 69.3 29.844 0 0 0 0 0.154
5/3/18 16:00 72.7 73 72.1 25 34.8 6 WNW 3 14 WNW 72.7 69.8 69.8 29.842 0 0 0 0 0.16
5/3/18 16:30 72.9 73 71.4 28 37.9 4 NW 2 13 NW 72.9 70.5 70.5 29.836 0 0 0 0 0.165
5/3/18 17:00 73 73.2 72.1 25 35.1 3 NNE 1.5 11 W 73 70.3 70.3 29.82 0 0 0 0 0.167
5/3/18 17:30 73.1 73.6 72.6 23 33.1 5 WNW 2.5 15 W 73.1 70.3 70.3 29.812 0 0 0 0 0.169
5/3/18 18:00 72.4 73.1 72.4 25 34.6 3 WNW 1.5 10 WSW 72.4 69.4 69.4 29.797 0 0 0 0 0.154
5/3/18 18:30 71.5 72.7 71.5 25 33.8 3 WNW 1.5 9 NW 71.5 68.1 68.1 29.787 0 0 0 0 0.135
5/3/18 19:00 71.7 71.8 71.4 25 34 2 W 1 9 W 71.7 68.4 68.4 29.775 0 0 0 0 0.14
5/3/18 19:30 71 71.7 70.8 26 34.4 1 W 0.5 4 WNW 71 67.5 67.5 29.768 0 0 0 0 0.125
5/3/18 20:00 69 71 68.9 29 35.4 1 W 0.5 5 WNW 69 65.3 65.3 29.765 0 0 0 0 0.083
5/3/18 20:30 67 69 67 32 36.1 0 -- 0 2 SSW 67 63.8 63.8 29.766 0 0 0 0 0.042
5/3/18 21:00 66.3 67 65.1 33 36.3 1 SSE 0.5 4 SSE 66.3 63.2 63.2 29.768 0 0 0 0 0.027
5/3/18 21:30 66 66.6 65.4 32 35.3 2 SSE 1 5 SSE 66 62.8 62.8 29.772 0 0 0 0 0.021
5/3/18 22:00 65.1 66 65.1 32 34.5 4 SSE 2 13 S 65.1 61.8 61.8 29.774 0 0 0 0 0.002
5/3/18 22:30 63.4 65.3 63.4 35 35.2 4 S 2 10 SSE 63.4 60.3 60.3 29.772 0 0 0 0.033 0
5/3/18 23:00 61.3 63.3 61.3 37 34.8 3 S 1.5 7 S 61.3 58.4 58.4 29.768 0 0 0 0.077 0
5/3/18 23:30 61 61.6 60.9 39 35.8 3 S 1.5 10 SSE 61 58.2 58.2 29.768 0 0 0 0.083 0
5/4/18 0:00 59.4 61 59.3 41 35.7 1 S 0.5 4 SSW 59.4 56.8 56.8 29.767 0 0 0 0.117 0
5/4/18 0:30 59.4 59.8 59.1 40 35.1 1 WSW 0.5 4 WSW 59.4 56.8 56.8 29.766 0 0 0 0.117 0
5/4/18 1:00 59.7 59.8 59.4 41 35.9 2 WSW 1 8 WNW 59.7 57.1 57.1 29.773 0 0 0 0.11 0
5/4/18 1:30 58.1 59.8 58.1 47 38 4 WNW 2 9 WNW 58.1 55.9 55.9 29.777 0 0 0 0.144 0
5/4/18 2:00 55.1 58 55.1 55 39.2 2 NW 1 8 N 55.1 53.5 53.5 29.777 0 0 0 0.206 0
5/4/18 2:30 55.5 55.5 54.7 53 38.6 4 NW 2 11 WNW 55.2 53.8 53.5 29.785 0 0 0 0.198 0
5/4/18 3:00 55.9 56.2 55.5 49 37 3 NW 1.5 14 NW 55.9 54 54 29.788 0 0 0 0.19 0
5/4/18 3:30 54.7 56 54.7 50 36.4 4 WNW 2 12 NW 54.3 52.9 52.5 29.794 0 0 0 0.215 0
5/4/18 4:00 53 54.8 53 53 36.3 5 WNW 2.5 11 NW 51.7 51.5 50.2 29.809 0 0 0 0.25 0
5/4/18 4:30 52 53 52 53 35.4 5 WNW 2.5 11 WNW 50.6 50.6 49.2 29.817 0 0 0 0.271 0
5/4/18 5:00 51.4 52.1 51.4 52 34.3 4 WNW 2 11 WNW 50.5 50.1 49.2 29.822 0 0 0 0.283 0
5/4/18 5:30 50.1 51.4 50.1 54 34.1 3 WNW 1.5 8 WNW 49.8 49 48.8 29.824 0 0 0 0.31 0
5/4/18 6:00 49.2 50.2 49.2 55 33.7 3 WNW 1.5 9 W 48.7 48.2 47.7 29.83 0 0 0 0.329 0
5/4/18 6:30 48.8 49.3 48.8 56 33.8 5 WNW 2.5 10 WNW 46.8 47.8 45.8 29.843 0 0 0 0.338 0
5/4/18 7:00 49.5 49.5 48.8 55 34 6 WNW 3 13 WNW 47.1 48.5 46.1 29.861 0 0 0 0.323 0
5/4/18 7:30 51.5 51.5 49.5 52 34.4 6 WNW 3 13 WNW 49.5 50.2 48.1 29.872 0 0 0 0.281 0
5/4/18 8:00 53.9 53.9 51.6 49 35.2 7 WNW 3.5 13 WNW 51.9 52.2 50.1 29.887 0 0 0 0.231 0
5/4/18 8:30 57.7 57.7 53.9 46 37 5 WNW 2.5 12 WNW 57.2 55.5 55 29.907 0 0 0 0.152 0
5/4/18 9:00 60.4 60.4 57.7 41 36.6 5 WNW 2.5 13 W 60.4 57.8 57.8 29.904 0 0 0 0.096 0
5/4/18 9:30 62.8 62.9 60.4 40 38.1 6 WNW 3 13 WNW 62.8 60.1 60.1 29.912 0 0 0 0.046 0
5/4/18 10:00 66.2 66.5 62.8 35 37.7 4 NW 2 12 WNW 66.2 63.2 63.2 29.913 0 0 0 0 0.025
5/4/18 10:30 67.5 68.6 66.1 34 38.1 4 NNW 2 11 NNE 67.5 64.5 64.5 29.915 0 0 0 0 0.052
5/4/18 11:00 69.1 69.2 67.5 30 36.3 6 WNW 3 12 WNW 69.1 65.5 65.5 29.919 0 0 0 0 0.085
5/4/18 11:30 71 71 69.1 29 37.1 5 WNW 2.5 13 NW 71 67.8 67.8 29.915 0 0 0 0 0.125
5/4/18 12:00 71.8 72.5 70.5 27 36 5 WNW 2.5 13 NW 71.8 68.7 68.7 29.912 0 0 0 0 0.142
5/4/18 12:30 73.4 74.4 71.8 25 35.4 6 WNW 3 15 WSW 73.4 70.8 70.8 29.905 0 0 0 0 0.175
5/4/18 13:00 74.3 75.1 73 24 35.2 6 WNW 3 18 WSW 74.3 71.9 71.9 29.896 0 0 0 0 0.194
5/4/18 13:30 76.3 76.7 73.5 22 34.6 7 W 3.5 18 NW 76.3 74.1 74.1 29.882 0 0 0 0 0.235
5/4/18 14:00 79 79 75.3 18 31.9 6 W 3 16 WNW 79 76.5 76.5 29.87 0 0 0 0 0.292
5/4/18 14:30 79.6 79.6 78.4 19 33.7 9 WNW 4.5 20 W 78.5 77.1 76 29.853 0 0 0 0 0.304
5/4/18 15:00 79.9 80.3 79.4 19 33.9 9 W 4.5 27 W 78.8 77.4 76.3 29.837 0 0 0 0 0.31
5/4/18 15:30 80.2 80.9 79.5 18 32.8 10 WNW 5 24 NW 78.6 77.6 76 29.819 0 0 0 0 0.317
5/4/18 16:00 80.1 80.7 78.9 19 34.1 10 WNW 5 22 W 78.5 77.6 76 29.801 0 0 0 0 0.315
5/4/18 16:30 79.8 81.6 78.9 18 32.5 12 WNW 6 33 WNW 77.6 77.2 75 29.801 0 0 0 0 0.308
5/4/18 17:00 79.8 80.8 78.9 19 33.9 11 WNW 5.5 26 WNW 77.9 77.3 75.4 29.8 0 0 0 0 0.308
5/4/18 17:30 80 80.7 79.8 19 34 9 WNW 4.5 26 NW 78.9 77.5 76.4 29.803 0 0 0 0 0.312
5/4/18 18:00 78.9 80.1 78.8 22 36.8 8 WNW 4 22 W 78.5 76.6 76.2 29.814 0 0 0 0 0.29
5/4/18 18:30 77.6 79 77.6 21 34.6 7 NW 3.5 24 WNW 77.6 75.4 75.4 29.827 0 0 0 0 0.262
5/4/18 19:00 76.4 77.6 76.4 20 32.3 9 WNW 4.5 23 WNW 75.1 74.1 72.9 29.83 0 0 0 0 0.238
5/4/18 19:30 75.1 76.4 75 21 32.5 8 WNW 4 19 WNW 74.6 72.8 72.3 29.843 0 0 0 0 0.21
5/4/18 20:00 72.3 75.1 72.2 27 36.4 5 NW 2.5 16 NW 72.3 69.5 69.5 29.856 0 0 0 0 0.152
5/4/18 20:30 69.3 72.3 69.1 31 37.3 5 N 2.5 13 N 69.3 65.8 65.8 29.882 0 0 0 0 0.09
5/4/18 21:00 64.3 69.4 64.3 37 37.5 4 N 2 10 NNE 64.3 61.4 61.4 29.895 0 0 0 0.015 0
5/4/18 21:30 61.8 64.3 61.7 39 36.6 2 N 1 4 N 61.8 59 59 29.903 0 0 0 0.067 0
5/4/18 22:00 61.8 61.8 60.7 39 36.6 2 NNE 1 4 NE 61.8 59 59 29.908 0 0 0 0.067 0
5/4/18 22:30 57.2 61.8 57.2 44 35.5 1 NE 0.5 5 ENE 57.2 54.9 54.9 29.919 0 0 0 0.162 0
5/4/18 23:00 57.5 58.1 57.2 45 36.3 2 NE 1 5 ENE 57.5 55.2 55.2 29.921 0 0 0 0.156 0
5/4/18 23:30 55.8 57.5 55.8 45 34.8 1 ENE 0.5 3 ENE 55.8 53.6 53.6 29.921 0 0 0 0.192 0
5/5/18 0:00 55.9 56.8 55.5 43 33.7 1 ENE 0.5 4 E 55.9 53.6 53.6 29.912 0 0 0 0.19 0
5/5/18 0:30 56.9 56.9 53.9 41 33.4 1 SE 0.5 3 SE 56.9 54.5 54.5 29.915 0 0 0 0.169 0
5/5/18 1:00 55.6 56.9 55.6 42 32.8 1 SE 0.5 3 SSE 55.6 53.3 53.3 29.916 0 0 0 0.196 0
5/5/18 1:30 56.2 56.5 55.4 43 34 1 SSE 0.5 4 SSE 56.2 53.9 53.9 29.915 0 0 0 0.183 0
5/5/18 2:00 56.3 56.9 55.9 45 35.2 2 SSE 1 4 SSE 56.3 54.1 54.1 29.912 0 0 0 0.181 0
5/5/18 2:30 57.5 57.5 56.2 43 35.2 3 S 1.5 7 SSE 57.5 55.1 55.1 29.917 0 0 0 0.156 0
5/5/18 3:00 56.7 57.6 56.6 47 36.7 4 S 2 10 S 56.6 54.6 54.5 29.912 0 0 0 0.173 0
5/5/18 3:30 57.3 57.3 56.8 47 37.2 3 S 1.5 9 S 57.3 55.2 55.2 29.91 0 0 0 0.16 0
5/5/18 4:00 58.1 58.3 57.3 48 38.5 4 S 2 11 S 58.1 56 56 29.902 0 0 0 0.144 0
5/5/18 4:30 57.8 58 57.6 46 37.1 5 S 2.5 12 SSE 57.4 55.6 55.1 29.907 0 0 0 0.15 0
5/5/18 5:00 56.9 58 56.8 48 37.4 4 S 2 9 SSE 56.9 54.8 54.8 29.902 0 0 0 0.169 0
5/5/18 5:30 56.6 56.8 56.4 48 37.1 4 S 2 12 SW 56.5 54.5 54.5 29.908 0 0 0 0.175 0
5/5/18 6:00 58.8 58.9 56.6 43 36.3 4 S 2 11 SSW 58.8 56.4 56.4 29.902 0 0 0 0.129 0
5/5/18 6:30 58.2 58.8 58 44 36.4 4 S 2 12 SSW 58.2 55.8 55.8 29.912 0 0 0 0.142 0
5/5/18 7:00 58.2 58.2 57.7 45 36.9 4 S 2 11 S 58.2 55.9 55.9 29.908 0 0 0 0.142 0
5/5/18 7:30 59.3 59.4 58.2 44 37.4 6 S 3 17 SSE 58.8 56.9 56.4 29.909 0 0 0 0.119 0
5/5/18 8:00 59 59.3 58.4 46 38.2 4 SSE 2 15 SSE 59 56.8 56.8 29.915 0 0 0 0.125 0
5/5/18 8:30 61 61.6 59 42 37.7 6 SSE 3 16 S 60.8 58.5 58.3 29.913 0 0 0 0.083 0
5/5/18 9:00 64.2 64.6 61 39 38.7 5 S 2.5 12 S 64.2 61.5 61.5 29.911 0 0 0 0.017 0
5/5/18 9:30 65.6 65.8 64.3 38 39.3 5 S 2.5 12 S 65.6 62.9 62.9 29.908 0 0 0 0 0.012
5/5/18 10:00 70.2 70.3 65.6 33 39.7 5 SSE 2.5 12 S 70.2 67 67 29.905 0 0 0 0 0.108
5/5/18 10:30 70.5 71.4 70.2 34 40.8 4 S 2 14 SSE 70.5 67.6 67.6 29.909 0 0 0 0 0.115
5/5/18 11:00 70.8 70.8 69.7 33 40.3 1 SSW 0.5 5 SSW 70.8 67.9 67.9 29.912 0 0 0 0 0.121
5/5/18 11:30 69.7 70.8 69.5 36 41.5 3 WSW 1.5 9 WNW 69.7 66.8 66.8 29.897 0 0 0 0 0.098
5/5/18 12:00 75.3 75.3 69.2 33 44.2 3 SW 1.5 13 SSE 75.3 73.8 73.8 29.904 0 0 0 0 0.215
5/5/18 12:30 77.3 77.7 75 26 39.7 5 SSE 2.5 17 SSE 77.3 75.3 75.3 29.892 0 0 0 0 0.256
5/5/18 13:00 78.9 79 76.7 25 40.1 5 SSE 2.5 14 ESE 78.9 76.7 76.7 29.877 0 0 0 0 0.29
5/5/18 13:30 78.7 79.4 78.7 24 38.9 7 SSE 3.5 15 SSE 78.7 76.5 76.5 29.866 0 0 0 0 0.285
5/5/18 14:00 79.7 80.2 78.5 24 39.7 7 SSE 3.5 21 SSE 79.7 77.5 77.5 29.858 0 0 0 0 0.306
5/5/18 14:30 80 80.6 79.5 24 40 6 SSE 3 16 SSE 80 77.8 77.8 29.855 0 0 0 0 0.312
5/5/18 15:00 80.7 81.2 80 21 37.1 5 SSE 2.5 14 SSE 80.7 78.3 78.3 29.855 0 0 0 0 0.327
5/5/18 15:30 81.8 82.6 80.2 22 39.2 2 E 1 7 E 81.8 79.3 79.3 29.845 0 0 0 0 0.35
5/5/18 16:00 82.4 82.4 81.2 23 40.9 3 ENE 1.5 10 NE 82.4 79.9 79.9 29.835 0 0 0 0 0.363
5/5/18 16:30 83.1 83.5 81.6 22 40.3 4 N 2 11 WNW 83.1 80.5 80.5 29.833 0 0 0 0 0.377
5/5/18 17:00 79.7 83 79.6 24 39.7 3 N 1.5 10 NNE 79.7 77.5 77.5 29.833 0 0 0 0 0.306
5/5/18 17:30 81.1 81.6 79.1 23 39.8 4 N 2 14 WNW 81.1 78.7 78.7 29.836 0 0 0 0 0.335
5/5/18 18:00 79.2 81.1 79.2 28 43.3 9 NNE 4.5 18 NNE 78.1 77.2 76.1 29.849 0 0 0 0 0.296
5/5/18 18:30 76.8 79.2 76.7 28 41.2 11 NNE 5.5 21 N 74.5 75 72.7 29.857 0 0 0 0 0.246
5/5/18 19:00 75 76.7 75 30 41.5 9 NNE 4.5 19 N 73.7 73.2 71.9 29.872 0 0 0 0 0.208
5/5/18 19:30 73.4 75 73.4 31 40.9 10 NNE 5 20 NE 71.3 71.4 69.3 29.884 0 0 0 0 0.175
5/5/18 20:00 71.6 73.4 71.6 32 40.2 9 NNE 4.5 17 N 70.2 68.9 67.5 29.904 0 0 0 0 0.137
5/5/18 20:30 69.1 71.6 69.1 34 39.5 9 NNE 4.5 16 NNE 67.7 66 64.6 29.918 0 0 0 0 0.085
5/5/18 21:00 66.7 69.2 66.7 35 38.2 8 NNE 4 15 NNW 66.1 63.8 63.2 29.935 0 0 0 0 0.035
5/5/18 21:30 65.2 66.7 65.1 35 36.8 9 NNE 4.5 16 N 63.8 62.2 60.8 29.955 0 0 0 0 0.004
5/5/18 22:00 64.8 65.7 64.8 35 36.5 7 NNE 3.5 16 N 64.8 61.8 61.8 29.974 0 0 0 0.004 0
5/5/18 22:30 63 64.9 62.9 36 35.6 5 N 2.5 12 NNE 63 60 60 29.989 0 0 0 0.042 0
5/5/18 23:00 62.2 63 62.2 36 34.9 4 N 2 10 NNW 62.2 59.2 59.2 29.997 0 0 0 0.058 0
5/5/18 23:30 60.5 62.3 60.5 36 33.4 4 N 2 11 N 60.5 57.5 57.5 30.004 0 0 0 0.094 0
5/6/18 0:00 57.2 60.5 57.2 41 33.7 4 N 2 11 N 57.2 54.7 54.7 30.021 0 0 0 0.162 0
5/6/18 0:30 54.7 56.9 54.7 44 33.2 3 N 1.5 8 N 54.7 52.6 52.6 30.027 0 0 0 0.215 0
5/6/18 1:00 53 54.7 52.9 47 33.3 2 N 1 5 N 53 51.3 51.3 30.03 0 0 0 0.25 0
5/6/18 1:30 52 53.1 52 49 33.4 1 N 0.5 3 N 52 50.5 50.5 30.035 0 0 0 0.271 0
5/6/18 2:00 50.4 52 50.4 52 33.4 0 -- 0 2 N 50.4 49.2 49.2 30.036 0 0 0 0.304 0
5/6/18 2:30 49.2 50.4 49.2 55 33.7 0 -- 0 2 N 49.2 48.2 48.2 30.04 0 0 0 0.329 0
5/6/18 3:00 48 49.4 48 57 33.5 0 -- 0 2 N 48 47.1 47.1 30.046 0 0 0 0.354 0
5/6/18 3:30 47.4 48 47 59 33.8 0 -- 0 0 -- 47.4 46.6 46.6 30.056 0 0 0 0.367 0
5/6/18 4:00 46.4 47.4 46.3 61 33.7 0 -- 0 0 -- 46.4 45.6 45.6 30.052 0 0 0 0.387 0
5/6/18 4:30 45.8 46.4 45.8 63 33.9 0 -- 0 1 N 45.8 45.1 45.1 30.057 0 0 0 0.4 0
5/6/18 5:00 45.4 45.8 45.2 64 33.9 0 -- 0 0 -- 45.4 44.7 44.7 30.068 0 0 0 0.408 0
5/6/18 5:30 45.6 45.9 45.3 64 34.1 1 N 0.5 2 N 45.6 44.9 44.9 30.071 0 0 0 0.404 0
5/6/18 6:00 45.8 46.3 45.4 64 34.3 1 NNW 0.5 2 N 45.8 45.1 45.1 30.075 0 0 0 0.4 0
5/6/18 6:30 44.8 45.8 44.8 66 34.1 0 -- 0 1 NNW 44.8 44.1 44.1 30.09 0 0 0 0.421 0
5/6/18 7:00 45.1 45.6 44.7 67 34.8 0 -- 0 1 NNW 45.1 44.5 44.5 30.097 0 0 0 0.415 0
5/6/18 7:30 47.8 47.8 45.2 65 36.6 0 -- 0 0 -- 47.8 47.1 47.1 30.111 0 0 0 0.358 0
5/6/18 8:00 50.4 50.4 47.8 58 36.2 1 ENE 0.5 3 ENE 50.4 49.5 49.5 30.111 0 0 0 0.304 0
5/6/18 8:30 55.5 55.5 50.4 50 37.1 1 E 0.5 3 E 55.5 53.7 53.7 30.108 0 0 0 0.198 0
5/6/18 9:00 59.2 59.3 55.5 43 36.7 1 S 0.5 4 SSE 59.2 56.8 56.8 30.118 0 0 0 0.121 0
5/6/18 9:30 63.5 63.6 59.2 39 38.1 2 WSW 1 7 W 63.5 60.8 60.8 30.115 0 0 0 0.031 0
5/6/18 10:00 66.4 66.6 63.3 32 35.6 2 WSW 1 10 SW 66.4 63.2 63.2 30.112 0 0 0 0 0.029
5/6/18 10:30 68.1 68.1 66.3 33 37.9 3 WSW 1.5 10 S 68.1 65 65 30.11 0 0 0 0 0.065
5/6/18 11:00 71 71 68.1 31 38.8 3 WSW 1.5 11 W 71 68 68 30.106 0 0 0 0 0.125
5/6/18 11:30 73.9 73.9 70.8 30 40.5 4 W 2 11 WSW 73.9 71.9 71.9 30.101 0 0 0 0 0.185
5/6/18 12:00 74.8 74.8 73.2 25 36.6 3 SSW 1.5 12 SSW 74.8 72.6 72.6 30.094 0 0 0 0 0.204
5/6/18 12:30 76.4 76.4 74.6 23 35.8 6 W 3 14 WNW 76.4 74.3 74.3 30.085 0 0 0 0 0.238
5/6/18 13:00 77.5 77.9 76.4 23 36.8 6 W 3 17 WSW 77.5 75.4 75.4 30.069 0 0 0 0 0.26
5/6/18 13:30 79.1 79.1 77.6 22 37 6 WSW 3 17 WNW 79.1 76.8 76.8 30.061 0 0 0 0 0.294
5/6/18 14:00 79.4 80.1 78.7 22 37.2 7 W 3.5 17 W 79.4 77.1 77.1 30.053 0 0 0 0 0.3
5/6/18 14:30 80.5 80.8 79.4 22 38.1 8 W 4 18 WNW 80.1 78.1 77.7 30.038 0 0 0 0 0.323
5/6/18 15:00 80.9 81.7 80 22 38.5 8 W 4 17 WSW 80.5 78.5 78.1 30.032 0 0 0 0 0.331
5/6/18 15:30 82.9 82.9 80.6 19 36.4 7 W 3.5 19 WNW 82.9 80.1 80.1 30.019 0 0 0 0 0.373
5/6/18 16:00 82.1 82.9 80.9 21 38.3 8 WNW 4 19 WNW 81.8 79.5 79.2 30.015 0 0 0 0 0.356
5/6/18 16:30 81.1 82.7 81.1 23 39.8 9 W 4.5 19 W 80.1 78.7 77.7 30.004 0 0 0 0 0.335
5/6/18 17:00 81.8 82.7 80.3 22 39.2 8 WNW 4 18 NW 81.5 79.3 79 29.997 0 0 0 0 0.35
5/6/18 17:30 79.7 81.8 79.7 24 39.7 6 WNW 3 16 WSW 79.7 77.5 77.5 29.99 0 0 0 0 0.306
5/6/18 18:00 80.9 81 79.4 22 38.5 6 WNW 3 15 WNW 80.9 78.5 78.5 29.988 0 0 0 0 0.331
5/6/18 18:30 80.7 81.1 80.6 22 38.3 6 WNW 3 15 WNW 80.7 78.3 78.3 29.982 0 0 0 0 0.327
5/6/18 19:00 79.4 80.7 79.4 22 37.2 5 WNW 2.5 14 NW 79.4 77.1 77.1 29.976 0 0 0 0 0.3
5/6/18 19:30 78.6 79.4 78.5 24 38.8 4 WNW 2 11 NW 78.6 76.4 76.4 29.973 0 0 0 0 0.283
5/6/18 20:00 77.7 78.7 77.7 24 38 4 WNW 2 11 WSW 77.7 75.6 75.6 29.98 0 0 0 0 0.265
5/6/18 20:30 74.6 77.7 74.6 27 38.4 2 NW 1 8 W 74.6 72.5 72.5 29.977 0 0 0 0 0.2
5/6/18 21:00 70.7 74.5 70.7 30 37.7 1 NW 0.5 4 NNW 70.7 67.4 67.4 29.983 0 0 0 0 0.119
5/6/18 21:30 68.1 70.7 68.1 33 37.9 0 -- 0 1 WNW 68.1 65 65 29.989 0 0 0 0 0.065
5/6/18 22:00 65.4 68.1 65.4 38 39.1 0 -- 0 1 WNW 65.4 62.7 62.7 29.993 0 0 0 0 0.008
5/6/18 22:30 62.9 65.4 62.8 42 39.4 0 -- 0 0 -- 62.9 60.4 60.4 29.995 0 0 0 0.044 0
5/6/18 23:00 62.6 63.2 62.4 42 39.2 0 -- 0 2 WNW 62.6 60.1 60.1 29.999 0 0 0 0.05 0
5/6/18 23:30 61.8 62.8 61.8 43 39.1 1 WNW 0.5 2 WNW 61.8 59.3 59.3 29.999 0 0 0 0.067 0
5/7/18 0:00 60.8 61.9 60.5 45 39.3 1 WNW 0.5 2 WNW 60.8 58.5 58.5 30.002 0 0 0 0.088 0
5/7/18 0:30 60.5 61 60 44 38.5 1 WNW 0.5 3 W 60.5 58.1 58.1 30.004 0 0 0 0.094 0
5/7/18 1:00 59.6 60.9 59.5 45 38.2 1 W 0.5 3 WSW 59.6 57.3 57.3 30.012 0 0 0 0.113 0
5/7/18 1:30 57.8 60 57.7 49 38.8 1 W 0.5 2 W 57.8 55.7 55.7 30.012 0 0 0 0.15 0
5/7/18 2:00 56.2 57.8 56.2 52 38.8 0 -- 0 2 W 56.2 54.4 54.4 30.011 0 0 0 0.183 0
5/7/18 2:30 53.7 56.2 53.7 56 38.4 0 -- 0 0 -- 53.7 52.3 52.3 30.006 0 0 0 0.235 0
5/7/18 3:00 52.4 53.7 52.4 60 38.9 0 -- 0 0 -- 52.4 51.3 51.3 30.003 0 0 0 0.262 0
5/7/18 3:30 53.2 53.6 52.4 58 38.8 0 -- 0 1 W 53.2 51.9 51.9 30.008 0 0 0 0.246 0
5/7/18 4:00 50.1 53.2 50.1 64 38.4 0 -- 0 1 W 50.1 49.4 49.4 30.015 0 0 0 0.31 0
5/7/18 4:30 50.1 50.3 49.8 65 38.8 0 -- 0 2 W 50.1 49.5 49.5 30.017 0 0 0 0.31 0
5/7/18 5:00 48.2 50.2 48.2 67 37.8 0 -- 0 2 SW 48.2 47.6 47.6 30.012 0 0 0 0.35 0
5/7/18 5:30 47.3 48.3 47.3 67 36.9 0 -- 0 1 SW 47.3 46.7 46.7 30.006 0 0 0 0.369 0
5/7/18 6:00 47.5 47.8 47 68 37.5 0 -- 0 3 S 47.5 46.9 46.9 30.015 0 0 0 0.365 0
5/7/18 6:30 46.7 47.5 46.7 65 35.6 0 -- 0 2 S 46.7 46 46 30.006 0 0 0 0.381 0
5/7/18 7:00 48.1 48.1 46.8 63 36.1 1 S 0.5 3 SE 48.1 47.4 47.4 30.014 0 0 0 0.352 0
5/7/18 7:30 52.6 52.6 48.1 57 37.8 1 S 0.5 4 S 52.6 51.3 51.3 30.021 0 0 0 0.258 0
5/7/18 8:00 59 59 52.6 50 40.4 1 WSW 0.5 4 WSW 59 57 57 30.018 0 0 0 0.125 0
5/7/18 8:30 62.7 62.7 59 45 41 2 SW 1 8 WSW 62.7 60.4 60.4 30.02 0 0 0 0.048 0
5/7/18 9:00 66.1 66.1 62.7 43 42.9 3 SW 1.5 9 SW 66.1 63.9 63.9 30.011 0 0 0 0 0.023
5/7/18 9:30 70.7 70.7 66.1 39 44.5 4 WSW 2 10 WSW 70.7 68.3 68.3 30.006 0 0 0 0 0.119
5/7/18 10:00 75.3 75.3 70.8 33 44.2 5 WSW 2.5 12 W 75.3 73.8 73.8 29.996 0 0 0 0 0.215
5/7/18 10:30 77.8 77.8 75.1 30 43.9 5 WSW 2.5 15 W 77.8 75.9 75.9 29.991 0 0 0 0 0.267
5/7/18 11:00 78.1 78.2 77.2 28 42.3 6 WSW 3 14 SW 78.1 76.1 76.1 29.993 0 0 0 0 0.273
5/7/18 11:30 79.7 79.8 78.1 28 43.7 6 WSW 3 16 WSW 79.7 77.6 77.6 29.983 0 0 0 0 0.306
5/7/18 12:00 83.2 83.2 79.8 24 42.6 6 WSW 3 17 W 83.2 80.6 80.6 29.969 0 0 0 0 0.379
5/7/18 12:30 85.3 85.3 83 22 42.1 7 WSW 3.5 16 W 85.3 82.4 82.4 29.955 0 0 0 0 0.423
5/7/18 13:00 86 86.2 85.3 19 38.9 6 SW 3 18 WSW 86 82.8 82.8 29.947 0 0 0 0 0.438
5/7/18 13:30 85.6 86.1 83.8 22 42.4 6 WSW 3 17 W 85.6 82.7 82.7 29.938 0 0 0 0 0.429
5/7/18 14:00 85.5 86.9 85.5 20 39.8 5 SSW 2.5 13 SW 85.5 82.4 82.4 29.93 0 0 0 0 0.427
5/7/18 14:30 85.1 86.6 83.5 20 39.5 5 WSW 2.5 15 WSW 85.1 82.1 82.1 29.918 0 0 0 0 0.419
5/7/18 15:00 83.9 86.7 83.9 21 39.8 5 SW 2.5 19 SW 83.9 81.2 81.2 29.91 0 0 0 0 0.394
5/7/18 15:30 81.8 83.9 81.8 22 39.2 7 WSW 3.5 18 SW 81.8 79.3 79.3 29.9 0 0 0 0 0.35
5/7/18 16:00 79.8 81.9 79.8 26 41.9 5 SW 2.5 18 SW 79.8 77.6 77.6 29.908 0 0 0 0 0.308
5/7/18 16:30 76.7 79.8 76.7 35 47 5 SW 2.5 19 W 76.7 75.2 75.2 29.912 0 0 0 0 0.244
5/7/18 17:00 77.1 77.2 75.9 33 45.8 3 S 1.5 8 SSE 77.1 75.5 75.5 29.904 0 0 0 0 0.252
5/7/18 17:30 73.2 77.4 73.2 47 51.8 2 SW 1 9 W 73.2 72.5 72.5 29.913 0 0 0 0 0.171
5/7/18 18:00 73.4 73.9 72.8 47 51.9 2 ESE 1 10 SSE 73.4 72.8 72.8 29.903 0 0 0 0 0.175
5/7/18 18:30 71.8 73.7 71.2 51 52.7 3 E 1.5 7 E 71.8 70.9 70.9 29.889 0 0 0 0 0.142
5/7/18 19:00 72.4 73 71.8 47 51 5 ESE 2.5 9 E 72.4 71.4 71.4 29.884 0 0 0 0 0.154
5/7/18 19:30 70.8 72.4 70.7 49 50.7 3 ESE 1.5 7 ESE 70.8 69.3 69.3 29.885 0 0 0 0 0.121
5/7/18 20:00 70.7 70.8 70.5 47 49.5 3 ESE 1.5 8 SE 70.7 69 69 29.877 0 0 0 0 0.119
5/7/18 20:30 69.8 70.7 69.8 49 49.8 5 ESE 2.5 9 SE 69.8 68.1 68.1 29.869 0 0 0 0 0.1
5/7/18 21:00 69.4 70 69.4 50 49.9 5 ESE 2.5 11 ESE 69.4 67.8 67.8 29.869 0 0 0 0 0.092
5/7/18 21:30 69 69.5 69 50 49.6 4 ESE 2 8 E 69 67.5 67.5 29.874 0 0 0 0 0.083
5/7/18 22:00 68.4 69 68.4 51 49.6 4 E 2 10 ENE 68.4 67.1 67.1 29.873 0 0 0 0 0.071
5/7/18 22:30 68.3 68.5 67.9 51 49.5 5 E 2.5 10 ESE 68.3 67 67 29.868 0 0 0 0 0.069
5/7/18 23:00 68.7 68.9 68.3 49 48.8 5 ESE 2.5 10 ESE 68.7 67.1 67.1 29.869 0 0 0 0 0.077
5/7/18 23:30 67 68.7 67 54 49.8 3 ESE 1.5 9 N 67 65.9 65.9 29.888 0 0 0 0 0.042
5/8/18 0:00 65.8 67 65.8 59 51.1 7 NNE 3.5 16 NNW 65.8 64.8 64.8 29.891 0 0 0 0 0.017
5/8/18 0:30 63.3 65.8 63.3 66 51.7 5 ENE 2.5 12 NNE 63.3 62.6 62.6 29.888 0 0 0 0.035 0
5/8/18 1:00 62.5 63.3 62.4 70 52.6 3 NE 1.5 6 NE 62.5 61.9 61.9 29.894 0 0 0 0.052 0
5/8/18 1:30 63.5 63.5 62.2 66 51.9 3 E 1.5 8 SE 63.5 62.8 62.8 29.884 0 0 0 0.031 0
5/8/18 2:00 63.4 63.7 62.9 67 52.2 3 ESE 1.5 8 E 63.4 62.8 62.8 29.884 0 0 0 0.033 0
5/8/18 2:30 62 63.4 62 68 51.3 2 SSE 1 5 ESE 62 61.2 61.2 29.861 0 0 0 0.062 0
5/8/18 3:00 62.9 62.9 62 63 50.1 4 SSE 2 12 SE 62.9 61.9 61.9 29.856 0 0 0 0.044 0
5/8/18 3:30 62.5 62.9 62.4 62 49.3 4 S 2 10 SSE 62.5 61.4 61.4 29.86 0 0 0 0.052 0
5/8/18 4:00 62.5 62.6 62.4 65 50.6 2 S 1 7 SSW 62.5 61.7 61.7 29.868 0 0 0 0.052 0
5/8/18 4:30 61.7 62.5 61.6 69 51.4 1 S 0.5 4 SSE 61.7 61 61 29.868 0 0 0 0.069 0
5/8/18 5:00 60 61.9 60 75 52.1 1 ESE 0.5 6 SSE 60 59.5 59.5 29.866 0 0 0 0.104 0
5/8/18 5:30 57.7 60 57.7 82 52.2 0 -- 0 3 SSE 57.7 57.5 57.5 29.871 0.03 0.1 0 0.152 0
5/8/18 6:00 57 57.8 57 85 52.5 1 ENE 0.5 3 NE 57 56.8 56.8 29.88 0.06 0.17 0 0.167 0
5/8/18 6:30 57 57.1 56.8 87 53.2 0 -- 0 4 E 57 56.9 56.9 29.885 0.09 0.6 0 0.167 0
5/8/18 7:00 57.5 57.5 57 86 53.3 3 ESE 1.5 8 ESE 57.5 57.4 57.4 29.884 0.02 0.26 0 0.156 0
5/8/18 7:30 57.5 57.6 57.4 85 53 3 E 1.5 8 SE 57.5 57.3 57.3 29.875 0.03 0.06 0 0.156 0
5/8/18 8:00 57.2 57.6 57.2 85 52.7 4 E 2 8 E 57.2 57 57 29.873 0.03 0.09 0 0.162 0
5/8/18 8:30 57.4 57.5 57.1 84 52.6 4 E 2 8 ESE 57.4 57.2 57.2 29.87 0.01 0.04 0 0.158 0
5/8/18 9:00 57.9 58 57.4 84 53.1 3 ENE 1.5 8 ENE 57.9 57.8 57.8 29.866 0 0 0 0.148 0
5/8/18 9:30 58.1 58.1 57.9 83 53 3 ENE 1.5 9 E 58.1 57.9 57.9 29.861 0 0 0 0.144 0
5/8/18 10:00 58.5 58.5 58.1 82 53 3 E 1.5 9 E 58.5 58.3 58.3 29.855 0 0 0 0.135 0
5/8/18 10:30 59.2 59.2 58.5 80 53 5 ESE 2.5 10 ESE 59 59 58.8 29.854 0 0 0 0.121 0
5/8/18 11:00 59.6 59.7 59.2 79 53.1 6 ESE 3 10 ESE 59.1 59.3 58.9 29.851 0 0 0 0.113 0
5/8/18 11:30 60.1 60.2 59.6 78 53.2 6 ESE 3 11 E 59.7 59.8 59.4 29.85 0 0 0 0.102 0
5/8/18 12:00 61.8 61.8 60.1 77 54.5 6 ESE 3 10 ESE 61.8 61.6 61.6 29.842 0 0 0 0.067 0
5/8/18 12:30 64.6 64.6 61.8 74 56.1 7 ESE 3.5 13 SE 64.6 64.5 64.5 29.834 0 0 0 0.008 0
5/8/18 13:00 65.9 66.3 64.6 71 56.2 6 ESE 3 15 SSE 65.9 65.9 65.9 29.823 0 0 0 0 0.019
5/8/18 13:30 66.3 67 66 70 56.2 5 ESE 2.5 14 ESE 66.3 66.3 66.3 29.818 0 0 0 0 0.027
5/8/18 14:00 70.1 70.3 66.3 64 57.4 6 ESE 3 11 E 70.1 69.8 69.8 29.807 0 0 0 0 0.106
5/8/18 14:30 67.8 70.1 67.7 69 57.3 4 E 2 10 ESE 67.8 68 68 29.804 0 0 0 0 0.058
5/8/18 15:00 64 67.8 64 75 55.9 4 NE 2 11 N 64 63.9 63.9 29.799 0 0 0 0.021 0
5/8/18 15:30 63.4 64.6 63.3 78 56.4 5 N 2.5 14 NNE 63.4 63.5 63.5 29.8 0 0 0 0.033 0
5/8/18 16:00 61.6 63.4 61.6 81 55.7 6 NNE 3 14 NE 61.5 61.6 61.6 29.795 0 0 0 0.071 0
5/8/18 16:30 59.8 61.7 59.8 83 54.6 6 NNE 3 14 NNE 59.4 59.7 59.3 29.798 0 0 0 0.108 0
5/8/18 17:00 59.6 59.8 59.3 83 54.4 5 N 2.5 12 N 59.5 59.5 59.4 29.797 0 0 0 0.113 0
5/8/18 17:30 59.1 59.5 58.9 83 53.9 6 N 3 14 NNE 58.5 59 58.4 29.793 0 0 0 0.123 0
5/8/18 18:00 60.2 60.2 59.1 82 54.7 6 NNE 3 13 N 59.8 60.1 59.7 29.783 0 0 0 0.1 0
5/8/18 18:30 60.2 60.5 60.1 82 54.7 5 NNE 2.5 12 NNW 60.2 60.1 60.1 29.776 0 0 0 0.1 0
5/8/18 19:00 59.2 60.2 59.1 83 54 5 N 2.5 11 N 59 59.1 58.9 29.773 0 0 0 0.121 0
5/8/18 19:30 59.2 59.4 59.1 83 54 4 NNE 2 9 N 59.2 59.1 59.1 29.772 0 0 0 0.121 0
5/8/18 20:00 59 59.2 59 83 53.8 3 N 1.5 9 NW 59 58.9 58.9 29.781 0 0 0 0.125 0
5/8/18 20:30 58.1 59.1 58.1 84 53.3 2 N 1 8 NNW 58.1 58 58 29.775 0 0 0 0.144 0
5/8/18 21:00 57.6 58.1 57.5 85 53.1 2 NW 1 8 NNW 57.6 57.5 57.5 29.772 0.19 5.05 0 0.154 0
5/8/18 21:30 57.1 57.5 57.1 86 53 2 N 1 6 WNW 57.1 57 57 29.767 0 0 0 0.165 0
5/8/18 22:00 56.7 57.2 56.7 86 52.6 2 NW 1 6 WNW 56.7 56.6 56.6 29.771 0 0 0 0.173 0
5/8/18 22:30 56.7 56.8 56.6 86 52.6 2 WNW 1 7 WNW 56.7 56.6 56.6 29.769 0 0 0 0.173 0
5/8/18 23:00 56.2 56.7 56.2 86 52.1 2 WNW 1 6 NW 56.2 56.1 56.1 29.761 0 0 0 0.183 0
5/8/18 23:30 57.2 57.2 56.2 86 53 1 NW 0.5 5 WNW 57.2 57.1 57.1 29.757 0 0 0 0.162 0
5/9/18 0:00 56.7 57.8 56.6 84 51.9 3 NNE 1.5 9 NNE 56.7 56.5 56.5 29.747 0 0 0 0.173 0
5/9/18 0:30 56.4 56.6 56.1 84 51.6 3 NNE 1.5 9 N 56.4 56.2 56.2 29.735 0 0 0 0.179 0
5/9/18 1:00 55.1 56.4 55.1 82 49.7 3 ENE 1.5 8 ENE 55.1 54.8 54.8 29.732 0 0 0 0.206 0
5/9/18 1:30 53.9 55.1 53.9 83 48.9 2 NE 1 7 NE 53.9 53.7 53.7 29.733 0 0 0 0.231 0
5/9/18 2:00 53.4 53.9 53.4 83 48.4 2 N 1 8 N 53.4 53.2 53.2 29.736 0 0 0 0.242 0
5/9/18 2:30 52.9 53.4 52.9 84 48.2 2 NW 1 8 NW 52.9 52.8 52.8 29.742 0 0 0 0.252 0
5/9/18 3:00 51.6 52.9 51.6 84 46.9 3 NW 1.5 8 NNW 51.5 51.6 51.4 29.735 0 0 0 0.279 0
5/9/18 3:30 50.6 51.6 50.6 84 45.9 3 NNW 1.5 12 NW 50.4 50.6 50.4 29.74 0 0 0 0.3 0
5/9/18 4:00 49.9 50.7 49.9 85 45.6 3 NW 1.5 12 NW 49.6 50 49.7 29.738 0 0 0 0.315 0
5/9/18 4:30 49.6 49.9 49.6 85 45.3 4 NNW 2 11 NW 48.4 49.7 48.5 29.739 0 0 0 0.321 0
5/9/18 5:00 49.3 49.7 49.2 85 45 4 NNW 2 12 NNW 48.1 49.4 48.2 29.74 0 0 0 0.327 0
5/9/18 5:30 49 49.2 48.9 85 44.7 3 NNW 1.5 9 NNE 48.5 49.1 48.6 29.745 0 0 0 0.333 0
5/9/18 6:00 49.1 49.1 48.9 86 45.1 3 NW 1.5 10 NNE 48.6 49.2 48.8 29.745 0 0 0 0.331 0
5/9/18 6:30 48.7 49.1 48.7 85 44.4 3 NW 1.5 10 NNW 48.2 48.8 48.2 29.745 0 0 0 0.34 0
5/9/18 7:00 48.8 48.9 48.6 85 44.5 3 NW 1.5 10 NNW 48.3 48.9 48.4 29.738 0 0 0 0.338 0
5/9/18 7:30 48.8 48.9 48.7 86 44.8 4 N 2 11 N 47.5 48.9 47.6 29.741 0 0 0 0.338 0
5/9/18 8:00 49.1 49.1 48.7 86 45.1 3 N 1.5 10 NW 48.6 49.2 48.8 29.759 0 0 0 0.331 0
5/9/18 8:30 49.7 49.7 49.1 85 45.4 5 WNW 2.5 13 NW 47.8 49.8 47.9 29.758 0 0 0 0.319 0
5/9/18 9:00 49.9 50 49.7 85 45.6 5 WNW 2.5 14 WNW 48.1 50 48.2 29.758 0 0 0 0.315 0
5/9/18 9:30 50 50 49.7 85 45.7 5 WNW 2.5 14 W 48.2 50.1 48.3 29.742 0 0 0 0.312 0
5/9/18 10:00 50.4 50.5 50 84 45.7 3 NNW 1.5 10 NNW 50.1 50.4 50.2 29.747 0 0 0 0.304 0
5/9/18 10:30 50.7 50.8 50.3 84 46 2 NW 1 8 NW 50.7 50.7 50.7 29.747 0 0 0 0.298 0
5/9/18 11:00 51.7 51.7 50.7 83 46.7 3 WNW 1.5 10 WNW 51.6 51.6 51.5 29.755 0 0 0 0.277 0
5/9/18 11:30 53 53.5 51.7 80 47 4 WNW 2 12 WNW 52.3 52.7 52 29.754 0 0 0 0.25 0
5/9/18 12:00 54.4 54.5 52.9 79 48 3 WNW 1.5 10 WNW 54.4 54 54 29.751 0 0 0 0.221 0
5/9/18 12:30 56.6 56.6 54.4 77 49.5 3 NW 1.5 9 WNW 56.6 56.1 56.1 29.743 0 0 0 0.175 0
5/9/18 13:00 59.7 59.8 56.6 73 51 4 N 2 10 WNW 59.7 59 59 29.734 0 0 0 0.11 0
5/9/18 13:30 62.4 62.7 59.7 72 53.3 3 N 1.5 9 NNW 62.4 61.9 61.9 29.725 0 0 0 0.054 0
5/9/18 14:00 65.6 66.5 62.5 67 54.3 4 NW 2 11 WNW 65.6 65.2 65.2 29.719 0 0 0 0 0.012
5/9/18 14:30 66 66.7 65.5 68 55.1 5 NW 2.5 13 NNW 66 65.8 65.8 29.721 0 0 0 0 0.021
5/9/18 15:00 67.4 68.3 66.1 66 55.6 4 WNW 2 13 WNW 67.4 67.3 67.3 29.718 0 0 0 0 0.05
5/9/18 15:30 68.5 69.8 67.4 62 55 5 NW 2.5 12 WNW 68.5 68.2 68.2 29.713 0 0 0 0 0.073
5/9/18 16:00 61.1 68.5 61.1 73 52.4 4 N 2 15 WNW 61.1 60.6 60.6 29.734 0.01 0 0 0.081 0
5/9/18 16:30 62.1 62.2 61.1 73 53.3 4 WNW 2 11 W 62.1 61.7 61.7 29.729 0 0 0 0.06 0
5/9/18 17:00 64.4 64.4 62.1 71 54.8 4 WNW 2 10 WNW 64.4 64.1 64.1 29.719 0 0 0 0.012 0
5/9/18 17:30 63.7 66.3 63.7 74 55.3 4 WNW 2 12 N 63.7 63.5 63.5 29.74 0 0 0 0.027 0
5/9/18 18:00 59 63.7 58.9 70 49.2 9 N 4.5 22 NNE 56.5 58.1 55.6 29.772 0 0 0 0.125 0
5/9/18 18:30 57.6 59.5 57.6 66 46.3 8 N 4 22 NNE 55.6 56.5 54.6 29.794 0 0 0 0.154 0
5/9/18 19:00 55.3 57.5 55.2 63 42.9 8 N 4 23 N 52.9 54.1 51.7 29.811 0 0 0 0.202 0
5/9/18 19:30 55.1 55.5 55.1 58 40.6 8 N 4 19 NNE 52.6 53.7 51.2 29.83 0 0 0 0.206 0
5/9/18 20:00 53.6 55.3 53.6 54 37.3 7 N 3.5 17 NW 51.5 52.1 50 29.85 0 0 0 0.238 0
5/9/18 20:30 51.8 53.6 51.8 57 37 6 N 3 15 NW 49.8 50.6 48.6 29.866 0 0 0 0.275 0
5/9/18 21:00 49.8 51.8 49.8 61 36.9 5 N 2.5 12 N 48 49 47.2 29.878 0 0 0 0.317 0
5/9/18 21:30 48.4 49.9 48.4 63 36.4 3 N 1.5 8 N 47.8 47.7 47.1 29.892 0 0 0 0.346 0
5/9/18 22:00 47.3 48.4 47.1 65 36.1 2 N 1 9 N 47.3 46.6 46.6 29.906 0 0 0 0.369 0
5/9/18 22:30 46.7 47.3 46.7 62 34.4 3 N 1.5 9 NNE 46 45.9 45.2 29.924 0 0 0 0.381 0
5/9/18 23:00 45.7 46.8 45.7 63 33.8 3 N 1.5 9 NNW 44.8 45 44.1 29.936 0 0 0 0.402 0
5/9/18 23:30 44.6 45.8 44.5 62 32.4 4 N 2 12 NE 42.6 43.8 41.9 29.956 0 0 0 0.425 0
5/10/18 0:00 42.4 44.5 42.4 65 31.5 5 N 2.5 11 N 39.3 41.7 38.6 29.962 0 0 0 0.471 0
5/10/18 0:30 40.7 42.4 40.7 69 31.3 3 N 1.5 8 NNE 39.2 40.1 38.5 29.977 0 0 0 0.506 0
5/10/18 1:00 41.2 41.6 40.4 60 28.4 5 N 2.5 16 N 37.8 40.4 37 29.999 0 0 0 0.496 0
5/10/18 1:30 39.7 41.2 39.7 66 29.3 3 N 1.5 12 NNW 38 39 37.3 30.014 0 0 0 0.527 0
5/10/18 2:00 38.7 39.7 38.7 67 28.7 2 N 1 9 NNE 38.3 38 37.7 30.022 0 0 0 0.548 0
5/10/18 2:30 37.8 38.7 37.7 64 26.7 4 N 2 12 N 34.8 37.1 34.1 30.029 0 0 0 0.567 0
5/10/18 3:00 36.1 37.8 36.1 67 26.2 5 N 2.5 11 N 31.9 35.4 31.2 30.034 0 0 0 0.602 0
5/10/18 3:30 35.1 36.2 35.1 68 25.6 4 N 2 11 N 31.7 34.5 31.1 30.042 0 0 0 0.623 0
5/10/18 4:00 34.3 35.2 34.2 69 25.2 4 N 2 9 N 30.7 33.8 30.2 30.061 0 0 0 0.64 0
5/10/18 4:30 33.9 34.4 33.7 69 24.8 3 N 1.5 10 N 31.5 33.4 30.9 30.074 0 0 0 0.648 0
5/10/18 5:00 33.8 34 33.7 68 24.4 2 N 1 7 N 32.9 33.3 32.4 30.094 0 0 0 0.65 0
5/10/18 5:30 32.9 33.8 32.8 69 23.8 2 N 1 6 N 32 32.4 31.4 30.097 0 0 0 0.669 0
5/10/18 6:00 32.8 32.9 32.5 69 23.7 1 NNW 0.5 4 NNW 32.8 32.3 32.3 30.107 0 0 0 0.671 0
5/10/18 6:30 33.5 33.7 32.8 68 24.1 2 NW 1 6 WNW 32.6 33 32.1 30.119 0 0 0 0.656 0
5/10/18 7:00 34.7 34.8 33.5 67 24.9 2 NW 1 5 NW 33.9 34.1 33.4 30.131 0 0 0 0.631 0
5/10/18 7:30 35.9 35.9 34.8 65 25.3 2 N 1 7 NNE 35.3 35.2 34.6 30.13 0 0 0 0.606 0
5/10/18 8:00 38.3 38.3 35.8 61 26 4 N 2 12 N 35.4 37.5 34.6 30.134 0 0 0 0.556 0
5/10/18 8:30 39.1 39.1 37.6 61 26.8 5 NNE 2.5 12 N 35.4 38.3 34.6 30.137 0 0 0 0.54 0
5/10/18 9:00 40.9 41.1 39.1 60 28.1 6 NNE 3 13 NNE 36.8 40.1 36 30.141 0 0 0 0.502 0
5/10/18 9:30 41.7 42.1 40.9 57 27.6 5 NNE 2.5 12 NNW 38.4 40.8 37.5 30.152 0 0 0 0.485 0
5/10/18 10:00 43.2 43.4 40.8 57 29 5 NNE 2.5 13 NNE 40.2 42.3 39.3 30.16 0 0 0 0.454 0
5/10/18 10:30 45.9 46 43.2 53 29.7 5 NNE 2.5 13 NNE 43.4 44.9 42.3 30.16 0 0 0 0.398 0
5/10/18 11:00 45.9 46.7 45.7 47 26.8 5 NNE 2.5 11 NNE 43.4 44.7 42.2 30.165 0 0 0 0.398 0
5/10/18 11:30 46.9 47 45.9 45 26.6 6 NNE 3 13 N 44 45.6 42.7 30.166 0 0 0 0.377 0
5/10/18 12:00 49 49.1 46.9 41 26.3 6 NNE 3 18 NE 46.5 47.5 45 30.161 0 0 0 0.333 0
5/10/18 12:30 50 50 49 42 27.8 6 NNE 3 14 NNE 47.7 48.6 46.3 30.164 0 0 0 0.312 0
5/10/18 13:00 50.2 51 49 44 29.1 5 NNE 2.5 14 ENE 48.4 48.8 47.1 30.161 0 0 0 0.308 0
5/10/18 13:30 50.2 51 49.2 43 28.5 6 NNE 3 12 NNE 47.9 48.8 46.5 30.156 0 0 0 0.308 0
5/10/18 14:00 50.6 52.4 49.7 37 25.3 5 N 2.5 14 NNW 48.9 48.9 47.2 30.151 0 0 0 0.3 0
5/10/18 14:30 51.6 52.7 50.5 41 28.6 4 NE 2 10 NE 50.7 49.8 48.9 30.152 0 0 0 0.279 0
5/10/18 15:00 51 52.1 51 38 26.3 4 NE 2 13 NE 50 49.2 48.2 30.149 0 0 0 0.292 0
5/10/18 15:30 51.3 51.7 51 40 27.8 4 NNE 2 11 N 50.4 49.5 48.6 30.138 0 0 0 0.285 0
5/10/18 16:00 51.8 51.8 51.1 40 28.2 4 NE 2 12 NE 51 49.9 49.1 30.134 0 0 0 0.275 0
5/10/18 16:30 51.7 52.8 51.6 37 26.2 5 NE 2.5 12 NW 50.2 49.7 48.3 30.131 0 0 0 0.277 0
5/10/18 17:00 52.9 53 51.8 36 26.6 5 NE 2.5 12 NNE 51.6 50.7 49.4 30.124 0 0 0 0.252 0
5/10/18 17:30 52 52.9 51.9 34 24.5 5 NE 2.5 11 N 50.6 49.9 48.5 30.12 0 0 0 0.271 0
5/10/18 18:00 52.1 52.4 51.9 33 23.8 5 NE 2.5 11 NE 50.7 49.9 48.5 30.111 0 0 0 0.269 0
5/10/18 18:30 52.1 52.2 51.6 34 24.6 5 NE 2.5 13 NNE 50.7 49.9 48.5 30.102 0 0 0 0.269 0
5/10/18 19:00 51.5 52.1 51.5 35 24.7 4 NNE 2 10 NNE 50.6 49.5 48.6 30.102 0 0 0 0.281 0
5/10/18 19:30 51.4 51.6 51.3 36 25.3 4 NE 2 8 NNE 50.5 49.5 48.5 30.095 0 0 0 0.283 0
5/10/18 20:00 50.5 51.4 50.5 38 25.8 3 NE 1.5 6 NE 50.2 48.8 48.6 30.098 0 0 0 0.302 0
5/10/18 20:30 49.1 50.5 49.1 41 26.4 2 NE 1 4 N 49.1 47.6 47.6 30.1 0 0 0 0.331 0
5/10/18 21:00 47.4 49.1 47.4 48 28.7 2 NNE 1 5 N 47.4 46.2 46.2 30.099 0 0 0 0.367 0
5/10/18 21:30 46.1 47.4 46 51 29 2 NE 1 5 NNE 46.1 45 45 30.088 0 0 0 0.394 0
5/10/18 22:00 45 46.1 45 54 29.3 2 NE 1 4 NNE 45 44 44 30.093 0 0 0 0.417 0
5/10/18 22:30 41 45 40.9 64 29.7 0 -- 0 3 NE 41 40.3 40.3 30.119 0 0 0 0.5 0
5/10/18 23:00 39.3 40.9 39.2 68 29.6 0 -- 0 0 -- 39.3 38.7 38.7 30.128 0 0 0 0.535 0
5/10/18 23:30 39.7 39.7 38.8 65 28.9 0 -- 0 0 -- 39.7 39 39 30.117 0 0 0 0.527 0
5/11/18 0:00 38.1 40.4 38.1 65 27.4 0 -- 0 3 NE 38.1 37.4 37.4 30.126 0 0 0 0.56 0
5/11/18 0:30 38.2 38.2 36.9 65 27.5 0 -- 0 2 NE 38.2 37.5 37.5 30.112 0 0 0 0.558 0
5/11/18 1:00 36.9 38.3 36.8 67 27 0 -- 0 2 NE 36.9 36.2 36.2 30.115 0 0 0 0.585 0
5/11/18 1:30 36.3 37.2 36.3 69 27.1 0 -- 0 2 NE 36.3 35.7 35.7 30.111 0 0 0 0.598 0
5/11/18 2:00 35.5 37 35.5 69 26.3 0 -- 0 2 NE 35.5 34.9 34.9 30.102 0 0 0 0.615 0
5/11/18 2:30 34.2 35.5 34.2 72 26.1 0 -- 0 1 NE 34.2 33.7 33.7 30.087 0 0 0 0.642 0
5/11/18 3:00 34.1 34.4 34.1 73 26.3 0 -- 0 0 -- 34.1 33.6 33.6 30.087 0 0 0 0.644 0
5/11/18 3:30 34 34.4 33.4 75 26.9 0 -- 0 4 NNE 34 33.5 33.5 30.082 0 0 0 0.646 0
5/11/18 4:00 33.3 34.4 33.3 75 26.2 0 -- 0 3 N 33.3 32.9 32.9 30.075 0 0 0 0.66 0
5/11/18 4:30 32.4 33.3 32.4 77 26 0 -- 0 3 NNE 32.4 32 32 30.07 0 0 0 0.679 0
5/11/18 5:00 32.3 32.6 32 77 25.9 0 -- 0 3 N 32.3 31.9 31.9 30.079 0 0 0 0.681 0
5/11/18 5:30 32 32.4 32 77 25.6 0 -- 0 2 N 32 31.6 31.6 30.076 0 0 0 0.688 0
5/11/18 6:00 31.2 32 31.2 79 25.4 0 -- 0 0 -- 31.2 30.9 30.9 30.07 0 0 0 0.704 0
5/11/18 6:30 31.2 31.3 30.9 80 25.7 0 -- 0 0 -- 31.2 30.9 30.9 30.076 0 0 0 0.704 0
5/11/18 7:00 36 36 31.1 69 26.8 1 NE 0.5 4 NE 36 35.4 35.4 30.079 0 0 0 0.604 0
5/11/18 7:30 39.4 39.4 36 64 28.2 2 NE 1 5 NE 39.1 38.7 38.4 30.067 0 0 0 0.533 0
5/11/18 8:00 42.2 42.2 39.4 60 29.3 3 NE 1.5 5 NE 40.8 41.4 40 30.071 0 0 0 0.475 0
5/11/18 8:30 46.3 46.3 42.2 55 31 3 ENE 1.5 9 NE 45.5 45.3 44.5 30.078 0 0 0 0.39 0
5/11/18 9:00 50.9 50.9 46.3 46 30.8 3 ENE 1.5 7 E 50.7 49.5 49.2 30.07 0 0 0 0.294 0
5/11/18 9:30 54.7 54.7 50.9 36 28.2 5 ESE 2.5 12 E 53.7 52.2 51.2 30.065 0 0 0 0.215 0
5/11/18 10:00 56.2 56.7 54.8 34 28.2 5 ESE 2.5 11 SSE 55.5 53.4 52.7 30.058 0 0 0 0.183 0
5/11/18 10:30 57.3 57.9 56.2 34 29.1 6 ESE 3 11 ESE 56.4 54.4 53.5 30.06 0 0 0 0.16 0
5/11/18 11:00 58.6 58.6 57.2 31 28 6 ESE 3 13 ESE 57.9 55.4 54.7 30.043 0 0 0 0.133 0
5/11/18 11:30 59 59.3 58 33 29.9 5 ESE 2.5 11 E 58.8 55.9 55.7 30.042 0 0 0 0.125 0
5/11/18 12:00 59.9 59.9 58.4 30 28.4 5 ESE 2.5 12 SSE 59.9 56.5 56.5 30.046 0 0 0 0.106 0
5/11/18 12:30 61.1 61.2 59.8 28 27.7 5 ESE 2.5 12 ESE 61.1 57.3 57.3 30.043 0 0 0 0.081 0
5/11/18 13:00 61.1 62.1 60.2 27 26.8 4 ESE 2 14 E 61.1 57.2 57.2 30.035 0 0 0 0.081 0
5/11/18 13:30 62.3 62.7 61 30 30.4 5 SE 2.5 12 E 62.3 58.8 58.8 30.022 0 0 0 0.056 0
5/11/18 14:00 62.6 63.7 61.9 25 26.2 4 E 2 12 SE 62.6 58.2 58.2 30.02 0 0 0 0.05 0
5/11/18 14:30 65.1 65.2 62.4 24 27.4 4 E 2 10 E 65.1 60.6 60.6 30.018 0 0 0 0 0.002
5/11/18 15:00 64.1 65.1 63.4 24 26.5 4 E 2 14 ESE 64.1 59.6 59.6 30.014 0 0 0 0.019 0
5/11/18 15:30 64.9 65.4 63.3 24 27.2 4 ESE 2 11 SE 64.9 60.4 60.4 30.009 0 0 0 0.002 0
5/11/18 16:00 64.3 65.4 63.8 25 27.7 4 ESE 2 11 SE 64.3 59.9 59.9 30.002 0 0 0 0.015 0
5/11/18 16:30 64 65 63.8 23 25.4 3 SE 1.5 8 NNE 64 59.4 59.4 29.996 0 0 0 0.021 0
5/11/18 17:00 63.3 64.4 63.3 26 27.8 3 ESE 1.5 9 SSE 63.3 59.1 59.1 30.001 0 0 0 0.035 0
5/11/18 17:30 64.8 64.9 63.2 23 26.1 3 ESE 1.5 9 E 64.8 60.2 60.2 29.992 0 0 0 0.004 0
5/11/18 18:00 63.6 64.9 63.6 23 25.1 3 ESE 1.5 9 S 63.6 59.1 59.1 29.994 0 0 0 0.029 0
5/11/18 18:30 64.3 65 63.6 23 25.7 3 ESE 1.5 7 E 64.3 59.7 59.7 29.991 0 0 0 0.015 0
5/11/18 19:00 63.9 64.2 63.6 24 26.4 2 E 1 6 ESE 63.9 59.4 59.4 29.992 0 0 0 0.023 0
5/11/18 19:30 63 64.1 63 25 26.6 1 NE 0.5 5 SSE 63 58.6 58.6 29.999 0 0 0 0.042 0
5/11/18 20:00 62.1 63 61.9 26 26.8 1 SE 0.5 5 SSE 62.1 58 58 30.008 0 0 0 0.06 0
5/11/18 20:30 61.2 62.1 61.1 27 26.9 2 SSE 1 6 SSE 61.2 57.3 57.3 30.011 0 0 0 0.079 0
5/11/18 21:00 58.6 61.2 58.6 31 28 0 -- 0 3 SSE 58.6 55.4 55.4 30.016 0 0 0 0.133 0
5/11/18 21:30 56.9 58.6 56.9 38 31.5 0 -- 0 4 N 56.9 54.3 54.3 30.03 0 0 0 0.169 0
5/11/18 22:00 56.9 57.4 56.8 39 32.2 0 -- 0 3 NNW 56.9 54.4 54.4 30.041 0 0 0 0.169 0
5/11/18 22:30 56.2 56.9 56.1 41 32.8 0 -- 0 0 -- 56.2 53.8 53.8 30.055 0 0 0 0.183 0
5/11/18 23:00 55.7 56.5 55.6 43 33.5 0 -- 0 2 N 55.7 53.5 53.5 30.057 0 0 0 0.194 0
5/11/18 23:30 55.7 55.9 55.4 43 33.5 2 N 1 4 NE 55.7 53.5 53.5 30.063 0 0 0 0.194 0
5/12/18 0:00 55.1 55.8 55.1 45 34.1 0 -- 0 2 NNE 55.1 53 53 30.066 0 0 0 0.206 0
5/12/18 0:30 54.3 55.1 54.1 47 34.5 0 -- 0 1 NNE 54.3 52.4 52.4 30.068 0 0 0 0.223 0
5/12/18 1:00 53.9 54.4 53.3 49 35.2 0 -- 0 0 -- 53.9 52.2 52.2 30.066 0 0 0 0.231 0
5/12/18 1:30 52.9 53.9 52.8 51 35.2 0 -- 0 0 -- 52.9 51.4 51.4 30.07 0 0 0 0.252 0
5/12/18 2:00 53.9 53.9 52.9 44 32.5 1 ESE 0.5 6 SSE 53.9 51.9 51.9 30.075 0 0 0 0.231 0
5/12/18 2:30 54 54.8 53.9 44 32.6 2 SSE 1 6 SSE 54 52 52 30.076 0 0 0 0.229 0
5/12/18 3:00 52.7 54 52.7 50 34.6 2 S 1 6 S 52.7 51.1 51.1 30.071 0 0 0 0.256 0
5/12/18 3:30 52.1 52.7 52.1 54 35.9 2 SSE 1 5 SSE 52.1 50.8 50.8 30.064 0 0 0 0.269 0
5/12/18 4:00 51.7 52.1 51.3 60 38.3 1 SSE 0.5 4 SSE 51.7 50.7 50.7 30.063 0 0 0 0.277 0
5/12/18 4:30 51.4 51.7 50.7 61 38.4 0 -- 0 4 SSE 51.4 50.5 50.5 30.073 0 0 0 0.283 0
5/12/18 5:00 51.1 51.5 50.8 63 38.9 0 -- 0 3 SSE 51.1 50.3 50.3 30.084 0 0 0 0.29 0
5/12/18 5:30 50.6 51.2 50.6 66 39.7 1 SSE 0.5 4 SSE 50.6 50 50 30.09 0 0 0 0.3 0
5/12/18 6:00 50 50.7 49.9 69 40.2 1 SSE 0.5 4 SSE 50 49.6 49.6 30.103 0 0 0 0.312 0
5/12/18 6:30 49.7 50.6 49.6 70 40.3 0 -- 0 2 SSE 49.7 49.3 49.3 30.102 0 0 0 0.319 0
5/12/18 7:00 49.9 49.9 49.6 71 40.9 0 -- 0 0 -- 49.9 49.5 49.5 30.1 0 0 0 0.315 0
5/12/18 7:30 50.7 50.8 49.9 70 41.3 1 SSE 0.5 5 SSE 50.7 50.2 50.2 30.115 0 0 0 0.298 0
5/12/18 8:00 51.6 51.7 50.6 70 42.1 2 SSE 1 6 SSE 51.6 50.9 50.9 30.127 0 0 0 0.279 0
5/12/18 8:30 54 54 51.7 66 42.9 2 SSE 1 5 SSE 54 53 53 30.139 0 0 0 0.229 0
5/12/18 9:00 56.6 56.6 53.9 63 44.1 3 SSE 1.5 7 SSE 56.6 55.4 55.4 30.137 0 0 0 0.175 0
5/12/18 9:30 57.9 58 56.6 57 42.8 2 SSE 1 6 SSE 57.9 56.3 56.3 30.138 0 0 0 0.148 0
5/12/18 10:00 59.4 59.4 57.8 51 41.3 2 SSE 1 7 SSE 59.4 57.5 57.5 30.128 0 0 0 0.117 0
5/12/18 10:30 61.5 61.9 59.3 43 38.8 3 SSE 1.5 7 SSE 61.5 59 59 30.129 0 0 0 0.073 0
5/12/18 11:00 63 63.2 61.5 37 36.3 3 SSE 1.5 10 SSE 63 60.1 60.1 30.124 0 0 0 0.042 0
5/12/18 11:30 63.2 64 62.8 32 32.8 4 SSE 2 11 SE 63.2 59.9 59.9 30.117 0 0 0 0.037 0
5/12/18 12:00 63.9 64.2 63.2 28 30.1 3 E 1.5 8 SE 63.9 60 60 30.112 0 0 0 0.023 0
5/12/18 12:30 64 64.4 63.8 29 31.1 2 NE 1 7 E 64 60.3 60.3 30.11 0 0 0 0.021 0
5/12/18 13:00 64.3 64.6 63.5 26 28.7 2 SE 1 7 ENE 64.3 60.1 60.1 30.098 0 0 0 0.015 0
5/12/18 13:30 65.1 65.2 64 23 26.3 2 ESE 1 7 ESE 65.1 60.5 60.5 30.094 0 0 0 0 0.002
5/12/18 14:00 66.4 66.4 64.8 23 27.4 3 ESE 1.5 8 ESE 66.4 61.7 61.7 30.093 0 0 0 0 0.029
5/12/18 14:30 65.6 66.5 65.2 26 29.8 3 SE 1.5 8 S 65.6 61.3 61.3 30.089 0 0 0 0 0.012
5/12/18 15:00 68.9 69 65.5 22 28.5 3 ESE 1.5 8 SE 68.9 64.5 64.5 30.083 0 0 0 0 0.081
5/12/18 15:30 67.1 69.4 67 26 31 3 SSE 1.5 9 S 67.1 62.9 62.9 30.069 0 0 0 0 0.044
5/12/18 16:00 67.9 67.9 66.8 22 27.6 3 SSE 1.5 8 ESE 67.9 63.5 63.5 30.063 0 0 0 0 0.06
5/12/18 16:30 67.7 69.1 67.3 24 29.6 4 SSE 2 11 S 67.7 63.4 63.4 30.054 0 0 0 0 0.056
5/12/18 17:00 68.6 68.9 67.6 24 30.3 3 ESE 1.5 11 SSE 68.6 64.4 64.4 30.047 0 0 0 0 0.075
5/12/18 17:30 70.2 70.3 68.5 21 28.4 2 S 1 9 E 70.2 65.9 65.9 30.04 0 0 0 0 0.108
5/12/18 18:00 68.9 70.3 68.9 20 26.1 4 SSE 2 12 SSE 68.9 64.3 64.3 30.042 0 0 0 0 0.081
5/12/18 18:30 68.9 69.3 68.6 19 24.9 2 SSE 1 9 SE 68.9 64.2 64.2 30.029 0 0 0 0 0.081
5/12/18 19:00 67.5 68.9 67.5 20 25 2 SSW 1 8 SE 67.5 62.8 62.8 30.026 0 0 0 0 0.052
5/12/18 19:30 65.6 67.6 65.5 22 25.7 2 SSW 1 8 SSE 65.6 60.9 60.9 30.02 0 0 0 0 0.012
5/12/18 20:00 64.8 65.6 64.8 23 26.1 3 S 1.5 8 S 64.8 60.2 60.2 30.016 0 0 0 0.004 0
5/12/18 20:30 63.4 64.8 63.4 25 26.9 2 S 1 6 SSW 63.4 59 59 30.016 0 0 0 0.033 0
5/12/18 21:00 62.1 63.4 62.1 26 26.8 1 SSW 0.5 5 SSE 62.1 58 58 30.018 0 0 0 0.06 0
5/12/18 21:30 60.3 62.1 60.3 30 28.7 0 -- 0 2 SW 60.3 56.9 56.9 30.023 0 0 0 0.098 0
5/12/18 22:00 58.3 60.3 58.1 32 28.5 0 -- 0 2 SSW 58.3 55.2 55.2 30.023 0 0 0 0.14 0
5/12/18 22:30 58.6 58.9 58.2 32 28.8 1 SW 0.5 4 SW 58.6 55.5 55.5 30.037 0 0 0 0.133 0
5/12/18 23:00 58 58.5 57.9 34 29.8 0 -- 0 2 W 58 55 55 30.032 0 0 0 0.146 0
5/12/18 23:30 57.7 58.1 57.7 37 31.6 1 WSW 0.5 6 W 57.7 55 55 30.036 0 0 0 0.152 0
5/13/18 0:00 57.1 57.7 57.1 37 31 1 WSW 0.5 4 W 57.1 54.4 54.4 30.028 0 0 0 0.165 0
5/13/18 0:30 56.2 57.1 56.2 39 31.5 1 WSW 0.5 3 WSW 56.2 53.7 53.7 30.022 0 0 0 0.183 0
5/13/18 1:00 56 56.2 55.6 40 32 1 WSW 0.5 4 WSW 56 53.6 53.6 30.025 0 0 0 0.188 0
5/13/18 1:30 56.5 56.5 56 39 31.8 1 WSW 0.5 5 SW 56.5 54 54 30.029 0 0 0 0.177 0
5/13/18 2:00 56.2 56.5 56.2 40 32.2 1 WSW 0.5 7 W 56.2 53.8 53.8 30.023 0 0 0 0.183 0
5/13/18 2:30 55.6 56.2 55.6 41 32.2 1 SW 0.5 4 WSW 55.6 53.3 53.3 30.01 0 0 0 0.196 0
5/13/18 3:00 55.3 55.7 55.3 42 32.6 2 WSW 1 7 W 55.3 53 53 30.011 0 0 0 0.202 0
5/13/18 3:30 55.2 55.4 55.1 44 33.6 1 WSW 0.5 6 SW 55.2 53 53 30.006 0 0 0 0.204 0
5/13/18 4:00 54.2 55.2 54.2 47 34.4 0 -- 0 2 SW 54.2 52.3 52.3 30.003 0 0 0 0.225 0
5/13/18 4:30 52.8 54.2 52.8 50 34.7 0 -- 0 3 SSE 52.8 51.2 51.2 30.001 0 0 0 0.254 0
5/13/18 5:00 51.5 53 51.5 52 34.4 1 S 0.5 4 SSW 51.5 50.2 50.2 29.997 0 0 0 0.281 0
5/13/18 5:30 50.6 51.4 50.4 53 34.1 1 SSW 0.5 4 SSE 50.6 49.5 49.5 29.992 0 0 0 0.3 0
5/13/18 6:00 50.9 50.9 50.6 55 35.3 0 -- 0 3 S 50.9 49.8 49.8 29.988 0 0 0 0.294 0
5/13/18 6:30 50.8 50.9 50.7 58 36.5 0 -- 0 1 S 50.8 49.8 49.8 29.992 0 0 0 0.296 0
5/13/18 7:00 50.2 50.8 50.2 60 36.8 0 -- 0 2 S 50.2 49.4 49.4 29.996 0 0 0 0.308 0
5/13/18 7:30 52.9 52.9 50 57 38.1 1 S 0.5 5 SSE 52.9 51.6 51.6 30.001 0 0 0 0.252 0
5/13/18 8:00 55.8 55.8 52.9 54 39.4 1 WSW 0.5 6 W 55.8 54.1 54.1 30.001 0 0 0 0.192 0
5/13/18 8:30 58.4 58.4 55.8 51 40.3 2 WSW 1 7 W 58.4 56.5 56.5 29.997 0 0 0 0.137 0
5/13/18 9:00 60.5 60.5 58.4 45 39 2 WSW 1 8 W 60.5 58.2 58.2 29.992 0 0 0 0.094 0
5/13/18 9:30 62.8 62.8 60.6 43 40 3 WSW 1.5 10 WSW 62.8 60.3 60.3 29.986 0 0 0 0.046 0
5/13/18 10:00 63.9 64.6 62.4 42 40.3 4 W 2 11 WNW 63.9 61.5 61.5 29.979 0 0 0 0.023 0
5/13/18 10:30 65 65.2 63.8 40 40.1 4 WSW 2 11 W 65 62.5 62.5 29.971 0 0 0 0 0
5/13/18 11:00 66.7 67.4 65 38 40.3 3 W 1.5 11 W 66.7 64.1 64.1 29.958 0 0 0 0 0.035
5/13/18 11:30 66.8 66.9 65.7 35 38.3 4 W 2 9 WNW 66.8 63.9 63.9 29.958 0 0 0 0 0.038
5/13/18 12:00 69.5 69.5 66.4 34 39.9 3 W 1.5 10 W 69.5 66.4 66.4 29.95 0 0 0 0 0.094
5/13/18 12:30 70.3 70.5 68.6 34 40.6 3 WSW 1.5 10 WNW 70.3 67.3 67.3 29.931 0 0 0 0 0.11
5/13/18 13:00 71.9 72.3 70.2 37 44.2 4 WSW 2 13 NW 71.9 69.8 69.8 29.917 0 0 0 0 0.144
5/13/18 13:30 73.2 73.6 71.8 40 47.4 4 WNW 2 14 W 73.2 71.9 71.9 29.905 0 0 0 0 0.171
5/13/18 14:00 75.1 75.2 73.3 37 47 4 W 2 11 W 75.1 73.8 73.8 29.899 0 0 0 0 0.21
5/13/18 14:30 75 76.4 74.2 39 48.4 3 WSW 1.5 13 W 75 73.8 73.8 29.889 0 0 0 0 0.208
5/13/18 15:00 76 76.3 74 37 47.8 6 W 3 14 W 76 74.7 74.7 29.88 0 0 0 0 0.229
5/13/18 15:30 75.5 75.9 74.9 40 49.5 6 WSW 3 15 WNW 75.5 74.4 74.4 29.872 0 0 0 0 0.219
5/13/18 16:00 75.1 75.6 73.5 42 50.4 5 W 2.5 14 W 75.1 74.2 74.2 29.868 0 0 0 0 0.21
5/13/18 16:30 75.3 76.1 73.9 41 50 5 WSW 2.5 15 W 75.3 74.3 74.3 29.859 0 0 0 0 0.215
5/13/18 17:00 76 77.4 75.3 39 49.2 6 W 3 16 WNW 76 74.8 74.8 29.854 0 0 0 0 0.229
5/13/18 17:30 75.4 77.6 75.4 40 49.4 5 WSW 2.5 16 NW 75.4 74.3 74.3 29.85 0 0 0 0 0.217
5/13/18 18:00 75.3 76.2 75 41 50 5 WSW 2.5 14 WSW 75.3 74.3 74.3 29.842 0 0 0 0 0.215
5/13/18 18:30 74.9 76.3 74.9 41 49.6 5 W 2.5 14 WNW 74.9 73.9 73.9 29.834 0 0 0 0 0.206
5/13/18 19:00 74.5 74.9 74.3 41 49.2 5 W 2.5 12 NW 74.5 73.4 73.4 29.825 0 0 0 0 0.198
5/13/18 19:30 73.9 74.5 73.8 43 50 5 WNW 2.5 14 WNW 73.9 73 73 29.821 0 0 0 0 0.185
5/13/18 20:00 73.7 74.1 73.7 43 49.8 4 W 2 11 WNW 73.7 72.8 72.8 29.823 0 0 0 0 0.181
5/13/18 20:30 72.7 73.7 72.7 45 50.1 3 WNW 1.5 9 WSW 72.7 71.6 71.6 29.828 0 0 0 0 0.16
5/13/18 21:00 70.6 72.6 70.5 48 50 2 W 1 6 W 70.6 69 69 29.831 0 0 0 0 0.117
5/13/18 21:30 68.3 70.6 68.3 53 50.5 0 -- 0 2 W 68.3 67.2 67.2 29.833 0 0 0 0 0.069
5/13/18 22:00 66.4 68.3 66.4 56 50.2 0 -- 0 0 -- 66.4 65.3 65.3 29.839 0 0 0 0 0.029
5/13/18 22:30 65.5 66.7 65.5 58 50.3 0 -- 0 0 -- 65.5 64.4 64.4 29.84 0 0 0 0 0.01
5/13/18 23:00 64.4 65.6 64.2 61 50.7 0 -- 0 0 -- 64.4 63.4 63.4 29.841 0 0 0 0.012 0
5/13/18 23:30 64.1 65.9 64.1 60 49.9 0 -- 0 1 W 64.1 63 63 29.842 0 0 0 0.019 0
5/14/18 0:00 61.6 64 61.6 65 49.7 0 -- 0 1 W 61.6 60.7 60.7 29.84 0 0 0 0.071 0
5/14/18 0:30 62.6 62.6 61 62 49.4 0 -- 0 2 SW 62.6 61.5 61.5 29.838 0 0 0 0.05 0
5/14/18 1:00 61.6 62.7 61.5 63 48.9 0 -- 0 1 SW 61.6 60.5 60.5 29.839 0 0 0 0.071 0
5/14/18 1:30 62 62.1 61 61 48.4 0 -- 0 1 SW 62 60.8 60.8 29.833 0 0 0 0.062 0
5/14/18 2:00 63.5 63.5 62 60 49.4 2 WSW 1 6 W 63.5 62.3 62.3 29.831 0 0 0 0.031 0
5/14/18 2:30 62.9 63.5 62.8 62 49.7 2 WSW 1 6 W 62.9 61.9 61.9 29.831 0 0 0 0.044 0
5/14/18 3:00 61.9 62.9 61.9 64 49.6 1 WSW 0.5 5 WSW 61.9 60.9 60.9 29.827 0 0 0 0.065 0
5/14/18 3:30 61.3 61.9 61.1 66 49.8 0 -- 0 2 WSW 61.3 60.4 60.4 29.831 0 0 0 0.077 0
5/14/18 4:00 61.4 61.6 61.2 66 49.9 1 W 0.5 3 WSW 61.4 60.5 60.5 29.83 0 0 0 0.075 0
5/14/18 4:30 60.8 61.6 60.7 67 49.8 1 WSW 0.5 5 SW 60.8 59.9 59.9 29.825 0 0 0 0.088 0
5/14/18 5:00 59 60.8 58.9 70 49.2 1 W 0.5 3 NW 59 58.1 58.1 29.834 0 0 0 0.125 0
5/14/18 5:30 56.6 58.9 56.6 75 48.8 0 -- 0 3 WSW 56.6 56 56 29.831 0 0 0 0.175 0
5/14/18 6:00 54.9 56.5 54.9 78 48.2 0 -- 0 0 -- 54.9 54.5 54.5 29.828 0 0 0 0.21 0
5/14/18 6:30 54.9 55.1 54.5 79 48.5 0 -- 0 0 -- 54.9 54.5 54.5 29.844 0 0 0 0.21 0
5/14/18 7:00 57.5 57.5 54.8 75 49.6 0 -- 0 3 SSW 57.5 56.9 56.9 29.85 0 0 0 0.156 0
5/14/18 7:30 60.5 60.5 57.5 70 50.7 0 -- 0 3 WSW 60.5 59.8 59.8 29.856 0 0 0 0.094 0
5/14/18 8:00 62.6 62.6 60.4 67 51.5 2 WSW 1 5 SW 62.6 61.9 61.9 29.858 0 0 0 0.05 0
5/14/18 8:30 64 64.3 62.5 64 51.6 2 WSW 1 5 WSW 64 63.2 63.2 29.848 0 0 0 0.021 0
5/14/18 9:00 65.6 65.6 64 61 51.8 2 WNW 1 4 WNW 65.6 64.8 64.8 29.851 0 0 0 0 0.012
5/14/18 9:30 67.5 67.6 65.6 59 52.7 2 WNW 1 6 W 67.5 66.8 66.8 29.858 0 0 0 0 0.052
5/14/18 10:00 68.9 68.9 67.5 54 51.6 2 WNW 1 6 W 68.9 67.8 67.8 29.852 0 0 0 0 0.081
5/14/18 10:30 70.3 70.7 68.8 50 50.8 2 WNW 1 7 W 70.3 68.7 68.7 29.846 0 0 0 0 0.11
5/14/18 11:00 72.2 72.2 70.2 49 52 2 ESE 1 8 W 72.2 71.3 71.3 29.842 0 0 0 0 0.15
5/14/18 11:30 73.4 73.4 72 46 51.4 2 WNW 1 8 WNW 73.4 72.7 72.7 29.844 0 0 0 0 0.175
5/14/18 12:00 73.8 74 73 47 52.3 2 N 1 5 WSW 73.8 73.3 73.3 29.842 0 0 0 0 0.183
5/14/18 12:30 75.7 75.7 73.6 42 51 3 W 1.5 9 NNE 75.7 74.8 74.8 29.839 0 0 0 0 0.223
5/14/18 13:00 76 76.9 75.3 40 49.9 3 WNW 1.5 9 NW 76 74.9 74.9 29.835 0 0 0 0 0.229
5/14/18 13:30 75.3 76 75.1 37 47.2 3 N 1.5 9 N 75.3 74 74 29.839 0 0 0 0 0.215
5/14/18 14:00 75.3 75.6 74.7 37 47.2 3 NW 1.5 9 N 75.3 74 74 29.834 0 0 0 0 0.215
5/14/18 14:30 78.7 78.7 75.3 34 48 3 NNE 1.5 9 NNE 78.7 77 77 29.833 0 0 0 0 0.285
5/14/18 15:00 80.3 80.3 78.8 28 44.2 5 NE 2.5 11 N 80.3 78.2 78.2 29.83 0 0 0 0 0.319
5/14/18 15:30 79.9 81.1 79.1 30 45.7 4 NE 2 11 NNE 79.9 77.9 77.9 29.822 0 0 0 0 0.31
5/14/18 16:00 80.9 80.9 79.3 26 42.8 4 NE 2 11 NE 80.9 78.7 78.7 29.817 0 0 0 0 0.331
5/14/18 16:30 80.9 81.2 79.6 22 38.5 5 NNE 2.5 13 N 80.9 78.5 78.5 29.81 0 0 0 0 0.331
5/14/18 17:00 81 81.7 80.8 20 36.1 6 NE 3 15 NNE 81 78.5 78.5 29.809 0 0 0 0 0.333
5/14/18 17:30 81.5 81.6 80.6 20 36.5 5 NNE 2.5 13 N 81.5 78.9 78.9 29.813 0 0 0 0 0.344
5/14/18 18:00 79.4 81.5 79.4 20 34.8 8 NNE 4 20 NNW 79 77.1 76.7 29.82 0 0 0 0 0.3
5/14/18 18:30 77.4 79.6 77.4 21 34.4 8 N 4 19 NNW 76.9 75.2 74.7 29.83 0 0 0 0 0.258
5/14/18 19:00 76.7 77.5 76.7 23 36.1 7 N 3.5 17 NW 76.7 74.6 74.6 29.84 0 0 0 0 0.244
5/14/18 19:30 75.6 76.6 75.6 24 36.2 8 N 4 19 NE 75.1 73.5 73 29.845 0 0 0 0 0.221
5/14/18 20:00 73.7 75.6 73.7 24 34.6 8 NNE 4 17 N 73.2 71.1 70.6 29.859 0 0 0 0 0.181
5/14/18 20:30 70.6 73.7 70.6 25 33 9 NNE 4.5 21 N 69.2 66.8 65.4 29.877 0 0 0 0 0.117
5/14/18 21:00 66.6 70.5 66.6 26 30.6 9 N 4.5 22 N 65.3 62.3 61 29.895 0 0 0 0 0.033
5/14/18 21:30 64 66.5 64 26 28.4 8 NNE 4 15 NNE 63.2 59.8 59 29.914 0 0 0 0.021 0
5/14/18 22:00 62.6 64.1 62.6 27 28.1 8 NNE 4 17 N 61.6 58.6 57.6 29.924 0 0 0 0.05 0
5/14/18 22:30 60.9 62.6 60.9 27 26.7 7 NNE 3.5 16 N 60.3 57 56.4 29.938 0 0 0 0.085 0
5/14/18 23:00 58 60.9 58 31 27.5 4 NNE 2 12 N 58 54.9 54.9 29.949 0 0 0 0.146 0
5/14/18 23:30 54.6 58 54.6 33 26 2 N 1 6 N 54.6 51.9 51.9 29.954 0 0 0 0.217 0
5/15/18 0:00 53.8 55.1 53.8 35 26.8 3 NNE 1.5 5 NNE 53.8 51.3 51.3 29.959 0 0 0 0.233 0
5/15/18 0:30 53.1 53.9 53.1 37 27.5 3 NNE 1.5 5 NNE 53.1 50.9 50.9 29.968 0 0 0 0.248 0
5/15/18 1:00 52.6 53.1 51.9 38 27.7 3 N 1.5 6 N 52.6 50.5 50.5 29.981 0 0 0 0.258 0
5/15/18 1:30 52.8 52.9 52.5 39 28.5 2 NNE 1 7 N 52.8 50.7 50.7 29.985 0 0 0 0.254 0
5/15/18 2:00 52.3 52.8 52.3 41 29.3 2 NE 1 8 NNE 52.3 50.4 50.4 29.99 0 0 0 0.265 0
5/15/18 2:30 51.5 52.3 51.4 44 30.3 2 NNE 1 5 NNE 51.5 49.9 49.9 29.994 0 0 0 0.281 0
5/15/18 3:00 49.4 51.7 49.4 47 30 2 NE 1 5 NE 49.4 48.1 48.1 29.996 0 0 0 0.325 0
5/15/18 3:30 48 49.4 48 50 30.2 1 ENE 0.5 3 ENE 48 46.8 46.8 29.999 0 0 0 0.354 0
5/15/18 4:00 45.4 48 45.4 55 30.2 0 -- 0 1 ENE 45.4 44.4 44.4 30.009 0 0 0 0.408 0
5/15/18 4:30 44.9 45.5 44.7 58 31 0 -- 0 0 -- 44.9 44 44 30.011 0 0 0 0.419 0
5/15/18 5:00 45.3 45.4 44.8 59 31.8 1 SSE 0.5 4 SSE 45.3 44.5 44.5 30.022 0 0 0 0.41 0
5/15/18 5:30 46.5 46.5 45.3 57 32.1 1 SSE 0.5 4 SSE 46.5 45.6 45.6 30.027 0 0 0 0.385 0
5/15/18 6:00 49.1 49.1 46.5 50 31.2 3 SSE 1.5 7 SSE 48.6 47.9 47.4 30.026 0 0 0 0.331 0
5/15/18 6:30 51.5 51.5 49.1 45 30.8 6 SSE 3 10 S 49.5 49.9 47.8 30.04 0 0 0 0.281 0
5/15/18 7:00 53.5 53.5 51.4 43 31.5 6 SSE 3 12 SE 51.8 51.5 49.8 30.043 0 0 0 0.24 0
5/15/18 7:30 55.3 55.3 53.5 42 32.6 6 SSE 3 11 SSE 54 53 51.7 30.048 0 0 0 0.202 0
5/15/18 8:00 55.7 55.8 54.5 42 32.9 4 SSE 2 11 SSE 55.4 53.4 53.2 30.048 0 0 0 0.194 0
5/15/18 8:30 59.2 59.2 55.8 36 32.2 5 SSE 2.5 11 SSE 59 56.3 56.1 30.045 0 0 0 0.121 0
5/15/18 9:00 62 62 59.2 35 34 5 SSE 2.5 12 SSE 62 58.9 58.9 30.037 0 0 0 0.062 0
5/15/18 9:30 64.9 64.9 62.1 30 32.7 6 SSE 3 14 SSE 64.9 61.4 61.4 30.033 0 0 0 0.002 0
5/15/18 10:00 67.3 67.3 64.8 29 33.9 6 SSE 3 14 S 67.3 63.7 63.7 30.027 0 0 0 0 0.048
5/15/18 10:30 69.9 70 67.3 25 32.5 6 SSE 3 17 SSE 69.9 65.8 65.8 30.019 0 0 0 0 0.102
5/15/18 11:00 71.3 71.7 69.7 23 31.6 7 SSE 3.5 17 SSE 71.3 67.7 67.7 30.015 0 0 0 0 0.131
5/15/18 11:30 72.9 73.1 71.3 22 31.8 6 SSE 3 16 SSE 72.9 69.9 69.9 30.011 0 0 0 0 0.165
5/15/18 12:00 74.4 74.5 72.8 18 28.1 6 SSE 3 15 SSE 74.4 71.6 71.6 30.006 0 0 0 0 0.196
5/15/18 12:30 75.5 75.8 74.1 18 29 5 SSE 2.5 15 SE 75.5 72.9 72.9 30 0 0 0 0 0.219
5/15/18 13:00 76.4 77 75.6 17 28.3 4 SSE 2 13 S 76.4 73.8 73.8 29.988 0 0 0 0 0.238
5/15/18 13:30 79.1 79.1 76.4 17 30.5 4 SSE 2 11 S 79.1 76.4 76.4 29.969 0 0 0 0 0.294
5/15/18 14:00 79.4 79.9 78.8 19 33.5 4 SSW 2 12 SSE 79.4 76.9 76.9 29.957 0 0 0 0 0.3
5/15/18 14:30 80.5 80.8 79.4 18 33.1 4 SW 2 13 WSW 80.5 77.8 77.8 29.944 0 0 0 0 0.323
5/15/18 15:00 81.5 81.9 80.2 19 35.2 4 WSW 2 16 NW 81.5 78.9 78.9 29.94 0 0 0 0 0.344
5/15/18 15:30 81.6 82.3 80.7 18 34 4 W 2 14 W 81.6 78.9 78.9 29.924 0 0 0 0 0.346
5/15/18 16:00 82.6 82.6 81.5 17 33.4 5 WSW 2.5 14 WSW 82.6 79.7 79.7 29.908 0 0 0 0 0.367
5/15/18 16:30 83.2 83.5 82.6 17 33.8 3 SSW 1.5 11 SSE 83.2 80.2 80.2 29.9 0 0 0 0 0.379
5/15/18 17:00 83.4 83.4 82.2 20 38.1 3 W 1.5 10 WSW 83.4 80.7 80.7 29.884 0 0 0 0 0.383
5/15/18 17:30 83.5 83.8 83.2 19 36.9 4 WSW 2 14 WSW 83.5 80.7 80.7 29.87 0 0 0 0 0.385
5/15/18 18:00 83.3 83.9 83.1 17 33.9 4 W 2 15 WNW 83.3 80.3 80.3 29.857 0 0 0 0 0.381
5/15/18 18:30 82.3 83.3 82.3 21 38.4 4 WSW 2 15 W 82.3 79.7 79.7 29.845 0 0 0 0 0.36
5/15/18 19:00 81.4 82.3 81.4 24 41.1 3 SSW 1.5 13 W 81.4 79 79 29.838 0 0 0 0 0.342
5/15/18 19:30 80.4 81.4 80.3 26 42.4 3 SW 1.5 10 SW 80.4 78.2 78.2 29.829 0 0 0 0 0.321
5/15/18 20:00 79.3 80.4 79.3 27 42.4 3 SW 1.5 11 W 79.3 77.2 77.2 29.825 0 0 0 0 0.298
5/15/18 20:30 77.8 79.3 77.8 30 43.9 1 S 0.5 4 SSW 77.8 75.9 75.9 29.821 0 0 0 0 0.267
5/15/18 21:00 76.4 77.8 76.4 32 44.4 1 SSW 0.5 6 S 76.4 74.8 74.8 29.819 0 0 0 0 0.238
5/15/18 21:30 75.3 76.5 75.3 34 45 1 SSW 0.5 5 SSE 75.3 73.8 73.8 29.824 0 0 0 0 0.215
5/15/18 22:00 73.8 75.3 73.8 37 45.9 1 SW 0.5 9 SSW 73.8 72.4 72.4 29.831 0 0 0 0 0.183
5/15/18 22:30 72.5 73.7 72.5 40 46.8 2 SSW 1 6 SW 72.5 70.9 70.9 29.831 0 0 0 0 0.156
5/15/18 23:00 71.4 72.5 71.3 42 47.1 2 SSW 1 10 S 71.4 69.5 69.5 29.835 0 0 0 0 0.133
5/15/18 23:30 70.7 71.4 70.6 45 48.3 2 SSW 1 8 SW 70.7 68.8 68.8 29.836 0 0 0 0 0.119
5/16/18 0:00 69.9 70.7 69.9 47 48.7 1 SSW 0.5 6 SSW 69.9 68 68 29.835 0 0 0 0 0.102
5/16/18 0:30 68.9 69.7 68.9 49 48.9 1 SSW 0.5 7 SSE 68.9 67.3 67.3 29.838 0 0 0 0 0.081
5/16/18 1:00 68.3 68.9 68.3 51 49.5 1 SSW 0.5 10 SSW 68.3 67 67 29.835 0 0 0 0 0.069
5/16/18 1:30 67.8 68.3 67.8 54 50.5 1 SSW 0.5 8 W 67.8 66.8 66.8 29.833 0 0 0 0 0.058
5/16/18 2:00 67.9 67.9 67.5 55 51.1 2 WSW 1 8 W 67.9 67 67 29.832 0 0 0 0 0.06
5/16/18 2:30 68 68.1 67.7 55 51.2 2 SW 1 11 W 68 67.1 67.1 29.83 0 0 0 0 0.062
5/16/18 3:00 67.8 68.2 67.8 55 51 2 SW 1 9 SSW 67.8 66.9 66.9 29.827 0 0 0 0 0.058
5/16/18 3:30 67.2 67.9 67.2 57 51.4 3 SW 1.5 12 SW 67.2 66.3 66.3 29.822 0 0 0 0 0.046
5/16/18 4:00 66.1 67.2 66.1 60 51.8 2 SW 1 14 WSW 66.1 65.2 65.2 29.826 0 0 0 0 0.023
5/16/18 4:30 65.7 66.2 65.7 61 51.9 3 SW 1.5 14 WSW 65.7 64.9 64.9 29.827 0 0 0 0 0.015
5/16/18 5:00 65.2 65.7 65.2 62 51.8 3 SW 1.5 13 SW 65.2 64.4 64.4 29.831 0 0 0 0 0.004
5/16/18 5:30 64.6 65.2 64.6 64 52.1 3 SW 1.5 16 W 64.6 63.9 63.9 29.83 0 0 0 0.008 0
5/16/18 6:00 64.3 64.7 64.3 65 52.3 3 WSW 1.5 11 SW 64.3 63.6 63.6 29.833 0 0 0 0.015 0
5/16/18 6:30 64.3 64.4 64.2 65 52.3 3 WSW 1.5 10 WSW 64.3 63.6 63.6 29.837 0 0 0 0.015 0
5/16/18 7:00 65 65 64.2 65 52.9 3 SW 1.5 14 SW 65 64.4 64.4 29.843 0 0 0 0 0
5/16/18 7:30 66.4 66.4 65 63 53.4 5 SW 2.5 18 WSW 66.4 65.9 65.9 29.851 0 0 0 0 0.029
5/16/18 8:00 68 68 66.3 60 53.6 4 WSW 2 13 W 68 67.5 67.5 29.847 0 0 0 0 0.062
5/16/18 8:30 70.5 70.5 68 56 54 4 WSW 2 12 WNW 70.5 69.6 69.6 29.845 0 0 0 0 0.115
5/16/18 9:00 73.2 73.2 70.5 52 54.5 5 WSW 2.5 16 WNW 73.2 72.9 72.9 29.844 0 0 0 0 0.171
5/16/18 9:30 75.6 75.6 73.2 47 53.9 5 W 2.5 14 WSW 75.6 75.2 75.2 29.849 0 0 0 0 0.221
5/16/18 10:00 78 78 75.6 44 54.3 4 WSW 2 12 WSW 78 77.2 77.2 29.842 0 0 0 0 0.271
5/16/18 10:30 80.9 81 78.1 38 52.9 4 WSW 2 12 W 80.9 79.5 79.5 29.842 0 0 0 0 0.331
5/16/18 11:00 83.5 83.5 80.9 34 52.2 5 W 2.5 13 W 83.5 81.7 81.7 29.838 0 0 0 0 0.385
5/16/18 11:30 84.7 85 83.2 31 50.7 6 WNW 3 15 W 84.7 82.6 82.6 29.838 0 0 0 0 0.41
5/16/18 12:00 86.2 86.2 84.7 29 50.2 4 WNW 2 12 WNW 86.2 83.9 83.9 29.837 0 0 0 0 0.442
5/16/18 12:30 86.9 87.1 85.7 27 48.9 5 W 2.5 14 W 86.9 84.3 84.3 29.831 0 0 0 0 0.456
5/16/18 13:00 87.6 88 86.8 26 48.5 4 WNW 2 11 WNW 87.6 84.9 84.9 29.829 0 0 0 0 0.471
5/16/18 13:30 88.2 88.4 86.4 25 47.9 3 WNW 1.5 12 W 88.2 85.4 85.4 29.82 0 0 0 0 0.483
5/16/18 14:00 87.8 89 85.3 29 51.6 4 NW 2 12 ENE 87.8 85.5 85.5 29.819 0 0 0 0 0.475
5/16/18 14:30 88.8 88.8 87.7 29 52.4 4 N 2 11 NNW 88.8 86.6 86.6 29.816 0 0 0 0 0.496
5/16/18 15:00 88.5 89 87.7 27 50.3 5 N 2.5 13 N 88.5 86 86 29.816 0 0 0 0 0.49
5/16/18 15:30 88.4 88.8 87.6 28 51.1 5 N 2.5 12 NNE 88.4 86 86 29.813 0 0 0 0 0.488
5/16/18 16:00 88.8 88.9 88 28 51.5 4 N 2 12 NE 88.8 86.5 86.5 29.808 0 0 0 0 0.496
5/16/18 16:30 88.6 88.9 87.9 28 51.3 5 N 2.5 13 NNE 88.6 86.3 86.3 29.805 0 0 0 0 0.492
5/16/18 17:00 88.5 88.7 87.2 29 52.2 4 NE 2 13 ENE 88.5 86.3 86.3 29.806 0 0 0 0 0.49
5/16/18 17:30 87.1 88.6 87.1 25 47 4 N 2 9 NW 87.1 84.3 84.3 29.803 0 0 0 0 0.46
5/16/18 18:00 87.1 87.7 87 26 48.1 4 NE 2 11 NNW 87.1 84.4 84.4 29.805 0 0 0 0 0.46
5/16/18 18:30 85.9 87.2 85.9 28 49 4 NE 2 11 NE 85.9 83.5 83.5 29.806 0 0 0 0 0.435
5/16/18 19:00 84.9 85.9 84.9 29 49.1 4 NE 2 10 ENE 84.9 82.6 82.6 29.799 0 0 0 0 0.415
5/16/18 19:30 83.6 84.9 83.6 29 48 4 ENE 2 10 N 83.6 81.3 81.3 29.804 0 0 0 0 0.387
5/16/18 20:00 82.4 83.6 82.4 32 49.6 4 NE 2 13 NE 82.4 80.4 80.4 29.806 0 0 0 0 0.363
5/16/18 20:30 77.4 82.4 77.4 35 47.6 8 NE 4 17 NNE 76.9 75.9 75.4 29.818 0 0 0 0 0.258
5/16/18 21:00 74.8 77.4 74.8 36 46.1 6 NE 3 15 NNE 74.8 73.4 73.4 29.828 0 0 0 0 0.204
5/16/18 21:30 72.1 74.8 72 38 45.1 6 NE 3 12 NE 72.1 70.2 70.2 29.838 0 0 0 0 0.148
5/16/18 22:00 70.3 72.1 70.3 38 43.5 5 NE 2.5 11 ENE 70.3 67.7 67.7 29.857 0 0 0 0 0.11
5/16/18 22:30 68.7 70.4 68.6 39 42.7 5 ENE 2.5 13 N 68.7 66.2 66.2 29.866 0 0 0 0 0.077
5/16/18 23:00 67.3 68.6 67.3 41 42.8 4 ENE 2 10 ESE 67.3 65 65 29.876 0 0 0 0 0.048
5/16/18 23:30 66 67.3 65.9 43 42.9 4 ENE 2 9 NE 66 63.8 63.8 29.879 0 0 0 0 0.021
5/17/18 0:00 64.3 65.9 64.3 45 42.5 3 NE 1.5 8 N 64.3 62.1 62.1 29.884 0 0 0 0.015 0
5/17/18 0:30 63.2 64.3 63.2 48 43.2 3 NE 1.5 9 NE 63.2 61.1 61.1 29.889 0 0 0 0.037 0
5/17/18 1:00 62.7 63.2 62.7 50 43.8 2 NE 1 5 NNE 62.7 60.8 60.8 29.892 0 0 0 0.048 0
5/17/18 1:30 61.8 62.7 61.8 52 44 2 NE 1 5 ENE 61.8 60 60 29.896 0 0 0 0.067 0
5/17/18 2:00 60.6 61.8 60.5 53 43.4 1 NE 0.5 3 NE 60.6 58.8 58.8 29.896 0 0 0 0.092 0
5/17/18 2:30 60.1 60.6 59.3 54 43.4 1 ENE 0.5 3 E 60.1 58.3 58.3 29.892 0 0 0 0.102 0
5/17/18 3:00 64.2 64.2 60 47 43.5 2 E 1 6 E 64.2 62.1 62.1 29.887 0 0 0 0.017 0
5/17/18 3:30 64.1 65.1 64 47 43.4 2 E 1 5 NE 64.1 62 62 29.881 0 0 0 0.019 0
5/17/18 4:00 64 64.1 63.7 48 43.9 2 ESE 1 6 ESE 64 62 62 29.879 0 0 0 0.021 0
5/17/18 4:30 62.8 64.2 62.7 51 44.4 2 ESE 1 6 ESE 62.8 61 61 29.883 0 0 0 0.046 0
5/17/18 5:00 62.6 63.5 62.6 53 45.2 3 ESE 1.5 10 SE 62.6 60.9 60.9 29.881 0 0 0 0.05 0
5/17/18 5:30 61.5 62.6 61.5 55 45.2 2 ESE 1 6 E 61.5 59.8 59.8 29.887 0 0 0 0.073 0
5/17/18 6:00 60 61.5 59.8 58 45.2 1 E 0.5 7 E 60 58.5 58.5 29.899 0 0 0 0.104 0
5/17/18 6:30 61.3 61.3 59.6 57 45.9 2 ESE 1 9 E 61.3 59.8 59.8 29.908 0 0 0 0.077 0
5/17/18 7:00 59.4 61.4 59.4 63 46.8 4 ESE 2 11 ESE 59.4 58.2 58.2 29.908 0 0 0 0.117 0
5/17/18 7:30 60.5 60.5 59.1 62 47.4 4 SSE 2 11 ESE 60.5 59.2 59.2 29.913 0 0 0 0.094 0
5/17/18 8:00 59 60.5 58.9 59 44.7 5 ESE 2.5 11 SE 58.8 57.5 57.3 29.907 0 0 0 0.125 0
5/17/18 8:30 56.5 59 56.5 69 46.4 4 ESE 2 8 ESE 56.4 55.6 55.5 29.922 0 0 0 0.177 0
5/17/18 9:00 55.3 56.4 55.3 74 47.2 3 SSE 1.5 8 ESE 55.3 54.7 54.7 29.932 0 0 0 0.202 0
5/17/18 9:30 56 56 54.2 80 49.9 1 ESE 0.5 6 ESE 56 55.7 55.7 29.925 0.05 2.37 0 0.188 0
5/17/18 10:00 57.6 57.6 56 79 51.1 2 ESE 1 4 SE 57.6 57.2 57.2 29.934 0 0 0 0.154 0
5/17/18 10:30 60.1 60.1 57.3 78 53.2 4 SSE 2 10 SE 60.1 59.8 59.8 29.937 0 0 0 0.102 0
5/17/18 11:00 58.9 60.3 58.9 70 49.1 7 ESE 3.5 14 ESE 57.9 58 57 29.949 0 0 0 0.127 0
5/17/18 11:30 58.1 59.1 58.1 69 48 5 SE 2.5 12 SSE 57.7 57.2 56.8 29.982 0 0 0 0.144 0
5/17/18 12:00 56.4 58.1 56.4 78 49.6 2 ESE 1 5 SE 56.4 56 56 29.968 0.03 0.08 0 0.179 0
5/17/18 12:30 56.2 56.8 56 73 47.7 5 ESE 2.5 13 SE 55.5 55.5 54.8 29.941 0.01 0.05 0 0.183 0
5/17/18 13:00 58.6 58.7 56.3 72 49.6 6 ESE 3 13 SE 57.9 57.8 57.1 29.923 0 0 0 0.133 0
5/17/18 13:30 63.2 63.2 58.7 67 52.1 6 ESE 3 14 ESE 63.2 62.5 62.5 29.926 0 0 0 0.037 0
5/17/18 14:00 67.4 67.4 63.2 60 53 5 ESE 2.5 11 ESE 67.4 66.8 66.8 29.927 0 0 0 0 0.05
5/17/18 14:30 68.1 69 67.4 55 51.3 4 ESE 2 10 ESE 68.1 67.2 67.2 29.925 0 0 0 0 0.065
5/17/18 15:00 69.2 69.6 68.1 55 52.3 3 E 1.5 8 ENE 69.2 68.2 68.2 29.911 0 0 0 0 0.087
5/17/18 15:30 68.2 69.3 68.2 57 52.4 3 NE 1.5 8 NNE 68.2 67.5 67.5 29.905 0 0 0 0 0.067
5/17/18 16:00 67.2 68.2 67.2 60 52.8 2 ENE 1 6 ENE 67.2 66.5 66.5 29.905 0 0 0 0 0.046
5/17/18 16:30 63.7 67.2 63.7 72 54.5 2 E 1 7 ESE 63.7 63.4 63.4 29.88 0.04 0.21 0 0.027 0
5/17/18 17:00 63 63.9 63 74 54.6 2 ESE 1 7 ESE 63 62.7 62.7 29.901 0 0 0 0.042 0
5/17/18 17:30 62.9 63.3 62.8 77 55.6 2 NNE 1 9 NNW 62.9 62.9 62.9 29.903 0 0 0 0.044 0
5/17/18 18:00 60.4 62.9 60 76 52.8 7 NNE 3.5 16 N 59.7 60 59.3 29.895 0 0 0 0.096 0
5/17/18 18:30 60.7 60.8 60.4 69 50.5 6 NE 3 14 NE 60.4 59.9 59.7 29.891 0 0 0 0.09 0
5/17/18 19:00 58.7 60.8 58.7 76 51.2 7 NNE 3.5 26 WSW 57.6 58.2 57.1 29.966 0.01 0 0 0.131 0
5/17/18 19:30 56 58.7 55.9 84 51.2 5 N 2.5 12 N 55.3 55.8 55.1 29.946 0.33 1.91 0 0.188 0
5/17/18 20:00 56.5 56.5 55.9 85 52 4 NE 2 14 ENE 56.4 56.3 56.2 29.917 0.03 0.55 0 0.177 0
5/17/18 20:30 56.5 56.7 56.3 85 52 2 ENE 1 9 NE 56.5 56.3 56.3 29.925 0.04 0.08 0 0.177 0
5/17/18 21:00 57 57 56.5 86 52.9 1 ESE 0.5 3 SE 57 56.9 56.9 29.901 0.02 0.08 0 0.167 0
5/17/18 21:30 57.7 57.7 56.9 86 53.5 1 ESE 0.5 3 SE 57.7 57.6 57.6 29.905 0.01 0.04 0 0.152 0
5/17/18 22:00 58.9 59 57.7 84 54.1 2 ESE 1 4 ESE 58.9 58.8 58.8 29.915 0.01 0 0 0.127 0
5/17/18 22:30 58.1 59 58.1 78 51.3 3 E 1.5 8 E 58.1 57.7 57.7 29.918 0 0 0 0.144 0
5/17/18 23:00 57.3 58.1 57.3 77 50.1 4 ESE 2 8 E 57.3 56.8 56.8 29.911 0 0 0 0.16 0
5/17/18 23:30 57.6 57.9 57.2 68 47.1 7 ESE 3.5 13 ESE 56.3 56.6 55.3 29.876 0 0 0 0.154 0
5/18/18 0:00 56 57.6 56 67 45.2 8 ESE 4 13 SE 53.7 55 52.7 29.883 0 0 0 0.188 0
5/18/18 0:30 55.1 56 55.1 66 43.9 7 ESE 3.5 12 E 53.3 54.1 52.3 29.888 0 0 0 0.206 0
5/18/18 1:00 53.7 55.1 53.7 70 44.1 4 ESE 2 9 ENE 53.1 52.9 52.4 29.879 0 0 0 0.235 0
5/18/18 1:30 54.1 54.1 53.7 70 44.5 3 ESE 1.5 6 ESE 54.1 53.3 53.3 29.878 0 0 0 0.227 0
5/18/18 2:00 55 55 54.1 66 43.8 4 ESE 2 9 ESE 54.6 54 53.6 29.87 0 0 0 0.208 0
5/18/18 2:30 53.7 55 53.6 68 43.4 2 ESE 1 8 ESE 53.7 52.9 52.9 29.879 0 0 0 0.235 0
5/18/18 3:00 53.5 53.7 53.1 71 44.3 1 N 0.5 4 N 53.5 52.8 52.8 29.884 0 0 0 0.24 0
5/18/18 3:30 51.9 53.5 51.9 76 44.6 1 N 0.5 4 NNW 51.9 51.5 51.5 29.888 0 0 0 0.273 0
5/18/18 4:00 51.4 52 51.4 77 44.4 2 N 1 5 WNW 51.4 51.1 51.1 29.888 0 0 0 0.283 0
5/18/18 4:30 50.6 51.5 50.6 78 44 3 N 1.5 9 NNW 50.4 50.4 50.2 29.887 0 0 0 0.3 0
5/18/18 5:00 50.4 50.8 50.3 76 43.1 2 NNE 1 6 N 50.4 50.2 50.2 29.884 0 0 0 0.304 0
5/18/18 5:30 49.5 50.4 49.5 78 42.9 3 N 1.5 10 N 49.1 49.4 49 29.881 0 0 0 0.323 0
5/18/18 6:00 49.1 49.5 49.1 77 42.2 4 NE 2 10 NNE 47.8 48.9 47.6 29.864 0 0 0 0.331 0
5/18/18 6:30 49.5 49.6 48.9 77 42.6 4 NE 2 11 NE 48.3 49.3 48.1 29.857 0 0 0 0.323 0
5/18/18 7:00 50.5 50.6 49.5 76 43.2 4 NE 2 9 NE 49.5 50.2 49.2 29.841 0 0 0 0.302 0
5/18/18 7:30 52.3 52.3 50.5 76 45 3 ENE 1.5 8 E 52.2 51.9 51.8 29.813 0 0 0 0.265 0
5/18/18 8:00 56.7 56.7 52.3 74 48.5 2 ENE 1 7 E 56.7 56 56 29.786 0 0 0 0.173 0
5/18/18 8:30 59.9 59.9 56.7 71 50.5 1 E 0.5 5 ENE 59.9 59.2 59.2 29.815 0 0 0 0.106 0
5/18/18 9:00 66.9 66.9 59.9 65 54.7 4 SSE 2 15 SSE 66.9 66.7 66.7 29.799 0 0 0 0 0.04
5/18/18 9:30 71.5 71.5 66.9 58 55.9 7 SSE 3.5 16 SSE 71.5 71.1 71.1 29.785 0 0 0 0 0.135
5/18/18 10:00 72.7 72.9 71.5 53 54.6 9 SSE 4.5 21 SSE 71.3 72.3 70.9 29.777 0 0 0 0 0.16
5/18/18 10:30 72.2 73.8 72.2 53 54.1 8 SSE 4 20 SSE 71.7 71.6 71.1 29.772 0 0 0 0 0.15
5/18/18 11:00 75.9 76 72.1 48 54.8 6 SSE 3 15 SSE 75.9 75.6 75.6 29.768 0 0 0 0 0.227
5/18/18 11:30 73.5 76.1 73.4 53 55.3 5 S 2.5 18 SSE 73.5 73.4 73.4 29.766 0 0 0 0 0.177
5/18/18 12:00 74 74.2 73.5 51 54.7 5 SSW 2.5 14 SSW 74 73.9 73.9 29.766 0 0 0 0 0.188
5/18/18 12:30 73.7 74.8 73.7 53 55.5 3 SSW 1.5 15 SSE 73.7 73.6 73.6 29.762 0 0 0 0 0.181
5/18/18 13:00 72.5 73.7 72.5 57 56.4 3 SSW 1.5 11 WSW 72.5 72.3 72.3 29.772 0 0 0 0 0.156
5/18/18 13:30 60.2 72.5 60.1 75 52.2 6 W 3 12 W 59.8 59.7 59.4 29.805 0 0 0 0.1 0
5/18/18 14:00 57.1 60.1 57.1 79 50.6 3 WNW 1.5 8 WNW 57.1 56.7 56.7 29.815 0 0 0 0.165 0
5/18/18 14:30 57.2 57.4 57 80 51.1 3 W 1.5 9 WNW 57.2 56.9 56.9 29.832 0.01 0 0 0.162 0
5/18/18 15:00 57.4 57.4 56.7 79 50.9 3 WNW 1.5 10 W 57.4 57 57 29.833 0 0 0 0.158 0
5/18/18 15:30 57.3 57.8 57.1 78 50.5 2 WNW 1 6 NW 57.3 56.9 56.9 29.83 0 0 0 0.16 0
5/18/18 22:15 45.6 45.8 45.6 85 41.4 4 NNW 1 13 NNW 43.8 45.6 43.7 29.967 0 0 0 0.202 0
5/18/18 22:50 45.4 45.4 45.4 86 41.5 4 NNW 0.33 12 N 43.5 45.4 43.5 29.971 0 0 0 0.068 0
5/18/18 22:55 45.4 45.4 45.4 86 41.5 5 NNW 0.42 14 NNW 42.8 45.4 42.8 29.971 0 0 0 0.068 0
5/18/18 23:00 45.4 45.4 45.3 86 41.5 6 NNW 0.5 13 NW 42.2 45.4 42.2 29.969 0 0 0 0.068 0
5/18/18 23:05 45.4 45.4 45.3 86 41.5 6 NNW 0.5 13 NNW 42.2 45.4 42.2 29.973 0 0 0 0.068 0
5/18/18 23:10 45.3 45.4 45.3 86 41.4 6 N 0.5 12 N 42.1 45.3 42 29.97 0 0 0 0.068 0
5/18/18 23:15 45.4 45.4 45.3 86 41.5 7 NNW 0.58 15 WNW 41.7 45.4 41.7 29.973 0 0 0 0.068 0
5/18/18 23:20 45.4 45.4 45.3 86 41.5 7 NNW 0.58 15 N 41.7 45.4 41.7 29.972 0 0 0 0.068 0
5/18/18 23:25 45.3 45.4 45.3 86 41.4 7 NNW 0.58 13 NNE 41.6 45.3 41.5 29.978 0 0 0 0.068 0
5/18/18 23:30 45.2 45.4 45.2 86 41.3 6 N 0.5 15 N 41.9 45.2 41.9 29.98 0 0 0 0.069 0
5/18/18 23:35 45.2 45.3 45.2 86 41.3 7 NW 0.58 22 NW 41.4 45.2 41.4 29.976 0 0 0 0.069 0
5/18/18 23:40 45.2 45.2 45.1 86 41.3 6 NNW 0.5 15 NE 41.9 45.2 41.9 29.976 0 0 0 0.069 0
5/18/18 23:45 45.2 45.2 45.1 86 41.3 8 N 0.67 15 NNE 40.8 45.2 40.8 29.975 0 0 0 0.069 0
5/18/18 23:50 45.2 45.2 45.1 86 41.3 7 N 0.58 17 NNW 41.4 45.2 41.4 29.974 0 0 0 0.069 0
5/18/18 23:55 45.2 45.2 45.1 86 41.3 7 NNW 0.58 18 W 41.4 45.2 41.4 29.975 0 0 0 0.069 0
5/19/18 0:00 45.2 45.2 45.1 86 41.3 7 N 0.58 20 NNW 41.4 45.2 41.4 29.973 0 0 0 0.069 0
5/19/18 0:05 45.3 45.3 45.2 86 41.4 6 NNW 0.5 13 N 42.1 45.3 42 29.977 0 0 0 0.068 0
5/19/18 0:10 45.4 45.4 45.2 85 41.2 6 NNE 0.5 16 N 42.2 45.3 42.1 29.977 0 0 0 0.068 0
5/19/18 0:15 45.4 45.4 45.3 85 41.2 6 N 0.5 12 NNE 42.2 45.3 42.1 29.982 0 0 0 0.068 0
5/19/18 0:20 45.4 45.4 45.3 85 41.2 6 NNW 0.5 15 N 42.2 45.3 42.1 29.981 0 0 0 0.068 0
5/19/18 0:50 45.4 45.4 45.3 84 40.8 6 N 1 15 NW 42.2 45.3 42.1 29.989 0 0 0 0.136 0
5/19/18 1:00 45.3 45.4 45.2 85 41.1 7 N 1.17 18 NW 41.6 45.2 41.5 29.989 0 0 0 0.137 0
5/19/18 1:10 45.1 45.2 45.1 85 40.9 7 NNW 1.17 18 NNW 41.3 45 41.2 29.998 0 0 0 0.138 0
5/19/18 1:20 45.3 45.3 45.1 84 40.7 6 N 1 16 N 42.1 45.2 42 30.003 0 0 0 0.137 0
5/19/18 1:30 45.4 45.4 45.3 83 40.5 6 NNW 1 14 N 42.2 45.3 42.1 30.008 0 0 0 0.136 0
5/19/18 1:40 45.4 45.5 45.4 83 40.5 6 NNW 1 15 N 42.2 45.3 42.1 30.01 0 0 0 0.136 0
5/19/18 1:50 45.3 45.4 45.3 83 40.4 6 N 1 16 N 42.1 45.2 41.9 30.012 0 0 0 0.137 0
5/19/18 2:00 45.4 45.4 45.3 83 40.5 6 N 1 14 NNE 42.2 45.3 42.1 30.015 0 0 0 0.136 0
5/19/18 2:10 45.3 45.4 45.3 83 40.4 6 N 1 13 NNW 42.1 45.2 41.9 30.02 0 0 0 0.137 0
5/19/18 2:20 45.2 45.3 45.2 83 40.3 7 N 1.17 15 N 41.4 45.1 41.3 30.021 0 0 0 0.137 0
5/19/18 2:30 45.2 45.3 45.2 83 40.3 7 N 1.17 18 NNW 41.4 45.1 41.3 30.02 0 0 0 0.137 0
5/19/18 2:40 45.2 45.3 45.1 83 40.3 6 N 1 17 NNE 41.9 45.1 41.8 30.014 0 0 0 0.137 0
5/19/18 2:50 45.1 45.2 45.1 83 40.2 6 N 1 19 NNW 41.8 45 41.7 30.012 0 0 0 0.138 0
5/19/18 3:00 45.1 45.2 45.1 82 39.9 7 N 1.17 16 NE 41.3 44.9 41.2 30.017 0 0 0 0.138 0
5/19/18 3:10 45 45.1 45 83 40.1 6 NNW 1 16 NNE 41.7 44.9 41.6 30.025 0 0 0 0.139 0
5/19/18 3:20 45.1 45.1 45 82 39.9 6 N 1 15 NNE 41.8 44.9 41.7 30.033 0 0 0 0.138 0
5/19/18 3:30 45.1 45.1 45.1 82 39.9 6 N 1 16 NNW 41.8 44.9 41.7 30.037 0 0 0 0.138 0
5/19/18 3:40 45 45.1 45 82 39.8 5 N 0.83 15 NNW 42.3 44.8 42.1 30.024 0 0 0 0.139 0
5/19/18 3:50 45.1 45.1 45 83 40.2 7 N 1.17 17 N 41.3 45 41.2 30.033 0 0 0 0.138 0
5/19/18 4:00 45.1 45.1 45 82 39.9 6 N 1 16 NE 41.8 44.9 41.7 30.038 0 0 0 0.138 0
5/19/18 4:10 45 45.1 45 82 39.8 5 N 0.83 12 NNW 42.3 44.8 42.1 30.05 0 0 0 0.139 0
5/19/18 4:20 45 45.1 44.9 82 39.8 5 N 0.83 14 NNW 42.3 44.8 42.1 30.049 0 0 0 0.139 0
5/19/18 4:30 44.9 45 44.9 82 39.7 5 N 0.83 12 NW 42.2 44.7 42 30.05 0 0 0 0.14 0
5/19/18 4:40 44.9 44.9 44.8 82 39.7 6 N 1 17 NNW 41.6 44.7 41.4 30.047 0 0 0 0.14 0
5/19/18 4:50 44.9 44.9 44.8 82 39.7 5 N 0.83 13 N 42.2 44.7 42 30.047 0 0 0 0.14 0
5/19/18 5:00 44.8 44.9 44.7 82 39.6 6 N 1 15 N 41.5 44.6 41.3 30.05 0 0 0 0.14 0
5/19/18 5:10 44.7 44.8 44.7 82 39.5 7 N 1.17 17 N 40.8 44.5 40.7 30.05 0 0 0 0.141 0
5/19/18 5:20 44.6 44.7 44.5 82 39.4 7 N 1.17 15 NNW 40.7 44.4 40.6 30.048 0 0 0 0.142 0
5/19/18 5:30 44.3 44.6 44.3 82 39.2 7 N 1.17 19 N 40.4 44.1 40.2 30.049 0 0 0 0.144 0
5/19/18 5:40 44.1 44.3 44.1 82 39 8 N 1.33 17 N 39.5 43.9 39.4 30.052 0 0 0 0.145 0
5/19/18 5:50 43.8 44.1 43.8 82 38.7 7 N 1.17 18 NNW 39.8 43.6 39.6 30.059 0 0 0 0.147 0
5/19/18 6:00 43.6 43.9 43.6 82 38.5 6 N 1 15 NNW 40 43.4 39.8 30.062 0 0 0 0.149 0
5/19/18 6:10 43.4 43.7 43.4 82 38.3 7 N 1.17 18 N 39.3 43.2 39.1 30.067 0 0 0 0.15 0
5/19/18 6:20 43.1 43.4 43 83 38.3 6 N 1 16 N 39.4 42.9 39.2 30.081 0 0 0 0.152 0
5/19/18 6:30 42.7 43.1 42.7 83 37.9 6 NNW 1 16 NNW 38.9 42.5 38.7 30.078 0 0 0 0.155 0
5/19/18 6:40 42.4 42.7 42.4 83 37.6 6 N 1 16 NNE 38.6 42.2 38.4 30.086 0 0 0 0.157 0
5/19/18 6:50 42.2 42.4 42.2 83 37.4 6 N 1 15 NNE 38.3 42 38.1 30.088 0 0 0 0.158 0
5/19/18 7:00 42.4 42.4 42.2 83 37.6 7 N 1.17 16 NNE 38 42.2 37.8 30.093 0 0 0 0.157 0
5/19/18 7:10 42.2 42.4 42.2 82 37.1 9 N 1.5 19 N 36.7 41.9 36.5 30.087 0 0 0 0.158 0
5/19/18 7:20 42.2 42.3 42.2 82 37.1 10 N 1.67 22 N 36.2 41.9 36 30.084 0 0 0 0.158 0
5/19/18 7:30 42.2 42.3 42.1 82 37.1 9 N 1.5 18 N 36.7 41.9 36.5 30.092 0 0 0 0.158 0
5/19/18 7:40 42.2 42.3 42.1 83 37.4 10 N 1.67 21 NNW 36.2 42 36 30.099 0 0 0 0.158 0
5/19/18 7:50 42.4 42.4 42.2 83 37.6 7 N 1.17 16 NNE 38 42.2 37.8 30.101 0 0 0 0.157 0
5/19/18 8:00 42.7 42.8 42.4 82 37.6 7 N 1.17 16 NNW 38.4 42.5 38.2 30.104 0 0 0 0.155 0
5/19/18 8:10 43.1 43.1 42.7 82 38 7 N 1.17 15 NNW 38.9 42.9 38.7 30.109 0 0 0 0.152 0
5/19/18 8:20 43.5 43.6 43 81 38.1 7 N 1.17 17 N 39.4 43.3 39.2 30.113 0 0 0 0.149 0
5/19/18 8:30 43.8 43.8 43.5 81 38.3 9 NNE 1.5 17 N 38.6 43.6 38.4 30.119 0 0 0 0.147 0
5/19/18 8:40 44.7 44.7 43.8 80 38.9 9 N 1.5 16 N 39.6 44.5 39.4 30.124 0 0 0 0.141 0
5/19/18 8:50 45.2 45.2 44.7 78 38.7 9 N 1.5 18 N 40.2 44.9 40 30.125 0 0 0 0.137 0
5/19/18 9:00 45.5 45.5 45.2 78 39 9 N 1.5 15 NNE 40.6 45.2 40.3 30.127 0 0 0 0.135 0
5/19/18 9:10 46.6 46.7 45.6 76 39.4 9 NNE 1.5 16 NNW 41.9 46.3 41.5 30.128 0 0 0 0.128 0
5/19/18 9:20 48.4 48.4 46.7 75 40.8 8 NE 1.33 17 NNE 44.6 48.1 44.3 30.129 0 0 0 0.115 0
5/19/18 9:30 47.7 48.6 47.6 74 39.8 9 NNE 1.5 16 NNW 43.1 47.4 42.8 30.131 0 0 0 0.12 0
5/19/18 9:40 49.4 49.4 47.7 71 40.4 10 NNE 1.67 18 NNW 44.6 49 44.2 30.132 0 0 0 0.108 0
5/19/18 9:50 49.8 49.8 49.4 72 41.1 10 NNE 1.67 18 N 45.1 49.5 44.7 30.134 0 0 0 0.106 0
5/19/18 10:00 51.2 51.2 49.9 69 41.4 10 NNE 1.67 16 NNE 46.7 50.6 46.1 30.131 0 0 0 0.096 0
5/19/18 10:10 51.9 52 51.2 66 40.9 11 N 1.83 22 NW 47 51.1 46.2 30.131 0 0 0 0.091 0
5/19/18 10:20 52.4 52.7 51.8 66 41.4 10 NNE 1.67 18 NNE 48.1 51.6 47.3 30.131 0 0 0 0.087 0
5/19/18 10:30 53.2 53.3 52.3 65 41.7 10 NNE 1.67 21 NNW 49 52.3 48.1 30.131 0 0 0 0.082 0
5/19/18 10:40 53.7 53.8 53.2 62 41 10 NNE 1.67 17 N 49.6 52.5 48.5 30.131 0 0 0 0.078 0
5/19/18 10:50 55 55 53.6 59 40.9 11 NNE 1.83 22 N 50.6 53.6 49.2 30.127 0 0 0 0.069 0
5/19/18 11:00 55.6 55.7 54.9 57 40.6 8 NNE 1.33 23 NE 53.2 54.1 51.7 30.129 0 0 0 0.065 0
5/19/18 11:10 55.8 56 55.6 55 39.9 11 NNE 1.83 22 NNE 51.5 54.2 49.9 30.131 0 0 0 0.064 0
5/19/18 11:20 57.4 57.4 55.8 55 41.4 10 NNE 1.67 20 N 53.9 55.7 52.2 30.129 0 0 0 0.053 0
5/19/18 11:30 58 58 57.1 51 40 10 NNE 1.67 20 N 54.6 56.1 52.7 30.128 0 0 0 0.049 0
5/19/18 11:40 57.8 58.2 57.6 50 39.3 10 NE 1.67 17 NE 54.4 55.8 52.4 30.124 0 0 0 0.05 0
5/19/18 11:50 58.7 59.1 57.8 48 39 10 NNE 1.67 17 N 55.4 56.6 53.3 30.131 0 0 0 0.044 0
5/19/18 12:00 59.2 59.3 58.7 45 37.9 11 NNE 1.83 22 N 55.4 56.9 53.1 30.133 0 0 0 0.04 0
5/19/18 12:10 59.9 60 59.2 44 37.9 9 NNE 1.5 20 NNE 57.6 57.5 55.2 30.136 0 0 0 0.035 0
5/19/18 12:20 60.5 60.7 59.9 46 39.6 10 NNE 1.67 17 NNW 57.5 58.3 55.3 30.137 0 0 0 0.031 0
5/19/18 12:30 60.9 61.3 60.5 43 38.2 8 NE 1.33 17 NE 59.6 58.4 57.1 30.135 0 0 0 0.028 0
5/19/18 12:40 61.5 61.9 60.9 43 38.8 9 NNE 1.5 23 NNE 59.5 59 57 30.139 0 0 0 0.024 0
5/19/18 12:50 62.5 62.7 61.6 36 35.2 9 NE 1.5 22 NNE 60.6 59.5 57.6 30.143 0 0 0 0.017 0
5/19/18 13:00 61.9 62.4 61.7 37 35.3 11 NNE 1.83 24 NNE 58.5 59 55.6 30.143 0 0 0 0.022 0
5/19/18 13:10 62.7 62.9 62 40 38 10 NE 1.67 24 ENE 60.1 60 57.4 30.144 0 0 0 0.016 0
5/19/18 13:20 62.9 63.2 62.4 37 36.2 12 NNE 2 23 NE 59.1 60 56.1 30.15 0 0 0 0.015 0
5/19/18 13:30 63 63.1 62.6 37 36.3 11 NNE 1.83 21 N 59.8 60.1 56.9 30.146 0 0 0 0.014 0
5/19/18 13:40 63.6 63.8 62.9 36 36.1 11 NNE 1.83 21 NNW 60.5 60.6 57.5 30.148 0 0 0 0.01 0
5/19/18 13:50 63.8 63.8 63.1 35 35.6 11 NNE 1.83 25 NNE 60.7 60.7 57.6 30.15 0 0 0 0.008 0
5/19/18 14:00 64.3 64.3 63.3 34 35.3 10 NE 1.67 19 ENE 62 61.1 58.8 30.147 0 0 0 0.005 0
5/19/18 14:10 64.3 64.6 64.1 34 35.3 11 NE 1.83 20 NNE 61.3 61.1 58.1 30.145 0 0 0 0.005 0
5/19/18 14:20 65.2 65.2 64.3 34 36.1 9 NE 1.5 18 NE 63.8 62.1 60.7 30.142 0 0 0 0 0.001
5/19/18 14:30 64.8 65.2 64.5 31 33.4 10 NNE 1.67 18 NNE 62.6 61.4 59.2 30.142 0 0 0 0.001 0
5/19/18 14:40 64.7 65.3 64.6 35 36.4 8 NNE 1.33 18 NE 64 61.7 61 30.142 0 0 0 0.002 0
5/19/18 14:50 65.3 65.3 64.8 32 34.7 10 NNE 1.67 22 ENE 63.2 62 59.9 30.137 0 0 0 0 0.002
5/19/18 15:00 65.6 65.9 65.3 32 34.9 9 NE 1.5 20 ENE 64.3 62.3 61 30.139 0 0 0 0 0.004
5/19/18 15:10 65.8 66.2 65.6 31 34.3 11 NNE 1.83 24 NNE 63.1 62.5 59.7 30.138 0 0 0 0 0.006
5/19/18 15:20 65.6 65.9 65.4 29 32.5 10 NNE 1.67 24 N 63.5 62 59.9 30.136 0 0 0 0 0.004
5/19/18 15:30 66.2 66.3 65.4 31 34.7 10 NE 1.67 19 NNE 64.2 62.9 60.9 30.131 0 0 0 0 0.008
5/19/18 15:40 66.1 66.3 66 30 33.7 10 NE 1.67 20 ENE 64.1 62.7 60.7 30.131 0 0 0 0 0.008
5/19/18 15:50 66.2 66.5 66.1 28 32.1 9 NE 1.5 18 NE 64.9 62.4 61.1 30.129 0 0 0 0 0.008
5/19/18 16:00 66.5 66.5 66 29 33.2 10 NE 1.67 23 N 64.5 62.9 60.9 30.124 0 0 0 0 0.01
5/19/18 16:10 66.7 67.3 66.4 27 31.6 9 NE 1.5 17 NE 65.4 62.6 61.3 30.123 0 0 0 0 0.012
5/19/18 16:20 67.2 67.2 66.3 27 32.1 8 NE 1.33 19 NE 66.6 63.2 62.6 30.116 0 0 0 0 0.015
5/19/18 16:30 66.6 67.7 66.6 27 31.5 9 NNE 1.5 21 NE 65.3 62.5 61.2 30.119 0 0 0 0 0.011
5/19/18 16:40 66.7 66.7 66.2 28 32.5 10 NE 1.67 19 N 64.7 62.9 60.9 30.113 0 0 0 0 0.012
5/19/18 16:50 66.9 67.1 66.6 25 29.9 10 NE 1.67 18 NE 64.9 62.4 60.4 30.111 0 0 0 0 0.013
5/19/18 17:00 67.2 67.2 66.5 29 33.8 9 NE 1.5 19 N 65.9 63.6 62.3 30.109 0 0 0 0 0.015
5/19/18 17:10 67.2 67.3 66.7 27 32.1 10 NE 1.67 20 NW 65.2 63.2 61.2 30.109 0 0 0 0 0.015
5/19/18 17:20 66.7 67.3 66.7 27 31.6 8 NE 1.33 18 NNW 66.1 62.6 62 30.11 0 0 0 0 0.012
5/19/18 17:30 66.7 66.7 66.5 27 31.6 8 NE 1.33 19 NNE 66.1 62.6 62 30.111 0 0 0 0 0.012
5/19/18 17:40 66.3 66.6 66.3 27 31.3 10 NE 1.67 18 NNE 64.3 62.2 60.2 30.11 0 0 0 0 0.009
5/19/18 17:50 66.1 66.4 66.1 26 30.2 8 NE 1.33 18 N 65.5 61.8 61.2 30.109 0 0 0 0 0.008
5/19/18 18:00 66.3 66.4 66.1 27 31.3 8 NE 1.33 18 NNE 65.7 62.2 61.6 30.108 0 0 0 0 0.009
5/19/18 18:10 65.9 66.4 65.9 26 30 9 NE 1.5 18 NNE 64.6 61.6 60.3 30.113 0 0 0 0 0.006
5/19/18 18:20 66 66.1 65.6 27 31 7 NE 1.17 13 NE 66 61.9 61.9 30.117 0 0 0 0 0.007
5/19/18 18:30 65.7 66 65.5 27 30.8 6 ENE 1 13 ENE 65.7 61.6 61.6 30.118 0 0 0 0 0.005
5/19/18 18:40 65.6 65.9 65.6 28 31.6 6 NE 1 12 NE 65.6 61.8 61.8 30.124 0 0 0 0 0.004
5/19/18 18:50 65 65.6 65 28 31.1 5 NNE 0.83 15 NNE 65 61.1 61.1 30.126 0 0 0 0 0
5/19/18 19:00 65 65.2 65 28 31.1 6 NE 1 14 NNE 65 61.1 61.1 30.131 0 0 0 0 0
5/19/18 19:10 64.7 65.1 64.7 30 32.5 5 NE 0.83 13 ENE 64.7 61.2 61.2 30.131 0 0 0 0.002 0
5/19/18 19:20 64.3 64.8 64.2 28 30.5 8 NE 1.33 15 NE 63.6 60.4 59.7 30.135 0 0 0 0.005 0
5/19/18 19:30 64 64.3 64 28 30.2 6 NE 1 12 NE 64 60.1 60.1 30.136 0 0 0 0.007 0
5/19/18 19:40 63.7 64 63.7 29 30.8 5 NE 0.83 14 N 63.7 60 60 30.139 0 0 0 0.009 0
5/19/18 19:50 63.5 63.7 63.5 30 31.5 5 NE 0.83 12 NNE 63.5 60 60 30.143 0 0 0 0.01 0
5/19/18 20:00 63.1 63.5 63.1 30 31.1 5 NE 0.83 10 ENE 63.1 59.6 59.6 30.143 0 0 0 0.013 0
5/19/18 20:10 62.6 63.1 62.6 31 31.5 4 NE 0.67 9 NNE 62.6 59.2 59.2 30.148 0 0 0 0.017 0
5/19/18 20:20 62.1 62.7 62 32 31.9 3 NE 0.5 7 NE 62.1 58.8 58.8 30.151 0 0 0 0.02 0
5/19/18 20:30 61.4 62 61.4 34 32.8 3 NE 0.5 9 NE 61.4 58.2 58.2 30.154 0 0 0 0.025 0
5/19/18 20:40 60.2 61.3 60.2 36 33.1 3 NE 0.5 7 NE 60.2 57.2 57.2 30.156 0 0 0 0.033 0
5/19/18 20:50 59.5 60.2 59.5 38 33.9 2 NE 0.33 4 NNE 59.5 56.7 56.7 30.16 0 0 0 0.038 0
5/19/18 21:00 58.6 59.6 58.6 40 34.3 1 NE 0.17 3 NNE 58.6 56 56 30.167 0 0 0 0.044 0
5/19/18 21:10 57 58.5 57 44 35.3 0 -- 0 2 NE 57 54.7 54.7 30.171 0 0 0 0.056 0
5/19/18 21:20 56 56.9 56 46 35.5 1 N 0.17 4 N 56 53.9 53.9 30.174 0 0 0 0.062 0
5/19/18 21:30 55.8 56 55.8 46 35.3 1 NNE 0.17 3 NNE 55.8 53.7 53.7 30.182 0 0 0 0.064 0
5/19/18 21:40 54.2 55.8 54.2 51 36.5 1 NNE 0.17 2 NNE 54.2 52.5 52.5 30.183 0 0 0 0.075 0
5/19/18 21:50 53.3 54.2 53.3 51 35.6 1 N 0.17 3 N 53.3 51.7 51.7 30.186 0 0 0 0.081 0
5/19/18 22:00 52.8 53.4 52.7 53 36.1 1 N 0.17 3 NE 52.8 51.3 51.3 30.19 0 0 0 0.085 0
5/19/18 22:10 52.2 52.8 52.2 53 35.6 1 NNE 0.17 3 NNE 52.2 50.8 50.8 30.192 0 0 0 0.089 0
5/19/18 22:20 52.2 52.3 51.9 53 35.6 2 N 0.33 4 N 52.2 50.8 50.8 30.19 0 0 0 0.089 0
5/19/18 22:30 52.1 52.3 52 54 35.9 2 N 0.33 5 NNW 52.1 50.8 50.8 30.195 0 0 0 0.09 0
5/19/18 22:40 52.1 52.2 51.9 52 35 2 N 0.33 5 NE 52.1 50.7 50.7 30.197 0 0 0 0.09 0
5/19/18 22:50 52.1 52.3 52.1 52 35 2 NNE 0.33 4 N 52.1 50.7 50.7 30.197 0 0 0 0.09 0
5/19/18 23:00 51.5 52.1 51.5 53 34.9 2 N 0.33 4 NNE 51.5 50.2 50.2 30.199 0 0 0 0.094 0
5/19/18 23:15 51 -- -- 54 34.9 0 -- 0 0 -- 51 49.9 49.9 30.199 0 0 0 0.049 0
5/19/18 23:20 50.8 51 50.7 54 34.7 2 NNE 0.17 3 NNE 50.8 49.7 49.7 30.199 0 0 0 0.049 0
5/19/18 23:25 50.9 51 50.8 55 35.3 1 NNE 0.08 3 NNE 50.9 49.8 49.8 30.205 0 0 0 0.049 0
5/19/18 23:30 50.9 51 50.9 54 34.8 1 NNE 0.08 4 NE 50.9 49.8 49.8 30.199 0 0 0 0.049 0
5/19/18 23:35 51.9 51.9 50.9 52 34.8 1 NNE 0.08 2 NNE 51.9 50.5 50.5 30.202 0 0 0 0.045 0
5/19/18 23:40 51.8 52 51.7 52 34.7 0 -- 0 2 NE 51.8 50.4 50.4 30.204 0 0 0 0.046 0
5/19/18 23:45 51.2 51.8 51.2 53 34.6 0 -- 0 1 NE 51.2 50 50 30.201 0 0 0 0.048 0
5/19/18 23:50 50.4 51.2 50.4 56 35.3 0 -- 0 1 NE 50.4 49.4 49.4 30.207 0 0 0 0.051 0
5/19/18 23:55 49.2 50.3 49.2 58 35 0 -- 0 0 -- 49.2 48.3 48.3 30.21 0 0 0 0.055 0
5/20/18 0:00 48.2 49.2 48.2 58 34.1 0 -- 0 0 -- 48.2 47.3 47.3 30.208 0 0 0 0.058 0
5/20/18 0:05 47.8 48.2 47.8 60 34.6 0 -- 0 0 -- 47.8 47 47 30.21 0 0 0 0.06 0
5/20/18 0:10 47.4 47.8 47.4 61 34.6 0 -- 0 0 -- 47.4 46.6 46.6 30.209 0 0 0 0.061 0
5/20/18 0:15 46.8 47.4 46.8 63 34.9 0 -- 0 0 -- 46.8 46.1 46.1 30.21 0 0 0 0.063 0
5/20/18 0:20 46.3 46.7 46.3 64 34.8 0 -- 0 0 -- 46.3 45.6 45.6 30.213 0 0 0 0.065 0
5/20/18 0:25 46.1 46.3 46.1 64 34.6 0 -- 0 0 -- 46.1 45.4 45.4 30.21 0 0 0 0.066 0
5/20/18 0:30 45.8 46.1 45.8 64 34.3 0 -- 0 0 -- 45.8 45.1 45.1 30.212 0 0 0 0.067 0
5/20/18 0:35 45.6 45.8 45.6 65 34.5 0 -- 0 0 -- 45.6 44.9 44.9 30.211 0 0 0 0.067 0
5/20/18 0:40 45.7 45.7 45.5 65 34.6 0 -- 0 0 -- 45.7 45 45 30.211 0 0 0 0.067 0
5/20/18 0:45 45.5 45.7 45.5 66 34.8 0 -- 0 0 -- 45.5 44.8 44.8 30.213 0 0 0 0.068 0
5/20/18 0:50 45.6 45.6 45.4 66 34.9 0 -- 0 0 -- 45.6 44.9 44.9 30.212 0 0 0 0.067 0
5/20/18 0:55 45.7 45.7 45.5 66 35 0 -- 0 0 -- 45.7 45 45 30.213 0 0 0 0.067 0
5/20/18 1:00 45.5 45.6 45.4 66 34.8 0 -- 0 0 -- 45.5 44.8 44.8 30.215 0 0 0 0.068 0
5/20/18 1:05 45.4 45.5 45.4 66 34.7 0 -- 0 0 -- 45.4 44.7 44.7 30.212 0 0 0 0.068 0
5/20/18 1:10 45.1 45.4 45.1 66 34.4 0 -- 0 0 -- 45.1 44.4 44.4 30.212 0 0 0 0.069 0
5/20/18 1:15 44.9 45.2 44.9 67 34.6 0 -- 0 0 -- 44.9 44.3 44.3 30.21 0 0 0 0.07 0
5/20/18 1:20 45.1 45.1 44.9 66 34.4 0 -- 0 0 -- 45.1 44.4 44.4 30.212 0 0 0 0.069 0
5/20/18 1:25 44.9 45.1 44.9 68 35 0 -- 0 0 -- 44.9 44.3 44.3 30.209 0 0 0 0.07 0
5/20/18 1:30 44.6 44.9 44.6 68 34.7 0 -- 0 0 -- 44.6 44 44 30.21 0 0 0 0.071 0
5/20/18 1:35 44.6 44.7 44.5 68 34.7 0 -- 0 0 -- 44.6 44 44 30.209 0 0 0 0.071 0
5/20/18 1:40 44.6 44.7 44.5 68 34.7 0 -- 0 0 -- 44.6 44 44 30.212 0 0 0 0.071 0
5/20/18 1:45 44.8 44.8 44.6 68 34.9 0 -- 0 0 -- 44.8 44.2 44.2 30.213 0 0 0 0.07 0
5/20/18 1:50 44.4 44.8 44.4 69 34.9 0 -- 0 0 -- 44.4 43.9 43.9 30.213 0 0 0 0.072 0
5/20/18 1:55 44.2 44.5 44.2 69 34.7 0 -- 0 0 -- 44.2 43.7 43.7 30.214 0 0 0 0.072 0
5/20/18 2:00 44 44.2 44 70 34.8 0 -- 0 0 -- 44 43.5 43.5 30.213 0 0 0 0.073 0
5/20/18 2:05 43.8 44 43.8 71 35 0 -- 0 0 -- 43.8 43.3 43.3 30.214 0 0 0 0.074 0
5/20/18 2:10 44.2 44.2 43.8 71 35.4 0 -- 0 2 NE 44.2 43.7 43.7 30.218 0 0 0 0.072 0
5/20/18 2:15 44.2 44.3 44.2 70 35 0 -- 0 2 E 44.2 43.7 43.7 30.219 0 0 0 0.072 0
5/20/18 2:20 43.8 44.2 43.7 72 35.4 0 -- 0 1 E 43.8 43.3 43.3 30.219 0 0 0 0.074 0
5/20/18 2:25 43.4 43.7 43.4 73 35.3 0 -- 0 0 -- 43.4 42.9 42.9 30.223 0 0 0 0.075 0
5/20/18 2:30 43.1 43.5 43.1 73 35 0 -- 0 0 -- 43.1 42.6 42.6 30.222 0 0 0 0.076 0
5/20/18 2:35 42.8 43.1 42.8 73 34.7 0 -- 0 0 -- 42.8 42.3 42.3 30.221 0 0 0 0.077 0
5/20/18 2:40 42.7 42.8 42.6 73 34.6 0 -- 0 0 -- 42.7 42.2 42.2 30.217 0 0 0 0.077 0
5/20/18 2:45 42.6 42.6 42.5 73 34.5 0 -- 0 0 -- 42.6 42.1 42.1 30.221 0 0 0 0.078 0
5/20/18 2:50 42.7 42.8 42.6 74 35 0 -- 0 0 -- 42.7 42.3 42.3 30.222 0 0 0 0.077 0
5/20/18 2:55 42.4 42.6 42.4 75 35 0 -- 0 0 -- 42.4 42 42 30.224 0 0 0 0.078 0
5/20/18 3:00 42.1 42.4 42.1 74 34.4 0 -- 0 0 -- 42.1 41.7 41.7 30.223 0 0 0 0.08 0
5/20/18 3:05 41.7 42.1 41.7 75 34.4 0 -- 0 0 -- 41.7 41.3 41.3 30.223 0 0 0 0.081 0
5/20/18 3:10 41.9 41.9 41.6 75 34.6 0 -- 0 1 E 41.9 41.5 41.5 30.222 0 0 0 0.08 0
5/20/18 3:15 41.9 42 41.9 74 34.2 0 -- 0 1 E 41.9 41.5 41.5 30.22 0 0 0 0.08 0
5/20/18 3:20 41.7 42 41.7 74 34 0 -- 0 0 -- 41.7 41.3 41.3 30.216 0 0 0 0.081 0
5/20/18 3:25 41.5 41.7 41.4 75 34.2 0 -- 0 0 -- 41.5 41.1 41.1 30.219 0 0 0 0.082 0
5/20/18 3:30 41.5 41.5 41.4 75 34.2 0 -- 0 1 E 41.5 41.1 41.1 30.218 0 0 0 0.082 0
5/20/18 3:35 41.7 41.7 41.5 74 34 0 -- 0 1 E 41.7 41.3 41.3 30.219 0 0 0 0.081 0
5/20/18 3:40 41.6 41.7 41.6 74 33.9 0 -- 0 1 E 41.6 41.2 41.2 30.22 0 0 0 0.081 0
5/20/18 3:45 41.5 41.6 41.4 74 33.8 0 -- 0 0 -- 41.5 41.1 41.1 30.221 0 0 0 0.082 0
5/20/18 3:50 41.5 41.5 41.4 74 33.8 0 -- 0 0 -- 41.5 41.1 41.1 30.223 0 0 0 0.082 0
5/20/18 3:55 41.2 41.5 41.2 75 33.9 0 -- 0 0 -- 41.2 40.8 40.8 30.223 0 0 0 0.083 0
5/20/18 4:00 40.9 41.2 40.8 75 33.6 0 -- 0 0 -- 40.9 40.5 40.5 30.222 0 0 0 0.084 0
5/20/18 4:05 40.5 40.8 40.5 76 33.5 0 -- 0 0 -- 40.5 40.1 40.1 30.223 0 0 0 0.085 0
5/20/18 4:10 40.1 40.5 40 77 33.5 0 -- 0 0 -- 40.1 39.7 39.7 30.225 0 0 0 0.086 0
5/20/18 4:15 40.1 40.1 39.9 77 33.5 0 -- 0 0 -- 40.1 39.7 39.7 30.226 0 0 0 0.086 0
5/20/18 4:20 40.1 40.2 40.1 77 33.5 0 -- 0 0 -- 40.1 39.7 39.7 30.228 0 0 0 0.086 0
5/20/18 4:25 40.2 40.3 40.1 77 33.6 0 -- 0 0 -- 40.2 39.8 39.8 30.232 0 0 0 0.086 0
5/20/18 4:30 40.2 40.2 40.1 77 33.6 0 -- 0 0 -- 40.2 39.8 39.8 30.23 0 0 0 0.086 0
5/20/18 4:35 40.2 40.3 40.1 76 33.2 0 -- 0 0 -- 40.2 39.8 39.8 30.232 0 0 0 0.086 0
5/20/18 4:40 40 40.2 40 76 33 0 -- 0 0 -- 40 39.5 39.5 30.231 0 0 0 0.087 0
5/20/18 4:45 39.8 40 39.7 76 32.8 0 -- 0 0 -- 39.8 39.4 39.4 30.23 0 0 0 0.088 0
5/20/18 4:50 39.7 39.7 39.6 77 33.1 0 -- 0 0 -- 39.7 39.3 39.3 30.232 0 0 0 0.088 0
5/20/18 4:55 39.7 39.9 39.7 77 33.1 0 -- 0 0 -- 39.7 39.3 39.3 30.236 0 0 0 0.088 0
5/20/18 5:00 39.3 39.7 39.3 78 33 0 -- 0 0 -- 39.3 38.9 38.9 30.236 0 0 0 0.089 0
5/20/18 5:05 39.3 39.3 39.2 78 33 0 -- 0 0 -- 39.3 38.9 38.9 30.235 0 0 0 0.089 0
5/20/18 5:10 39.4 39.5 39.3 77 32.8 0 -- 0 0 -- 39.4 39 39 30.234 0 0 0 0.089 0
5/20/18 5:15 39.5 39.5 39.3 77 32.9 0 -- 0 0 -- 39.5 39.1 39.1 30.235 0 0 0 0.089 0
5/20/18 5:20 39.5 39.7 39.5 77 32.9 0 -- 0 0 -- 39.5 39.1 39.1 30.235 0 0 0 0.089 0
5/20/18 5:25 38.9 39.4 38.9 79 32.9 0 -- 0 0 -- 38.9 38.6 38.6 30.235 0 0 0 0.091 0
5/20/18 5:30 38.8 38.9 38.7 79 32.8 0 -- 0 0 -- 38.8 38.5 38.5 30.236 0 0 0 0.091 0
5/20/18 5:35 38.4 38.8 38.4 79 32.5 0 -- 0 0 -- 38.4 38.1 38.1 30.235 0 0 0 0.092 0
5/20/18 5:40 38.2 38.4 38.2 79 32.3 0 -- 0 0 -- 38.2 37.9 37.9 30.24 0 0 0 0.093 0
5/20/18 5:45 38.1 38.2 38 80 32.5 0 -- 0 0 -- 38.1 37.8 37.8 30.239 0 0 0 0.093 0
5/20/18 5:50 38.2 38.2 38 80 32.6 0 -- 0 0 -- 38.2 37.9 37.9 30.241 0 0 0 0.093 0
5/20/18 5:55 38.4 38.4 38.2 79 32.5 0 -- 0 0 -- 38.4 38.1 38.1 30.242 0 0 0 0.092 0
5/20/18 6:00 38 38.4 38 80 32.4 0 -- 0 0 -- 38 37.7 37.7 30.242 0 0 0 0.094 0
5/20/18 6:05 38.1 38.1 38 80 32.5 0 -- 0 0 -- 38.1 37.8 37.8 30.241 0 0 0 0.093 0
5/20/18 6:10 38.1 38.2 38.1 81 32.8 0 -- 0 0 -- 38.1 37.8 37.8 30.241 0 0 0 0.093 0
5/20/18 6:15 38.2 38.2 38 82 33.2 0 -- 0 0 -- 38.2 37.9 37.9 30.243 0 0 0 0.093 0
5/20/18 6:20 38.3 38.3 38.1 82 33.3 0 -- 0 0 -- 38.3 38 38 30.246 0 0 0 0.093 0
5/20/18 6:25 38.6 38.6 38.3 82 33.6 0 -- 0 0 -- 38.6 38.3 38.3 30.249 0 0 0 0.092 0
5/20/18 6:30 38.6 38.7 38.5 82 33.6 0 -- 0 0 -- 38.6 38.3 38.3 30.249 0 0 0 0.092 0
5/20/18 6:35 38.8 38.8 38.6 82 33.8 0 -- 0 0 -- 38.8 38.5 38.5 30.25 0 0 0 0.091 0
5/20/18 6:40 39 39.1 38.7 82 34 0 -- 0 0 -- 39 38.7 38.7 30.252 0 0 0 0.09 0
5/20/18 6:45 39.5 39.5 39 81 34.2 0 -- 0 0 -- 39.5 39.2 39.2 30.254 0 0 0 0.089 0
5/20/18 6:50 40.3 40.3 39.5 81 34.9 0 -- 0 0 -- 40.3 40 40 30.257 0 0 0 0.086 0
5/20/18 6:55 41 41 40.3 80 35.3 0 -- 0 0 -- 41 40.7 40.7 30.259 0 0 0 0.083 0
5/20/18 7:00 42 42 41.1 78 35.6 0 -- 0 0 -- 42 41.7 41.7 30.255 0 0 0 0.08 0
5/20/18 7:05 43.1 43.1 42.1 77 36.4 0 -- 0 0 -- 43.1 42.7 42.7 30.26 0 0 0 0.076 0
5/20/18 7:10 44.1 44.1 43.1 76 37 0 -- 0 0 -- 44.1 43.7 43.7 30.261 0 0 0 0.073 0
5/20/18 7:15 44.8 44.8 44.1 75 37.4 0 -- 0 0 -- 44.8 44.4 44.4 30.263 0 0 0 0.07 0
5/20/18 7:20 45.8 45.8 44.8 74 38 0 -- 0 0 -- 45.8 45.4 45.4 30.265 0 0 0 0.067 0
5/20/18 7:25 46.5 46.5 45.8 72 38 0 -- 0 0 -- 46.5 46.1 46.1 30.267 0 0 0 0.064 0
5/20/18 7:30 47.3 47.3 46.4 72 38.7 0 -- 0 0 -- 47.3 46.9 46.9 30.268 0 0 0 0.061 0
5/20/18 7:35 47.9 47.9 47.4 72 39.3 0 -- 0 0 -- 47.9 47.5 47.5 30.27 0 0 0 0.059 0
5/20/18 7:40 48 48 47.8 73 39.8 0 -- 0 0 -- 48 47.6 47.6 30.272 0 0 0 0.059 0
5/20/18 7:45 49.1 49.1 48.1 71 40.1 0 -- 0 0 -- 49.1 48.7 48.7 30.274 0 0 0 0.055 0
5/20/18 7:50 49.7 49.7 49.1 70 40.3 0 -- 0 1 E 49.7 49.3 49.3 30.272 0 0 0 0.053 0
5/20/18 7:55 50.3 50.3 49.7 66 39.4 1 ENE 0.08 2 ENE 50.3 49.7 49.7 30.272 0 0 0 0.051 0
5/20/18 8:00 50.7 50.8 50.3 65 39.4 0 -- 0 2 ENE 50.7 50 50 30.273 0 0 0 0.05 0
5/20/18 8:05 51 51 50.7 65 39.6 0 -- 0 1 ENE 51 50.3 50.3 30.275 0 0 0 0.049 0
5/20/18 8:10 51.7 51.7 51 66 40.7 0 -- 0 1 ENE 51.7 51 51 30.272 0 0 0 0.046 0
5/20/18 8:15 52.4 52.4 51.7 62 39.8 1 E 0.08 2 ENE 52.4 51.4 51.4 30.272 0 0 0 0.044 0
5/20/18 8:20 52.9 53 52.4 59 39 1 E 0.08 3 E 52.9 51.7 51.7 30.272 0 0 0 0.042 0
5/20/18 8:25 53.6 53.6 52.9 56 38.3 2 SSE 0.17 6 SSE 53.6 52.2 52.2 30.273 0 0 0 0.04 0
5/20/18 8:30 54.1 54.1 53.5 56 38.7 2 SSE 0.17 6 SSE 54.1 52.6 52.6 30.27 0 0 0 0.038 0
5/20/18 8:35 54.8 54.8 54.1 55 38.9 2 SE 0.17 4 SE 54.8 53.2 53.2 30.271 0 0 0 0.035 0
5/20/18 8:40 55.3 55.3 54.8 51 37.5 3 SSE 0.25 6 SSE 55.3 53.5 53.5 30.273 0 0 0 0.034 0
5/20/18 8:45 55.6 55.6 55.3 52 38.2 4 SSE 0.33 6 SSE 55.3 53.8 53.6 30.277 0 0 0 0.033 0
5/20/18 8:50 55.9 55.9 55.5 50 37.5 3 SSE 0.25 5 SSE 55.9 54 54 30.276 0 0 0 0.032 0
5/20/18 8:55 56.3 56.3 55.9 49 37.4 3 SSE 0.25 6 SSE 56.3 54.3 54.3 30.277 0 0 0 0.03 0
5/20/18 9:00 56.9 56.9 56.3 50 38.4 4 SSE 0.33 8 SSE 56.9 54.9 54.9 30.277 0 0 0 0.028 0
5/20/18 9:05 57.1 57.1 56.9 48 37.6 3 SE 0.25 7 SSE 57.1 55 55 30.279 0 0 0 0.027 0
5/20/18 9:10 57.6 57.6 57.1 49 38.6 4 SSE 0.33 7 SSE 57.6 55.5 55.5 30.283 0 0 0 0.026 0
5/20/18 9:15 57.6 57.7 57.3 49 38.6 2 SSE 0.17 5 SSE 57.6 55.5 55.5 30.283 0 0 0 0.026 0
5/20/18 9:20 58.2 58.2 57.7 47 38.1 3 SE 0.25 6 SSW 58.2 56 56 30.284 0 0 0 0.024 0
5/20/18 9:25 58.2 58.4 58.2 46 37.5 3 S 0.25 6 SSE 58.2 56 56 30.283 0 0 0 0.024 0
5/20/18 9:30 58.3 58.3 58.1 47 38.1 1 S 0.08 5 SE 58.3 56.1 56.1 30.285 0 0 0 0.023 0
5/20/18 9:35 58.7 58.7 58.3 45 37.4 2 S 0.17 6 SSE 58.7 56.4 56.4 30.285 0 0 0 0.022 0
5/20/18 9:40 59.5 59.5 58.6 45 38.1 2 S 0.17 7 SSW 59.5 57.2 57.2 30.284 0 0 0 0.019 0
5/20/18 9:45 59.9 59.9 59.4 43 37.3 3 S 0.25 6 S 59.9 57.4 57.4 30.281 0 0 0 0.018 0
5/20/18 9:50 60 60.4 59.9 42 36.8 2 SSE 0.17 7 S 60 57.5 57.5 30.279 0 0 0 0.017 0
5/20/18 9:55 61 61 59.9 44 38.9 3 SSE 0.25 9 SSE 61 58.6 58.6 30.277 0 0 0 0.014 0
5/20/18 10:00 60.4 61.1 60.3 42 37.2 2 S 0.17 9 SSE 60.4 57.9 57.9 30.278 0 0 0 0.016 0
5/20/18 10:05 60.2 60.4 60.2 40 35.8 2 S 0.17 5 SSW 60.2 57.5 57.5 30.278 0 0 0 0.017 0
5/20/18 10:10 61.5 61.5 60.3 39 36.3 3 SSE 0.25 8 SSE 61.5 58.7 58.7 30.276 0 0 0 0.012 0
5/20/18 10:15 62.3 62.5 61.6 37 35.7 3 SSE 0.25 7 SE 62.3 59.4 59.4 30.272 0 0 0 0.009 0
5/20/18 10:20 61.8 62.3 61.6 42 38.4 2 W 0.17 6 W 61.8 59.3 59.3 30.273 0 0 0 0.011 0
5/20/18 10:25 61.9 61.9 61.6 40 37.3 2 S 0.17 5 SE 61.9 59.2 59.2 30.27 0 0 0 0.011 0
5/20/18 10:30 62.4 62.4 61.9 39 37.1 2 WNW 0.17 5 SSE 62.4 59.6 59.6 30.27 0 0 0 0.009 0
5/20/18 10:35 63.8 63.8 62.5 37 37 3 SSE 0.25 8 SSE 63.8 60.9 60.9 30.272 0 0 0 0.004 0
5/20/18 10:40 62.7 63.8 62.6 36 35.3 2 SSE 0.17 5 S 62.7 59.7 59.7 30.27 0 0 0 0.008 0
5/20/18 10:45 63 63 62.7 39 37.6 1 SSE 0.08 6 SSE 63 60.2 60.2 30.272 0 0 0 0.007 0
5/20/18 10:50 62.9 63.3 62.8 38 36.9 2 S 0.17 7 SSE 62.9 60 60 30.271 0 0 0 0.007 0
5/20/18 10:55 62.8 63 62.7 37 36.1 1 SSE 0.08 3 SSE 62.8 59.9 59.9 30.274 0 0 0 0.008 0
5/20/18 11:00 64.1 64.5 62.8 33 34.4 4 SSE 0.33 8 SSE 64.1 60.8 60.8 30.275 0 0 0 0.003 0
5/20/18 11:05 63.6 64.1 63.5 35 35.4 3 WNW 0.25 7 W 63.6 60.5 60.5 30.274 0 0 0 0.005 0
5/20/18 11:10 63.5 63.6 63.5 35 35.3 1 NW 0.08 5 SSE 63.5 60.4 60.4 30.273 0 0 0 0.005 0
5/20/18 11:15 64.5 64.5 63.6 37 37.6 4 SSE 0.33 8 SSE 64.5 61.7 61.7 30.275 0 0 0 0.002 0
5/20/18 11:20 64.5 64.6 64.2 35 36.2 2 SE 0.17 7 SE 64.5 61.5 61.5 30.276 0 0 0 0.002 0
5/20/18 11:25 64 64.7 64 34 35 2 S 0.17 5 SSE 64 60.8 60.8 30.274 0 0 0 0.003 0
5/20/18 11:30 64 64 63.7 35 35.8 1 NNW 0.08 3 N 64 60.9 60.9 30.272 0 0 0 0.003 0
5/20/18 11:35 64.7 64.8 64 35 36.4 2 NNE 0.17 3 NNE 64.7 61.7 61.7 30.268 0 0 0 0.001 0
5/20/18 11:40 66.1 66.2 64.7 33 36.1 3 SSE 0.25 7 ESE 66.1 62.9 62.9 30.266 0 0 0 0 0.004
5/20/18 11:45 66.2 66.3 65.9 32 35.4 3 E 0.25 7 S 66.2 63 63 30.266 0 0 0 0 0.004
5/20/18 11:50 66.1 66.6 66.1 32 35.4 3 ESE 0.25 7 SE 66.1 62.9 62.9 30.266 0 0 0 0 0.004
5/20/18 11:55 65.5 66.3 65.4 33 35.6 3 NE 0.25 6 NE 65.5 62.3 62.3 30.263 0 0 0 0 0.002
5/20/18 12:00 66.2 66.2 65.5 34 37 2 SSE 0.17 4 ESE 66.2 63.1 63.1 30.263 0 0 0 0 0.004
5/20/18 12:05 65.7 66.3 65.7 33 35.8 2 W 0.17 6 W 65.7 62.5 62.5 30.261 0 0 0 0 0.002
5/20/18 12:10 66.2 66.2 65.6 38 39.8 2 NNW 0.17 4 NNW 66.2 63.5 63.5 30.256 0 0 0 0 0.004
5/20/18 12:15 66.8 66.9 66.3 33 36.8 2 W 0.17 7 WNW 66.8 63.7 63.7 30.254 0 0 0 0 0.006
5/20/18 12:20 66.9 66.9 66.7 33 36.8 2 ESE 0.17 5 WSW 66.9 63.8 63.8 30.255 0 0 0 0 0.007
5/20/18 12:25 66.2 67 66.2 31 34.7 2 W 0.17 4 WNW 66.2 62.9 62.9 30.251 0 0 0 0 0.004
5/20/18 12:30 67.1 67.2 66.2 32 36.2 2 E 0.17 7 SE 67.1 63.9 63.9 30.25 0 0 0 0 0.007
5/20/18 12:35 66.7 67.2 66.6 37 39.6 2 WNW 0.17 5 SSE 66.7 64 64 30.247 0 0 0 0 0.006
5/20/18 12:40 67.3 67.3 66.7 36 39.4 2 ENE 0.17 4 SE 67.3 64.5 64.5 30.247 0 0 0 0 0.008
5/20/18 12:45 67.6 67.6 67.2 34 38.2 4 NW 0.33 8 WNW 67.6 64.6 64.6 30.245 0 0 0 0 0.009
5/20/18 13:35 68.5 68.6 68.3 34 39 3 NE 0.25 5 NNE 68.5 65.5 65.5 30.236 0 0 0 0 0.012
5/20/18 13:40 69.6 69.6 68.4 35 40.7 3 NNE 0.25 6 SSW 69.6 66.6 66.6 30.233 0 0 0 0 0.016
5/20/18 13:45 69.2 69.7 69 32 38.1 2 SSE 0.17 6 SSE 69.2 65.8 65.8 30.227 0 0 0 0 0.015
5/20/18 13:50 69.1 69.5 69 32 38 2 SSE 0.17 4 SE 69.1 65.7 65.7 30.226 0 0 0 0 0.014
5/20/18 13:55 69.5 70 69.1 27 34 2 ENE 0.17 6 E 69.5 65.6 65.6 30.223 0 0 0 0 0.016
5/20/18 14:00 69.7 69.7 68.8 29 36 3 NE 0.25 8 NNE 69.7 66 66 30.22 0 0 0 0 0.016
5/20/18 14:05 68.7 69.7 68.7 26 32.4 1 E 0.08 4 NNE 68.7 64.7 64.7 30.218 0 0 0 0 0.013
5/20/18 14:10 69.8 69.8 68.6 29 36.1 2 NW 0.17 4 WNW 69.8 66.1 66.1 30.216 0 0 0 0 0.017
5/20/18 14:15 70.5 70.7 69.9 34 40.8 4 ESE 0.33 8 SE 70.5 67.6 67.6 30.219 0 0 0 0 0.019
5/20/18 14:20 69.6 70.4 69.5 27 34.1 3 SSE 0.25 9 SSE 69.6 65.7 65.7 30.217 0 0 0 0 0.016
5/20/18 14:25 69.9 69.9 69.6 35 41 2 NNW 0.17 6 NE 69.9 66.9 66.9 30.213 0 0 0 0 0.017
5/20/18 14:30 70.3 70.3 70 27 34.7 4 NE 0.33 7 ENE 70.3 66.6 66.6 30.211 0 0 0 0 0.018
5/20/18 14:35 69.9 70.4 69.9 26 33.4 2 NW 0.17 5 E 69.9 65.9 65.9 30.209 0 0 0 0 0.017
5/20/18 14:40 69.6 69.8 69.4 28 35 2 W 0.17 4 W 69.6 65.8 65.8 30.207 0 0 0 0 0.016
5/20/18 14:45 71.2 71.2 69.7 31 39 2 NNW 0.17 6 N 71.2 68.3 68.3 30.206 0 0 0 0 0.022
5/20/18 14:50 70.6 71.3 70.6 27 35 2 NW 0.17 4 NNW 70.6 67 67 30.207 0 0 0 0 0.019
5/20/18 14:55 71 71 70.2 31 38.8 2 E 0.17 6 E 71 68 68 30.201 0 0 0 0 0.021
5/20/18 15:00 71.4 71.4 70.7 34 41.6 2 ESE 0.17 5 ESE 71.4 68.9 68.9 30.198 0 0 0 0 0.022
5/20/18 15:05 72 72.1 71.4 27 36.2 4 ENE 0.33 6 N 72 69 69 30.199 0 0 0 0 0.024
5/20/18 15:10 70.7 72 70.7 27 35.1 2 ESE 0.17 6 NW 70.7 67.1 67.1 30.2 0 0 0 0 0.02
5/20/18 15:15 71.4 71.4 70.6 35 42.3 2 W 0.17 4 NNW 71.4 69 69 30.195 0 0 0 0 0.022
5/20/18 15:20 71.6 71.8 71.4 28 36.8 3 NE 0.25 6 NNE 71.6 68.5 68.5 30.195 0 0 0 0 0.023
5/20/18 15:25 71.6 71.8 71.4 29 37.6 3 ENE 0.25 7 ESE 71.6 68.6 68.6 30.188 0 0 0 0 0.023
5/20/18 15:30 71.8 72 71.5 30 38.7 4 NE 0.33 9 NNE 71.8 69 69 30.188 0 0 0 0 0.024
5/20/18 15:35 71.2 72.3 71.2 28 36.4 4 SE 0.33 9 SSE 71.2 68 68 30.183 0 0 0 0 0.022
5/20/18 15:40 71.3 71.3 70.9 29 37.4 3 S 0.25 7 SSE 71.3 68.2 68.2 30.181 0 0 0 0 0.022
5/20/18 15:45 72.1 72.1 71.3 29 38.1 3 NE 0.25 7 NNE 72.1 69.3 69.3 30.177 0 0 0 0 0.025
5/20/18 15:50 71.7 72.4 71.7 33 41 3 N 0.25 7 NNE 71.7 69.2 69.2 30.173 0 0 0 0 0.023
5/20/18 15:55 71.9 72.1 71.5 25 34.1 3 E 0.25 8 NNE 71.9 68.7 68.7 30.171 0 0 0 0 0.024
5/20/18 16:00 71.7 72.1 71.7 25 34 3 SE 0.25 7 SE 71.7 68.4 68.4 30.17 0 0 0 0 0.023
5/20/18 16:05 70.8 71.7 70.8 28 36.1 1 W 0.08 3 W 70.8 67.4 67.4 30.168 0 0 0 0 0.02
5/20/18 16:10 71.8 72.2 70.8 26 35 3 NE 0.25 6 NE 71.8 68.6 68.6 30.166 0 0 0 0 0.024
5/20/18 16:15 71.3 71.8 71.3 27 35.6 3 SSE 0.25 7 N 71.3 68 68 30.16 0 0 0 0 0.022
5/20/18 16:20 72.6 72.6 71.3 28 37.6 3 SE 0.25 6 E 72.6 70 70 30.157 0 0 0 0 0.026
5/20/18 16:25 71.6 72.6 71.6 24 32.9 3 SE 0.25 6 ESE 71.6 68.2 68.2 30.152 0 0 0 0 0.023
5/20/18 16:30 72.1 72.1 71.5 25 34.3 1 SE 0.08 3 SE 72.1 68.9 68.9 30.152 0 0 0 0 0.025
5/20/18 16:35 72.1 72.4 71.9 27 36.3 2 ENE 0.17 4 ENE 72.1 69.1 69.1 30.149 0 0 0 0 0.025
5/20/18 16:40 72.8 72.8 72.1 26 35.9 3 E 0.25 7 E 72.8 70.1 70.1 30.147 0 0 0 0 0.027
5/20/18 16:45 72.1 73.1 72.1 29 38.1 2 WNW 0.17 4 NNE 72.1 69.3 69.3 30.146 0 0 0 0 0.025
5/20/18 16:50 72.1 72.2 72.1 28 37.2 2 S 0.17 4 SW 72.1 69.2 69.2 30.143 0 0 0 0 0.025
5/20/18 16:55 72.7 72.7 72.1 31 40.3 2 NW 0.17 4 WSW 72.7 70.4 70.4 30.14 0 0 0 0 0.027
5/20/18 17:00 72.8 72.8 72.6 30 39.5 3 N 0.25 7 NNE 72.8 70.5 70.5 30.142 0 0 0 0 0.027
5/20/18 17:05 72.9 73 72.7 27 36.9 3 NE 0.25 7 ENE 72.9 70.4 70.4 30.141 0 0 0 0 0.027
5/20/18 17:10 72.1 72.8 72.1 26 35.3 2 NE 0.17 6 E 72.1 69 69 30.143 0 0 0 0 0.025
5/20/18 17:15 71.9 72.1 71.7 28 37 2 NE 0.17 7 NE 71.9 69 69 30.139 0 0 0 0 0.024
5/20/18 17:20 72.9 72.9 71.9 27 36.9 2 ENE 0.17 8 NNE 72.9 70.4 70.4 30.138 0 0 0 0 0.027
5/20/18 17:25 72.9 72.9 72.5 30 39.6 3 ENE 0.25 6 NE 72.9 70.7 70.7 30.137 0 0 0 0 0.027
5/20/18 17:30 71.9 72.9 71.9 27 36.1 2 E 0.17 5 ENE 71.9 68.9 68.9 30.138 0 0 0 0 0.024
5/20/18 17:35 72.5 72.5 71.8 28 37.5 2 NE 0.17 4 ESE 72.5 69.8 69.8 30.135 0 0 0 0 0.026
5/20/18 17:40 72.9 73 72.5 27 36.9 3 NE 0.25 7 NE 72.9 70.4 70.4 30.135 0 0 0 0 0.027
5/20/18 17:45 72.4 73 72.4 27 36.5 3 NE 0.25 6 NE 72.4 69.6 69.6 30.133 0 0 0 0 0.026
5/20/18 17:50 72.1 72.4 72.1 27 36.3 3 NE 0.25 5 NE 72.1 69.1 69.1 30.134 0 0 0 0 0.025
5/20/18 17:55 71.7 72.1 71.6 27 35.9 3 NW 0.25 5 N 71.7 68.6 68.6 30.133 0 0 0 0 0.023
5/20/18 18:00 71.8 71.8 71.6 27 36 2 WSW 0.17 4 WNW 71.8 68.7 68.7 30.131 0 0 0 0 0.024
5/20/18 18:05 71.8 71.9 71.7 26 35 1 NNE 0.08 3 NNW 71.8 68.6 68.6 30.13 0 0 0 0 0.024
5/20/18 18:10 71.7 71.8 71.6 27 35.9 2 N 0.17 5 N 71.7 68.6 68.6 30.129 0 0 0 0 0.023
5/20/18 18:15 71.9 72 71.7 27 36.1 1 E 0.08 3 E 71.9 68.9 68.9 30.126 0 0 0 0 0.024
5/20/18 18:20 72 72 71.9 26 35.2 3 NE 0.25 6 NE 72 68.9 68.9 30.122 0 0 0 0 0.024
5/20/18 18:25 72.3 72.3 72 30 39.1 3 ENE 0.25 9 NE 72.3 69.8 69.8 30.122 0 0 0 0 0.025
5/20/18 18:30 72.3 72.4 72.3 27 36.4 4 NE 0.33 7 NE 72.3 69.5 69.5 30.122 0 0 0 0 0.025
5/20/18 18:35 72.2 72.4 72.1 29 38.2 3 NE 0.25 8 NNE 72.2 69.5 69.5 30.122 0 0 0 0 0.025
5/20/18 18:40 72.1 72.2 72.1 27 36.3 3 ENE 0.25 5 NE 72.1 69.1 69.1 30.121 0 0 0 0 0.025
5/20/18 18:45 71.8 72.1 71.7 27 36 2 SE 0.17 4 ENE 71.8 68.7 68.7 30.12 0 0 0 0 0.024
5/20/18 18:50 71.6 71.7 71.6 26 34.9 3 NE 0.25 5 NE 71.6 68.3 68.3 30.117 0 0 0 0 0.023
5/20/18 18:55 71.5 71.5 71.4 27 35.7 2 NE 0.17 4 NNE 71.5 68.3 68.3 30.119 0 0 0 0 0.023
5/20/18 19:00 71.2 71.6 71.2 27 35.5 2 NE 0.17 8 NNW 71.2 67.9 67.9 30.117 0 0 0 0 0.022
5/20/18 19:05 71 71.2 70.8 27 35.3 1 NE 0.08 4 NE 71 67.6 67.6 30.117 0 0 0 0 0.021
5/20/18 19:10 71.1 71.1 71 29 37.2 3 E 0.25 12 NE 71.1 67.9 67.9 30.113 0 0 0 0 0.021
5/20/18 19:15 71.2 71.3 71.1 27 35.5 3 NE 0.25 8 NNE 71.2 67.9 67.9 30.11 0 0 0 0 0.022
5/20/18 19:20 71.1 71.3 71 26 34.5 3 NE 0.25 5 NE 71.1 67.6 67.6 30.11 0 0 0 0 0.021
5/20/18 19:25 70.8 71.1 70.8 27 35.1 1 NE 0.08 3 ENE 70.8 67.3 67.3 30.11 0 0 0 0 0.02
5/20/18 19:30 70.7 70.9 70.7 28 36 2 SE 0.17 5 NE 70.7 67.2 67.2 30.107 0 0 0 0 0.02
5/20/18 19:35 70.7 70.8 70.7 24 32.1 2 SE 0.17 4 SE 70.7 66.9 66.9 30.107 0 0 0 0 0.02
5/20/18 19:40 70.6 70.7 70.5 24 32 1 ESE 0.08 3 ESE 70.6 66.7 66.7 30.106 0 0 0 0 0.019
5/20/18 19:45 70.5 70.6 70.5 27 34.9 1 ESE 0.08 2 SE 70.5 66.8 66.8 30.107 0 0 0 0 0.019
5/20/18 19:50 70.1 70.5 70.1 26 33.6 1 ENE 0.08 3 ENE 70.1 66.1 66.1 30.104 0 0 0 0 0.018
5/20/18 19:55 70 70.1 70 26 33.5 1 E 0.08 3 E 70 66 66 30.102 0 0 0 0 0.017
5/20/18 20:00 69.7 70 69.7 26 33.3 0 -- 0 2 ENE 69.7 65.7 65.7 30.103 0 0 0 0 0.016
5/20/18 20:05 68.8 69.6 68.8 29 35.2 0 -- 0 2 ENE 68.8 65.1 65.1 30.1 0 0 0 0 0.013
5/20/18 20:10 68.6 68.8 68.6 30 35.9 0 -- 0 1 E 68.6 65.1 65.1 30.101 0 0 0 0 0.012
5/20/18 20:15 68 68.6 68 31 36.2 1 E 0.08 3 NE 68 64.7 64.7 30.1 0 0 0 0 0.01
5/20/18 20:20 67.7 68 67.7 32 36.8 0 -- 0 3 NE 67.7 64.5 64.5 30.098 0 0 0 0 0.009
5/20/18 20:25 67.3 67.7 67.2 33 37.2 0 -- 0 2 ENE 67.3 64.2 64.2 30.098 0 0 0 0 0.008
5/20/18 20:30 66.9 67.4 66.8 34 37.6 0 -- 0 1 ENE 66.9 63.9 63.9 30.098 0 0 0 0 0.007
5/20/18 20:35 66.7 66.9 66.7 35 38.2 0 -- 0 1 ENE 66.7 63.8 63.8 30.099 0 0 0 0 0.006
5/20/18 20:40 66 66.7 66 36 38.3 0 -- 0 1 ENE 66 63.1 63.1 30.1 0 0 0 0 0.003
5/20/18 20:45 64.7 65.9 64.7 40 39.8 0 -- 0 0 -- 64.7 62.2 62.2 30.1 0 0 0 0.001 0
5/20/18 20:50 63.7 64.6 63.7 42 40.2 1 SE 0.08 3 SE 63.7 61.2 61.2 30.099 0 0 0 0.005 0
5/20/18 20:55 63.2 63.7 63.2 41 39.1 0 -- 0 0 -- 63.2 60.6 60.6 30.099 0 0 0 0.006 0
5/20/18 21:00 62.7 63.2 62.7 42 39.3 0 -- 0 0 -- 62.7 60.2 60.2 30.099 0 0 0 0.008 0
5/20/18 21:05 62.1 62.7 62.1 44 39.9 0 -- 0 0 -- 62.1 59.7 59.7 30.102 0 0 0 0.01 0
5/20/18 21:10 61.8 62.1 61.8 41 37.8 0 -- 0 1 SE 61.8 59.2 59.2 30.103 0 0 0 0.011 0
5/20/18 21:15 61.1 61.8 61 42 37.8 0 -- 0 0 -- 61.1 58.6 58.6 30.105 0 0 0 0.014 0
5/20/18 21:20 60.8 61 60.8 42 37.5 0 -- 0 0 -- 60.8 58.3 58.3 30.106 0 0 0 0.015 0
5/20/18 21:25 60.5 60.8 60.5 41 36.7 0 -- 0 0 -- 60.5 57.9 57.9 30.108 0 0 0 0.016 0
5/20/18 21:40 59.4 59.7 59.3 42 36.3 0 -- 0 0 -- 59.4 56.9 56.9 30.11 0 0 0 0.019 0
5/20/18 21:45 59.1 59.3 59.1 41 35.4 0 -- 0 0 -- 59.1 56.6 56.6 30.11 0 0 0 0.02 0
5/20/18 21:50 58.8 59.1 58.8 43 36.3 0 -- 0 2 SE 58.8 56.4 56.4 30.111 0 0 0 0.022 0
5/20/18 21:55 58.7 58.8 58.7 43 36.2 0 -- 0 1 SE 58.7 56.3 56.3 30.11 0 0 0 0.022 0
5/20/18 22:00 58.4 58.7 58.4 44 36.6 0 -- 0 0 -- 58.4 56 56 30.111 0 0 0 0.023 0
5/20/18 22:05 58.1 58.3 58 46 37.4 0 -- 0 0 -- 58.1 55.9 55.9 30.111 0 0 0 0.024 0
5/20/18 22:10 57.9 58.1 57.9 44 36.1 0 -- 0 0 -- 57.9 55.6 55.6 30.111 0 0 0 0.025 0
5/20/18 22:15 57.4 57.9 57.4 45 36.2 0 -- 0 0 -- 57.4 55.2 55.2 30.112 0 0 0 0.026 0
5/20/18 22:20 57.3 57.5 57.3 45 36.1 0 -- 0 0 -- 57.3 55.1 55.1 30.112 0 0 0 0.027 0
5/20/18 22:25 57.2 57.3 57.2 46 36.6 0 -- 0 0 -- 57.2 55 55 30.111 0 0 0 0.027 0
5/20/18 22:30 56.6 57.2 56.6 46 36 0 -- 0 0 -- 56.6 54.4 54.4 30.11 0 0 0 0.029 0
5/20/18 22:35 56.4 56.7 56.4 47 36.4 0 -- 0 0 -- 56.4 54.3 54.3 30.108 0 0 0 0.03 0
5/20/18 22:40 56.2 56.5 56.2 49 37.3 0 -- 0 0 -- 56.2 54.2 54.2 30.108 0 0 0 0.031 0
5/20/18 22:45 56 56.2 55.9 49 37.1 0 -- 0 0 -- 56 54 54 30.107 0 0 0 0.031 0
5/20/18 22:50 55.7 55.9 55.7 49 36.8 0 -- 0 0 -- 55.7 53.8 53.8 30.107 0 0 0 0.032 0
5/20/18 22:55 55.5 55.7 55.5 52 38.1 0 -- 0 0 -- 55.5 53.8 53.8 30.108 0 0 0 0.033 0
5/20/18 23:00 55.1 55.4 55 51 37.3 0 -- 0 0 -- 55.1 53.3 53.3 30.106 0 0 0 0.034 0
5/20/18 23:05 54.8 55.1 54.8 52 37.5 0 -- 0 0 -- 54.8 53.1 53.1 30.107 0 0 0 0.035 0
5/20/18 23:10 54.8 54.8 54.8 52 37.5 0 -- 0 0 -- 54.8 53.1 53.1 30.109 0 0 0 0.035 0
5/20/18 23:15 54.5 54.8 54.5 52 37.2 0 -- 0 0 -- 54.5 52.8 52.8 30.107 0 0 0 0.036 0
5/20/18 23:20 54 54.5 54 53 37.2 0 -- 0 0 -- 54 52.4 52.4 30.107 0 0 0 0.038 0
5/20/18 23:25 53.9 54 53.9 53 37.1 0 -- 0 0 -- 53.9 52.3 52.3 30.108 0 0 0 0.039 0
5/20/18 23:30 53.7 53.9 53.7 54 37.4 0 -- 0 0 -- 53.7 52.2 52.2 30.106 0 0 0 0.039 0
5/20/18 23:35 53.1 53.7 53.1 54 36.9 0 -- 0 0 -- 53.1 51.6 51.6 30.107 0 0 0 0.041 0
5/20/18 23:40 53 53.1 52.9 55 37.3 0 -- 0 0 -- 53 51.6 51.6 30.106 0 0 0 0.042 0
5/20/18 23:45 52.9 53 52.8 56 37.6 0 -- 0 0 -- 52.9 51.6 51.6 30.105 0 0 0 0.042 0
5/20/18 23:50 52.7 52.9 52.7 56 37.4 0 -- 0 0 -- 52.7 51.4 51.4 30.105 0 0 0 0.043 0
5/20/18 23:55 52.4 52.6 52.3 57 37.6 0 -- 0 0 -- 52.4 51.1 51.1 30.104 0 0 0 0.044 0
5/21/18 0:00 52.2 52.4 52.2 58 37.9 0 -- 0 0 -- 52.2 51 51 30.104 0 0 0 0.044 0
5/21/18 0:05 52 52.2 52 59 38.1 0 -- 0 0 -- 52 50.9 50.9 30.104 0 0 0 0.045 0
5/21/18 0:10 51.9 52 51.8 59 38 0 -- 0 0 -- 51.9 50.8 50.8 30.105 0 0 0 0.045 0
5/21/18 0:15 51.6 51.9 51.6 59 37.7 0 -- 0 0 -- 51.6 50.5 50.5 30.101 0 0 0 0.047 0
5/21/18 0:20 51.4 51.6 51.4 60 38 0 -- 0 0 -- 51.4 50.4 50.4 30.1 0 0 0 0.047 0
5/21/18 0:25 51.2 51.4 51.2 61 38.2 0 -- 0 0 -- 51.2 50.3 50.3 30.099 0 0 0 0.048 0
5/21/18 0:30 51 51.2 51 61 38 0 -- 0 0 -- 51 50.1 50.1 30.1 0 0 0 0.049 0
5/21/18 0:35 50.6 51 50.6 62 38.1 0 -- 0 0 -- 50.6 49.8 49.8 30.099 0 0 0 0.05 0
5/21/18 0:40 50.3 50.6 50.3 62 37.8 0 -- 0 0 -- 50.3 49.5 49.5 30.1 0 0 0 0.051 0
5/21/18 0:45 50.2 50.4 50.1 61 37.3 0 -- 0 0 -- 50.2 49.4 49.4 30.098 0 0 0 0.051 0
5/21/18 0:50 50 50.1 49.9 61 37.1 0 -- 0 0 -- 50 49.2 49.2 30.111 0 0 0 0.052 0
5/21/18 0:55 49.9 50.1 49.9 62 37.4 0 -- 0 0 -- 49.9 49.2 49.2 30.1 0 0 0 0.052 0
5/21/18 1:00 49.8 49.9 49.8 62 37.3 0 -- 0 0 -- 49.8 49.1 49.1 30.099 0 0 0 0.053 0
5/21/18 1:05 49.4 49.8 49.4 63 37.3 0 -- 0 0 -- 49.4 48.7 48.7 30.1 0 0 0 0.054 0
5/21/18 1:10 49.1 49.4 49.1 63 37 0 -- 0 0 -- 49.1 48.4 48.4 30.1 0 0 0 0.055 0
5/21/18 1:15 48.8 49.1 48.8 63 36.8 0 -- 0 0 -- 48.8 48.1 48.1 30.102 0 0 0 0.056 0
5/21/18 1:20 48.9 48.9 48.8 62 36.4 0 -- 0 0 -- 48.9 48.2 48.2 30.099 0 0 0 0.056 0
5/21/18 1:25 48.7 48.9 48.7 63 36.7 0 -- 0 0 -- 48.7 48 48 30.101 0 0 0 0.057 0
5/21/18 1:30 48.5 48.8 48.5 63 36.5 0 -- 0 0 -- 48.5 47.8 47.8 30.101 0 0 0 0.057 0
5/21/18 1:35 48.3 48.6 48.3 64 36.7 0 -- 0 0 -- 48.3 47.6 47.6 30.1 0 0 0 0.058 0
5/21/18 1:40 48.1 48.3 48.1 65 36.9 0 -- 0 0 -- 48.1 47.4 47.4 30.098 0 0 0 0.059 0
5/21/18 1:45 47.9 48.1 47.9 65 36.7 0 -- 0 0 -- 47.9 47.2 47.2 30.097 0 0 0 0.059 0
5/21/18 1:50 47.8 47.9 47.8 66 37 0 -- 0 0 -- 47.8 47.1 47.1 30.098 0 0 0 0.06 0
5/21/18 1:55 47.8 48 47.8 66 37 0 -- 0 0 -- 47.8 47.1 47.1 30.096 0 0 0 0.06 0
5/21/18 2:00 47.6 47.8 47.5 67 37.2 0 -- 0 0 -- 47.6 47 47 30.094 0 0 0 0.06 0
5/21/18 2:05 47.4 47.6 47.4 67 37 0 -- 0 0 -- 47.4 46.8 46.8 30.094 0 0 0 0.061 0
5/21/18 2:10 47.2 47.4 47.2 67 36.8 0 -- 0 0 -- 47.2 46.6 46.6 30.093 0 0 0 0.062 0
5/21/18 2:15 47 47.2 47 67 36.6 0 -- 0 0 -- 47 46.4 46.4 30.092 0 0 0 0.062 0
5/21/18 2:20 46.8 47 46.7 67 36.4 0 -- 0 0 -- 46.8 46.2 46.2 30.093 0 0 0 0.063 0
5/21/18 2:25 46.9 46.9 46.7 67 36.5 0 -- 0 0 -- 46.9 46.3 46.3 30.09 0 0 0 0.063 0
5/21/18 2:30 46.9 47 46.8 67 36.5 0 -- 0 0 -- 46.9 46.3 46.3 30.089 0 0 0 0.063 0
5/21/18 2:35 46.7 47 46.7 66 35.9 0 -- 0 0 -- 46.7 46 46 30.088 0 0 0 0.064 0
5/21/18 2:40 46.3 46.7 46.3 67 35.9 0 -- 0 0 -- 46.3 45.7 45.7 30.087 0 0 0 0.065 0
5/21/18 2:45 46.3 46.4 46.2 68 36.3 0 -- 0 0 -- 46.3 45.7 45.7 30.084 0 0 0 0.065 0
5/21/18 2:50 46.5 46.5 46.3 67 36.1 0 -- 0 0 -- 46.5 45.9 45.9 30.087 0 0 0 0.064 0
5/21/18 2:55 46.2 46.5 46.2 67 35.8 0 -- 0 0 -- 46.2 45.6 45.6 30.086 0 0 0 0.065 0
5/21/18 3:00 46 46.3 46 67 35.7 0 -- 0 0 -- 46 45.4 45.4 30.088 0 0 0 0.066 0
5/21/18 3:05 45.8 46 45.8 68 35.8 0 -- 0 0 -- 45.8 45.2 45.2 30.087 0 0 0 0.067 0
5/21/18 3:10 45.6 45.8 45.6 67 35.3 0 -- 0 0 -- 45.6 45 45 30.086 0 0 0 0.067 0
5/21/18 3:15 45.9 45.9 45.6 67 35.6 0 -- 0 0 -- 45.9 45.3 45.3 30.082 0 0 0 0.066 0
5/21/18 3:20 45.8 45.9 45.7 67 35.5 0 -- 0 0 -- 45.8 45.2 45.2 30.084 0 0 0 0.067 0
5/21/18 3:25 45.7 45.9 45.7 67 35.4 0 -- 0 0 -- 45.7 45.1 45.1 30.084 0 0 0 0.067 0
5/21/18 3:30 45.7 45.7 45.6 67 35.4 0 -- 0 0 -- 45.7 45.1 45.1 30.083 0 0 0 0.067 0
5/21/18 3:35 45.6 45.7 45.5 67 35.3 0 -- 0 0 -- 45.6 45 45 30.079 0 0 0 0.067 0
5/21/18 3:40 45.5 45.6 45.4 67 35.2 0 -- 0 0 -- 45.5 44.9 44.9 30.078 0 0 0 0.068 0
5/21/18 3:45 45.2 45.4 45.2 68 35.3 0 -- 0 0 -- 45.2 44.6 44.6 30.076 0 0 0 0.069 0
5/21/18 3:50 45.1 45.2 45 68 35.2 0 -- 0 0 -- 45.1 44.5 44.5 30.075 0 0 0 0.069 0
5/21/18 3:55 45.1 45.1 45 68 35.2 0 -- 0 0 -- 45.1 44.5 44.5 30.076 0 0 0 0.069 0
5/21/18 4:00 45 45 44.9 68 35.1 0 -- 0 0 -- 45 44.4 44.4 30.076 0 0 0 0.069 0
5/21/18 4:05 44.9 45 44.9 67 34.6 0 -- 0 0 -- 44.9 44.3 44.3 30.076 0 0 0 0.07 0
5/21/18 4:10 45 45.1 44.9 68 35.1 0 -- 0 0 -- 45 44.4 44.4 30.078 0 0 0 0.069 0
5/21/18 4:15 44.5 45 44.5 69 35 0 -- 0 0 -- 44.5 44 44 30.076 0 0 0 0.071 0
5/21/18 4:20 44.5 44.5 44.3 69 35 0 -- 0 0 -- 44.5 44 44 30.076 0 0 0 0.071 0
5/21/18 4:25 44.8 44.8 44.5 69 35.2 0 -- 0 0 -- 44.8 44.3 44.3 30.076 0 0 0 0.07 0
5/21/18 4:30 44.6 44.8 44.6 69 35.1 0 -- 0 0 -- 44.6 44.1 44.1 30.075 0 0 0 0.071 0
5/21/18 4:35 44.2 44.5 44.2 70 35 0 -- 0 0 -- 44.2 43.7 43.7 30.073 0 0 0 0.072 0
5/21/18 4:40 43.8 44.2 43.8 70 34.6 0 -- 0 0 -- 43.8 43.3 43.3 30.073 0 0 0 0.074 0
5/21/18 4:45 43.5 43.8 43.5 71 34.7 0 -- 0 0 -- 43.5 43 43 30.07 0 0 0 0.075 0
5/21/18 4:50 43.5 43.7 43.5 72 35.1 0 -- 0 0 -- 43.5 43 43 30.07 0 0 0 0.075 0
5/21/18 4:55 43.4 43.5 43.4 72 35 0 -- 0 0 -- 43.4 42.9 42.9 30.068 0 0 0 0.075 0
5/21/18 5:00 43.4 43.4 43.3 72 35 0 -- 0 0 -- 43.4 42.9 42.9 30.069 0 0 0 0.075 0
5/21/18 5:05 43.2 43.3 43.1 72 34.8 0 -- 0 0 -- 43.2 42.7 42.7 30.066 0 0 0 0.076 0
5/21/18 5:10 43.2 43.2 43.1 72 34.8 0 -- 0 0 -- 43.2 42.7 42.7 30.065 0 0 0 0.076 0
5/21/18 5:15 43.2 43.3 43.1 72 34.8 0 -- 0 0 -- 43.2 42.7 42.7 30.064 0 0 0 0.076 0
5/21/18 5:20 43.3 43.4 43.2 72 34.9 0 -- 0 0 -- 43.3 42.8 42.8 30.064 0 0 0 0.075 0
5/21/18 5:25 43.3 43.3 43.2 72 34.9 0 -- 0 0 -- 43.3 42.8 42.8 30.063 0 0 0 0.075 0
5/21/18 5:30 43.3 43.4 43.2 72 34.9 0 -- 0 0 -- 43.3 42.8 42.8 30.063 0 0 0 0.075 0
5/21/18 5:35 43.5 43.5 43.3 71 34.7 0 -- 0 2 SE 43.5 43 43 30.061 0 0 0 0.075 0
5/21/18 5:40 43.7 43.7 43.5 71 34.9 1 SE 0.08 2 SE 43.7 43.2 43.2 30.061 0 0 0 0.074 0
5/21/18 5:45 43.8 43.8 43.6 71 35 1 SE 0.08 2 SE 43.8 43.3 43.3 30.061 0 0 0 0.074 0
5/21/18 5:50 43.9 43.9 43.7 71 35.1 1 SE 0.08 2 SE 43.9 43.4 43.4 30.06 0 0 0 0.073 0
5/21/18 5:55 44 44.1 43.9 71 35.2 0 -- 0 1 SE 44 43.5 43.5 30.059 0 0 0 0.073 0
5/21/18 6:00 43.8 44 43.8 71 35 0 -- 0 1 SE 43.8 43.3 43.3 30.06 0 0 0 0.074 0
5/21/18 6:05 44 44.1 43.8 71 35.2 0 -- 0 2 SE 44 43.5 43.5 30.059 0 0 0 0.073 0
5/21/18 6:10 44.2 44.2 44 71 35.4 0 -- 0 1 SE 44.2 43.7 43.7 30.061 0 0 0 0.072 0
5/21/18 6:15 44.2 44.3 44.2 71 35.4 0 -- 0 0 -- 44.2 43.7 43.7 30.06 0 0 0 0.072 0
5/21/18 6:20 44.3 44.3 44.2 71 35.5 0 -- 0 0 -- 44.3 43.8 43.8 30.058 0 0 0 0.072 0
5/21/18 6:25 44.5 44.5 44.3 71 35.7 0 -- 0 0 -- 44.5 44 44 30.06 0 0 0 0.071 0
5/21/18 6:30 44.8 44.8 44.5 71 36 0 -- 0 0 -- 44.8 44.3 44.3 30.059 0 0 0 0.07 0
5/21/18 6:35 44.7 44.9 44.7 71 35.9 0 -- 0 0 -- 44.7 44.2 44.2 30.058 0 0 0 0.07 0
5/21/18 6:40 45 45 44.7 71 36.2 0 -- 0 0 -- 45 44.5 44.5 30.058 0 0 0 0.069 0
5/21/18 6:45 45.4 45.4 45 71 36.5 0 -- 0 0 -- 45.4 44.9 44.9 30.06 0 0 0 0.068 0
5/21/18 6:50 45.6 45.6 45.4 71 36.7 0 -- 0 0 -- 45.6 45.1 45.1 30.06 0 0 0 0.067 0
5/21/18 6:55 46.3 46.3 45.6 71 37.4 0 -- 0 0 -- 46.3 45.8 45.8 30.061 0 0 0 0.065 0
5/21/18 7:00 46.5 46.5 46.3 72 38 0 -- 0 0 -- 46.5 46.1 46.1 30.06 0 0 0 0.064 0
5/21/18 7:05 47.2 47.2 46.5 72 38.6 0 -- 0 0 -- 47.2 46.8 46.8 30.06 0 0 0 0.062 0
5/21/18 7:10 47.7 47.7 47.2 73 39.5 0 -- 0 0 -- 47.7 47.3 47.3 30.058 0 0 0 0.06 0
5/21/18 7:15 48.9 48.9 47.7 70 39.5 0 -- 0 0 -- 48.9 48.5 48.5 30.057 0 0 0 0.056 0
5/21/18 7:20 50 50 48.9 64 38.3 0 -- 0 0 -- 50 49.4 49.4 30.058 0 0 0 0.052 0
5/21/18 7:25 50.7 50.7 50.1 64 39 0 -- 0 0 -- 50.7 50 50 30.057 0 0 0 0.05 0
5/21/18 7:30 51.2 51.2 50.6 62 38.6 0 -- 0 1 SE 51.2 50.3 50.3 30.059 0 0 0 0.048 0
5/21/18 7:35 51.9 51.9 51.2 62 39.3 0 -- 0 1 SE 51.9 50.9 50.9 30.056 0 0 0 0.045 0
5/21/18 7:40 52.9 52.9 51.9 63 40.6 0 -- 0 1 SE 52.9 51.9 51.9 30.056 0 0 0 0.042 0
5/21/18 7:45 53.8 53.8 52.9 63 41.5 0 -- 0 2 SE 53.8 52.7 52.7 30.056 0 0 0 0.039 0
5/21/18 7:50 54.5 54.5 53.8 58 40 1 SE 0.08 2 SE 54.5 53.1 53.1 30.054 0 0 0 0.036 0
5/21/18 7:55 55 55.1 54.6 60 41.4 1 SE 0.08 2 SE 55 53.7 53.7 30.056 0 0 0 0.035 0
5/21/18 8:00 55.4 55.4 55.1 59 41.3 2 SSE 0.17 3 SE 55.4 54 54 30.055 0 0 0 0.033 0
5/21/18 8:05 55.6 55.6 55.4 54 39.2 0 -- 0 2 SSE 55.6 53.9 53.9 30.056 0 0 0 0.033 0
5/21/18 8:10 56.2 56.2 55.6 54 39.8 1 SSE 0.08 4 SSE 56.2 54.5 54.5 30.055 0 0 0 0.031 0
5/21/18 8:15 57 57 56.2 52 39.5 2 SE 0.17 5 SSE 57 55.1 55.1 30.055 0 0 0 0.028 0
5/21/18 8:20 58.1 58.1 57 52 40.6 2 SE 0.17 5 SSE 58.1 56.2 56.2 30.052 0 0 0 0.024 0
5/21/18 8:25 58.9 58.9 58.1 50 40.3 1 SE 0.08 4 SSE 58.9 56.9 56.9 30.05 0 0 0 0.021 0
5/21/18 8:30 59.9 59.9 59 47 39.6 2 SSE 0.17 5 SSE 59.9 57.7 57.7 30.048 0 0 0 0.018 0
5/21/18 8:35 60.9 60.9 59.9 47 40.5 2 SSE 0.17 4 SSE 60.9 58.7 58.7 30.048 0 0 0 0.014 0
5/21/18 8:40 61.3 61.3 60.9 45 39.8 3 SSE 0.25 7 S 61.3 59 59 30.048 0 0 0 0.013 0
5/21/18 8:45 62.1 62.1 61.4 43 39.3 5 SSE 0.42 9 SSE 62.1 59.6 59.6 30.044 0 0 0 0.01 0
5/21/18 8:50 62.8 62.8 62.1 42 39.4 4 SSE 0.33 9 SSE 62.8 60.3 60.3 30.041 0 0 0 0.008 0
5/21/18 8:55 63.6 63.6 62.9 45 41.9 4 SSE 0.33 8 SSE 63.6 61.4 61.4 30.042 0 0 0 0.005 0
5/21/18 9:00 64 64 63.6 45 42.2 4 SSE 0.33 10 SSE 64 61.8 61.8 30.04 0 0 0 0.003 0
5/21/18 9:05 64.4 64.4 64 41 40.2 3 SSE 0.25 7 SSE 64.4 61.9 61.9 30.039 0 0 0 0.002 0
5/21/18 9:10 64 64.4 64 41 39.8 4 SSE 0.33 8 SSE 64 61.5 61.5 30.038 0 0 0 0.003 0
5/21/18 9:15 64.8 64.8 64 40 39.9 4 SSE 0.33 8 SSE 64.8 62.3 62.3 30.039 0 0 0 0.001 0
5/21/18 9:20 64.3 64.9 64.3 41 40.1 3 SSE 0.25 7 SSE 64.3 61.8 61.8 30.038 0 0 0 0.002 0
5/21/18 9:25 64 64.3 64 44 41.6 3 SSE 0.25 7 SSE 64 61.7 61.7 30.037 0 0 0 0.003 0
5/21/18 9:30 63.9 64 63.9 45 42.1 2 SSE 0.17 4 S 63.9 61.7 61.7 30.037 0 0 0 0.004 0
5/21/18 9:35 63.8 63.9 63.7 47 43.2 3 SSE 0.25 6 SSE 63.8 61.7 61.7 30.036 0 0 0 0.004 0
5/21/18 9:40 64.1 64.1 63.7 46 42.9 3 SSE 0.25 6 SSE 64.1 62 62 30.037 0 0 0 0.003 0
5/21/18 9:45 64.1 64.2 64.1 44 41.7 3 SSE 0.25 6 S 64.1 61.8 61.8 30.035 0 0 0 0.003 0
5/21/18 9:50 64.2 64.2 64.1 42 40.6 2 SSE 0.17 4 SSW 64.2 61.8 61.8 30.035 0 0 0 0.003 0
5/21/18 9:55 64.6 64.6 64.1 44 42.2 2 S 0.17 4 SW 64.6 62.4 62.4 30.034 0 0 0 0.001 0
5/21/18 10:00 64.9 65 64.6 45 43 3 SE 0.25 6 SSE 64.9 62.8 62.8 30.033 0 0 0 0 0
5/21/18 10:05 64.6 65 64.6 42 41 3 SSE 0.25 6 SSE 64.6 62.2 62.2 30.034 0 0 0 0.001 0
5/21/18 10:10 64.5 64.6 64.5 43 41.5 3 SSE 0.25 7 SSE 64.5 62.2 62.2 30.031 0 0 0 0.002 0
5/21/18 10:15 64.5 64.6 64.5 43 41.5 2 ESE 0.17 3 ESE 64.5 62.2 62.2 30.03 0 0 0 0.002 0
5/21/18 10:20 64.8 64.8 64.5 44 42.4 0 -- 0 2 ESE 64.8 62.6 62.6 30.026 0 0 0 0.001 0
5/21/18 10:25 66.1 66.1 64.8 42 42.3 1 ESE 0.08 3 ESE 66.1 63.8 63.8 30.027 0 0 0 0 0.004
5/21/18 10:30 66.5 66.6 66.1 41 42.1 2 SSE 0.17 3 ESE 66.5 64.2 64.2 30.022 0 0 0 0 0.005
5/21/18 10:35 66.8 66.8 66.5 40 41.7 2 SSE 0.17 4 S 66.8 64.4 64.4 30.019 0 0 0 0 0.006
5/21/18 10:40 67.7 67.7 66.8 41 43.1 2 ESE 0.17 4 SE 67.7 65.5 65.5 30.018 0 0 0 0 0.009
5/21/18 10:45 68.7 68.7 67.6 42 44.7 2 E 0.17 4 E 68.7 66.5 66.5 30.015 0 0 0 0 0.013
5/21/18 10:50 69.9 69.9 68.8 34 40.2 2 SSE 0.17 7 S 69.9 66.8 66.8 30.013 0 0 0 0 0.017
5/21/18 10:55 70.4 70.5 69.9 39 44.3 3 SE 0.25 7 SSW 70.4 67.9 67.9 30.013 0 0 0 0 0.019
5/21/18 11:00 69.9 70.4 69.7 38 43.1 4 SSE 0.33 8 SSE 69.9 67.2 67.2 30.012 0 0 0 0 0.017
5/21/18 11:05 70.4 70.8 70 34 40.7 2 SSW 0.17 6 SSE 70.4 67.4 67.4 30.009 0 0 0 0 0.019
5/21/18 11:10 70.5 70.5 70.1 36 42.2 3 SSE 0.25 7 SSE 70.5 67.8 67.8 30.008 0 0 0 0 0.019
5/21/18 11:15 71.5 71.5 70.5 35 42.4 3 SSE 0.25 9 SSE 71.5 69.1 69.1 30.008 0 0 0 0 0.023
5/21/18 11:20 71.4 71.8 71.3 32 40 6 SSE 0.5 10 SSE 71.4 68.7 68.7 30.007 0 0 0 0 0.022
5/21/18 11:25 72.2 72.2 71.5 29 38.2 5 SE 0.42 10 SSE 72.2 69.5 69.5 30.006 0 0 0 0 0.025
5/21/18 11:30 72.5 72.5 72 33 41.7 5 SSE 0.42 10 SSE 72.5 70.3 70.3 30.003 0 0 0 0 0.026
5/21/18 11:35 72.1 72.4 72.1 34 42.2 5 SE 0.42 11 SSE 72.1 69.8 69.8 30.002 0 0 0 0 0.025
5/21/18 11:40 72.6 72.6 71.8 33 41.8 4 ESE 0.33 8 ESE 72.6 70.5 70.5 30.002 0 0 0 0 0.026
5/21/18 11:45 73 73 72.6 37 45.2 5 SSE 0.42 16 SSE 73 71.5 71.5 29.998 0 0 0 0 0.028
5/21/18 11:50 71.3 73 71.3 36 43 6 SSE 0.5 15 SSE 71.3 68.9 68.9 29.999 0 0 0 0 0.022
5/21/18 11:55 70.8 71.3 70.8 37 43.2 4 SSE 0.33 11 S 70.8 68.3 68.3 29.997 0 0 0 0 0.02
5/21/18 12:00 71.7 71.7 70.7 34 41.8 5 SSE 0.42 10 SSE 71.7 69.3 69.3 29.995 0 0 0 0 0.023
5/21/18 12:05 71.4 71.6 71.2 34 41.6 7 SSE 0.58 13 SSE 71.4 68.9 68.9 29.992 0 0 0 0 0.022
5/21/18 12:10 72 72 71.4 34 42.1 5 SE 0.42 11 SE 72 69.7 69.7 29.993 0 0 0 0 0.024
5/21/18 12:15 73.1 73.1 72 34 43.1 5 SE 0.42 11 SSE 73.1 71.3 71.3 29.995 0 0 0 0 0.028
5/21/18 12:20 72.9 73.1 72.8 30 39.6 5 SSE 0.42 9 SSE 72.9 70.7 70.7 29.993 0 0 0 0 0.027
5/21/18 12:25 72 72.8 72 30 38.9 4 ESE 0.33 10 ESE 72 69.3 69.3 29.993 0 0 0 0 0.024
5/21/18 12:30 72.4 72.4 71.9 33 41.7 5 ESE 0.42 11 SE 72.4 70.2 70.2 29.991 0 0 0 0 0.026
5/21/18 12:35 72.6 72.7 72.3 36 44.1 5 SSE 0.42 14 SSE 72.6 70.8 70.8 29.992 0 0 0 0 0.026
5/21/18 12:40 73.7 73.7 72.7 36 45.1 5 SSE 0.42 9 SSE 73.7 72.2 72.2 29.99 0 0 0 0 0.03
5/21/18 12:45 72.8 73.7 72.8 36 44.3 5 SSE 0.42 11 S 72.8 71.1 71.1 29.99 0 0 0 0 0.027
5/21/18 12:50 72.8 72.8 72.4 39 46.4 4 SSE 0.33 12 SE 72.8 71.3 71.3 29.989 0 0 0 0 0.027
5/21/18 12:55 73.3 73.3 72.7 40 47.5 5 SSE 0.42 10 SSE 73.3 72 72 29.987 0 0 0 0 0.029
5/21/18 13:00 73.1 73.5 73.1 37 45.3 6 SE 0.5 12 SE 73.1 71.6 71.6 29.985 0 0 0 0 0.028
5/21/18 13:05 73.6 73.6 73.1 40 47.8 5 SE 0.42 10 SSE 73.6 72.4 72.4 29.984 0 0 0 0 0.03
5/21/18 13:10 73.2 73.6 73.2 38 46.1 5 SSE 0.42 11 S 73.2 71.8 71.8 29.982 0 0 0 0 0.028
5/21/18 13:15 73.5 73.7 73.1 38 46.3 7 SSE 0.58 13 SSE 73.5 72.1 72.1 29.98 0 0 0 0 0.03
5/21/18 13:20 73 73.4 73 39 46.6 6 SSE 0.5 12 SSE 73 71.6 71.6 29.978 0 0 0 0 0.028
5/21/18 13:25 73 73 72.6 39 46.6 6 SSE 0.5 13 SSE 73 71.6 71.6 29.977 0 0 0 0 0.028
5/21/18 13:30 73.4 73.5 73 36 44.8 5 SSE 0.42 11 ESE 73.4 71.9 71.9 29.976 0 0 0 0 0.029
5/21/18 13:35 73.9 74 73.4 35 44.5 5 ESE 0.42 12 E 73.9 72.4 72.4 29.974 0 0 0 0 0.031
5/21/18 13:40 73.5 74.1 73.5 37 45.6 4 ESE 0.33 10 SE 73.5 72 72 29.976 0 0 0 0 0.03
5/21/18 13:45 73.2 73.5 73.2 37 45.4 5 SSE 0.42 11 SE 73.2 71.7 71.7 29.974 0 0 0 0 0.028
5/21/18 13:50 73.2 73.2 73.1 39 46.8 4 SSE 0.33 9 S 73.2 71.8 71.8 29.974 0 0 0 0 0.028
5/21/18 13:55 72.8 73.2 72.6 37 45 5 SSE 0.42 14 SSE 72.8 71.2 71.2 29.973 0 0 0 0 0.027
5/21/18 14:00 73.1 73.4 72.8 35 43.8 6 SSE 0.5 13 SSE 73.1 71.4 71.4 29.971 0 0 0 0 0.028
5/21/18 14:05 73.5 73.7 73.1 38 46.3 5 ESE 0.42 14 ESE 73.5 72.1 72.1 29.973 0 0 0 0 0.03
5/21/18 14:10 73.2 73.7 73.2 36 44.6 5 SE 0.42 9 SSE 73.2 71.6 71.6 29.973 0 0 0 0 0.028
5/21/18 14:15 72.7 73.2 72.4 36 44.2 4 SSE 0.33 6 ESE 72.7 70.9 70.9 29.971 0 0 0 0 0.027
5/21/18 14:20 72.5 72.7 72.4 37 44.7 4 ESE 0.33 8 ESE 72.5 70.7 70.7 29.969 0 0 0 0 0.026
5/21/18 14:25 71.9 72.6 71.9 34 42 7 SSE 0.58 14 SSE 71.9 69.6 69.6 29.969 0 0 0 0 0.024
5/21/18 14:30 71.9 71.9 71.8 34 42 7 SSE 0.58 14 SSE 71.9 69.6 69.6 29.97 0 0 0 0 0.024
5/21/18 14:35 72.1 72.1 71.8 34 42.2 5 SSE 0.42 12 SE 72.1 69.8 69.8 29.968 0 0 0 0 0.025
5/21/18 14:40 71.8 72.1 71.8 34 41.9 7 SSE 0.58 12 SSE 71.8 69.4 69.4 29.966 0 0 0 0 0.024
5/21/18 14:45 71.6 71.9 71.6 34 41.7 7 SSE 0.58 12 SSE 71.6 69.1 69.1 29.963 0 0 0 0 0.023
5/21/18 14:50 71.5 71.6 71.4 34 41.6 5 SSE 0.42 14 SSE 71.5 69 69 29.962 0 0 0 0 0.023
5/21/18 14:55 71.3 71.6 71.3 33 40.7 5 SSE 0.42 11 SSE 71.3 68.6 68.6 29.965 0 0 0 0 0.022
5/21/18 15:00 71.8 71.8 71.3 35 42.7 3 E 0.25 8 SE 71.8 69.5 69.5 29.959 0 0 0 0 0.024
5/21/18 15:05 72.3 72.3 71.9 34 42.3 4 SE 0.33 10 SE 72.3 70.2 70.2 29.961 0 0 0 0 0.025
5/21/18 15:10 72.2 72.4 72.2 34 42.3 4 SE 0.33 9 ESE 72.2 70 70 29.958 0 0 0 0 0.025
5/21/18 15:15 71.8 72.2 71.8 38 44.8 4 SSE 0.33 12 ESE 71.8 69.8 69.8 29.96 0 0 0 0 0.024
5/21/18 15:20 71.3 71.8 71.3 35 42.2 4 SSE 0.33 8 S 71.3 68.8 68.8 29.958 0 0 0 0 0.022
5/21/18 15:25 71 71.3 71 36 42.7 5 SSE 0.42 10 SSE 71 68.5 68.5 29.959 0 0 0 0 0.021
5/21/18 15:30 71.2 71.2 71 37 43.6 4 SSE 0.33 12 S 71.2 68.8 68.8 29.958 0 0 0 0 0.022
5/21/18 15:35 71.1 71.2 71.1 38 44.2 4 SSE 0.33 10 SSE 71.1 68.8 68.8 29.958 0 0 0 0 0.021
5/21/18 15:40 70.9 71.1 70.9 42 46.7 5 SSE 0.42 9 SSE 70.9 68.8 68.8 29.959 0 0 0 0 0.02
5/21/18 15:45 71.2 71.2 70.9 39 45 3 SE 0.25 7 SSE 71.2 69 69 29.959 0 0 0 0 0.022
5/21/18 15:50 71.3 71.5 71.2 41 46.4 3 SE 0.25 4 ESE 71.3 69.3 69.3 29.957 0 0 0 0 0.022
5/21/18 15:55 71.8 71.8 71.3 42 47.5 3 SE 0.25 7 ESE 71.8 70.1 70.1 29.955 0 0 0 0 0.024
5/21/18 16:00 71.7 71.8 71.7 42 47.4 4 SSE 0.33 9 SSE 71.7 69.9 69.9 29.955 0 0 0 0 0.023
5/21/18 16:05 72.4 72.4 71.6 41 47.4 3 E 0.25 6 SSE 72.4 70.9 70.9 29.952 0 0 0 0 0.026
5/21/18 16:10 72.6 72.6 72.3 41 47.5 3 ESE 0.25 6 ESE 72.6 71.2 71.2 29.952 0 0 0 0 0.026
5/21/18 16:15 72.2 72.6 72.2 42 47.8 4 SE 0.33 9 ESE 72.2 70.7 70.7 29.948 0 0 0 0 0.025
5/21/18 16:20 72.4 72.6 72.2 43 48.6 4 ESE 0.33 10 SSE 72.4 71 71 29.949 0 0 0 0 0.026
5/21/18 16:25 71.9 72.4 71.9 44 48.8 3 ESE 0.25 6 ESE 71.9 70.4 70.4 29.943 0 0 0 0 0.024
5/21/18 16:30 71.7 71.9 71.6 44 48.6 6 SSE 0.5 14 SE 71.7 70.1 70.1 29.944 0 0 0 0 0.023
5/21/18 16:35 71.7 71.7 71.5 45 49.2 3 SE 0.25 7 ESE 71.7 70.2 70.2 29.94 0 0 0 0 0.023
5/21/18 16:40 71.7 71.9 71.7 46 49.8 3 SE 0.25 8 SSE 71.7 70.3 70.3 29.938 0 0 0 0 0.023
5/21/18 16:45 71.7 71.8 71.5 47 50.4 3 SE 0.25 8 SSE 71.7 70.4 70.4 29.939 0 0 0 0 0.023
5/21/18 16:50 71.8 71.8 71.6 45 49.3 4 SSE 0.33 9 SSE 71.8 70.3 70.3 29.938 0 0 0 0 0.024
5/21/18 16:55 71.3 71.8 71.3 44 48.3 3 SE 0.25 7 SSE 71.3 69.5 69.5 29.935 0 0 0 0 0.022
5/21/18 17:00 71.5 71.5 71.3 45 49 4 SSE 0.33 8 SSE 71.5 69.9 69.9 29.935 0 0 0 0 0.023
5/21/18 17:05 71.3 71.6 71.3 45 48.9 4 SSE 0.33 10 SSE 71.3 69.6 69.6 29.933 0 0 0 0 0.022
5/21/18 17:10 71.4 71.5 71.3 46 49.5 1 SE 0.08 4 ESE 71.4 69.9 69.9 29.934 0 0 0 0 0.022
5/21/18 17:15 71.2 71.4 71.2 49 51.1 4 SSE 0.33 7 SSE 71.2 69.9 69.9 29.934 0 0 0 0 0.022
5/21/18 17:20 71 71.2 71 52 52.5 4 SSE 0.33 9 SSE 71 69.9 69.9 29.935 0 0 0 0 0.021
5/21/18 17:25 70.8 71 70.8 51 51.8 5 SSE 0.42 10 SSE 70.8 69.5 69.5 29.933 0 0 0 0 0.02
5/21/18 17:30 70.7 70.9 70.7 51 51.7 4 SSE 0.33 11 SSE 70.7 69.4 69.4 29.93 0 0 0 0 0.02
5/21/18 17:35 70.6 70.7 70.6 52 52.1 3 ESE 0.25 8 S 70.6 69.3 69.3 29.93 0 0 0 0 0.019
5/21/18 17:40 70.6 70.7 70.5 51 51.6 4 SSE 0.33 9 ESE 70.6 69.2 69.2 29.93 0 0 0 0 0.019
5/21/18 17:45 70.8 70.8 70.6 51 51.8 5 SSE 0.42 11 SSE 70.8 69.5 69.5 29.928 0 0 0 0 0.02
5/21/18 17:50 70.7 70.8 70.7 51 51.7 5 SSE 0.42 9 SSE 70.7 69.4 69.4 29.929 0 0 0 0 0.02
5/21/18 17:55 70.6 70.7 70.6 54 53.1 4 SSE 0.33 9 SE 70.6 69.5 69.5 29.929 0 0 0 0 0.019
5/21/18 18:00 70.6 70.7 70.5 53 52.6 6 SSE 0.5 12 SSE 70.6 69.4 69.4 29.929 0 0 0 0 0.019
5/21/18 18:05 70.4 70.6 70.4 53 52.4 3 SSE 0.25 7 SSE 70.4 69.2 69.2 29.927 0 0 0 0 0.019
5/21/18 18:10 70.2 70.4 70.2 54 52.8 5 SSE 0.42 11 SSE 70.2 69 69 29.929 0 0 0 0 0.018
5/21/18 18:15 70 70.2 69.9 55 53.1 4 SSE 0.33 9 SSW 70 68.9 68.9 29.93 0 0 0 0 0.017
5/21/18 18:20 69.8 69.9 69.8 55 52.9 4 SSE 0.33 9 SSE 69.8 68.7 68.7 29.929 0 0 0 0 0.017
5/21/18 18:25 69.6 69.8 69.6 56 53.2 4 SSE 0.33 9 SSW 69.6 68.6 68.6 29.929 0 0 0 0 0.016
5/21/18 18:30 69.2 69.6 69.2 57 53.3 4 SSE 0.33 7 SE 69.2 68.4 68.4 29.93 0 0 0 0 0.015
5/21/18 18:35 69.3 69.4 69.2 57 53.4 5 SSE 0.42 9 S 69.3 68.5 68.5 29.933 0 0 0 0 0.015
5/21/18 18:40 69.1 69.3 69.1 58 53.7 4 S 0.33 7 S 69.1 68.4 68.4 29.932 0 0 0 0 0.014
5/21/18 18:45 68.9 69.1 68.9 58 53.5 4 SSE 0.33 8 SSW 68.9 68.3 68.3 29.932 0 0 0 0 0.014
5/21/18 18:50 69 69 68.8 58 53.6 5 SSE 0.42 12 SSE 69 68.4 68.4 29.933 0 0 0 0 0.014
5/21/18 18:55 69 69 68.9 57 53.1 5 SSE 0.42 11 SSE 69 68.2 68.2 29.932 0 0 0 0 0.014
5/21/18 19:00 68.7 69 68.7 58 53.3 3 SSE 0.25 9 SE 68.7 68.1 68.1 29.93 0 0 0 0 0.013
5/21/18 19:05 68.5 68.7 68.5 59 53.6 2 SSE 0.17 5 S 68.5 67.9 67.9 29.928 0 0 0 0 0.012
5/21/18 19:10 68.3 68.5 68.3 59 53.4 4 SSE 0.33 9 SSE 68.3 67.7 67.7 29.928 0 0 0 0 0.011
5/21/18 19:15 68.3 68.4 68.3 59 53.4 4 SSE 0.33 9 S 68.3 67.7 67.7 29.927 0 0 0 0 0.011
5/21/18 19:20 68.3 68.4 68.2 59 53.4 4 SSE 0.33 10 SSE 68.3 67.7 67.7 29.93 0 0 0 0 0.011
5/21/18 19:25 68.1 68.3 68.1 60 53.7 4 SSE 0.33 10 SSW 68.1 67.6 67.6 29.929 0 0 0 0 0.011
5/21/18 19:30 67.9 68.1 67.9 61 54 4 SSE 0.33 8 SE 67.9 67.5 67.5 29.926 0 0 0 0 0.01
5/21/18 19:35 67.6 68 67.6 60 53.2 5 SSE 0.42 10 SSE 67.6 67 67 29.929 0 0 0 0 0.009
5/21/18 19:40 67.4 67.6 67.4 61 53.5 4 SSE 0.33 8 SSE 67.4 66.9 66.9 29.928 0 0 0 0 0.008
5/21/18 19:45 67.3 67.5 67.3 61 53.4 4 SSE 0.33 9 SSE 67.3 66.8 66.8 29.927 0 0 0 0 0.008
5/21/18 19:50 67 67.2 67 62 53.5 4 SSE 0.33 8 SE 67 66.5 66.5 29.931 0 0 0 0 0.007
5/21/18 19:55 66.8 67 66.7 61 52.9 5 SSE 0.42 10 S 66.8 66.2 66.2 29.929 0 0 0 0 0.006
5/21/18 20:00 66.5 66.8 66.5 62 53.1 4 S 0.33 8 SSE 66.5 65.9 65.9 29.932 0 0 0 0 0.005
5/21/18 20:05 66.4 66.5 66.3 62 53 6 SSE 0.5 11 SE 66.4 65.8 65.8 29.932 0 0 0 0 0.005
5/21/18 20:10 66.3 66.5 66.3 62 52.9 5 SSE 0.42 10 ESE 66.3 65.7 65.7 29.932 0 0 0 0 0.005
5/21/18 20:15 66.1 66.3 66.1 63 53.1 7 SSE 0.58 12 SSE 66.1 65.5 65.5 29.93 0 0 0 0 0.004
5/21/18 20:20 66 66.1 65.9 63 53 5 SSE 0.42 11 SSE 66 65.4 65.4 29.933 0 0 0 0 0.003
5/21/18 20:25 65.7 66 65.7 63 52.8 6 SSE 0.5 9 SSE 65.7 65.1 65.1 29.932 0 0 0 0 0.002
5/21/18 20:30 65.4 65.7 65.4 64 52.9 7 SSE 0.58 14 SSE 65.4 64.8 64.8 29.934 0 0 0 0 0.001
5/21/18 20:35 65.2 65.4 65.1 64 52.7 5 SSE 0.42 10 SSE 65.2 64.6 64.6 29.934 0 0 0 0 0.001
5/21/18 20:40 65 65.2 64.9 65 52.9 5 SSE 0.42 9 SSE 65 64.4 64.4 29.933 0 0 0 0 0
5/21/18 20:45 64.7 65 64.7 65 52.7 4 SSE 0.33 10 SSE 64.7 64.1 64.1 29.933 0 0 0 0.001 0
5/21/18 20:50 64.6 64.7 64.6 65 52.6 5 SSE 0.42 10 SSE 64.6 64 64 29.933 0 0 0 0.001 0
5/21/18 20:55 64.2 64.6 64.2 66 52.6 4 SSE 0.33 7 SSE 64.2 63.6 63.6 29.933 0 0 0 0.003 0
5/21/18 21:00 64 64.2 64 67 52.8 5 SSE 0.42 9 SSE 64 63.4 63.4 29.933 0 0 0 0.003 0
5/21/18 21:05 63.5 64 63.5 67 52.3 4 SSE 0.33 9 S 63.5 62.9 62.9 29.93 0 0 0 0.005 0
5/21/18 21:10 63.5 63.5 63.4 67 52.3 5 SSE 0.42 10 SSE 63.5 62.9 62.9 29.932 0 0 0 0.005 0
5/21/18 21:15 63.4 63.5 63.3 67 52.2 5 SSE 0.42 9 SSE 63.4 62.8 62.8 29.933 0 0 0 0.006 0
5/21/18 21:20 63.1 63.4 63.1 68 52.4 5 SSE 0.42 9 SSE 63.1 62.5 62.5 29.931 0 0 0 0.007 0
5/21/18 21:25 62.9 63.1 62.9 68 52.2 5 SSE 0.42 9 SE 62.9 62.3 62.3 29.93 0 0 0 0.007 0
5/21/18 21:30 62.6 62.9 62.6 69 52.3 5 SSE 0.42 9 SSE 62.6 62 62 29.931 0 0 0 0.008 0
5/21/18 21:35 62.3 62.5 62.3 69 52 3 SSE 0.25 8 SSE 62.3 61.6 61.6 29.934 0 0 0 0.009 0
5/21/18 21:40 62 62.3 62 69 51.7 4 SSE 0.33 8 SSE 62 61.3 61.3 29.935 0 0 0 0.01 0
5/21/18 21:45 61.9 62 61.9 70 52 5 SSE 0.42 9 SSE 61.9 61.2 61.2 29.937 0 0 0 0.011 0
5/21/18 21:50 61.8 61.9 61.7 70 51.9 5 SSE 0.42 9 SE 61.8 61.1 61.1 29.937 0 0 0 0.011 0
5/21/18 21:55 61.6 61.8 61.5 70 51.7 6 SSE 0.5 10 SSE 61.5 60.9 60.8 29.941 0 0 0 0.012 0
5/21/18 22:00 61.3 61.6 61.3 70 51.4 5 SSE 0.42 9 SE 61.3 60.6 60.6 29.942 0 0 0 0.013 0
5/21/18 22:05 61 61.3 61 71 51.5 5 SSE 0.42 9 SSE 61 60.4 60.4 29.945 0 0 0 0.014 0
5/21/18 22:10 60.8 61 60.8 71 51.3 4 SSE 0.33 7 S 60.8 60.1 60.1 29.946 0 0 0 0.015 0
5/21/18 22:15 60.5 60.8 60.5 72 51.4 3 SSE 0.25 7 SSE 60.5 59.9 59.9 29.945 0 0 0 0.016 0
5/21/18 22:20 60.4 60.5 60.4 72 51.3 4 SSE 0.33 7 SSE 60.4 59.8 59.8 29.946 0 0 0 0.016 0
5/21/18 22:25 60.2 60.4 60.2 72 51.1 3 SSE 0.25 7 ESE 60.2 59.5 59.5 29.946 0 0 0 0.017 0
5/21/18 22:30 59.9 60.2 59.9 73 51.2 3 SSE 0.25 6 ESE 59.9 59.3 59.3 29.944 0 0 0 0.018 0
5/21/18 22:35 59.7 59.9 59.7 73 51 3 SSE 0.25 5 S 59.7 59 59 29.944 0 0 0 0.018 0
5/21/18 22:40 59.5 59.8 59.5 74 51.2 3 SSE 0.25 6 SSE 59.5 58.9 58.9 29.941 0 0 0 0.019 0
5/21/18 22:45 59.2 59.5 59.2 74 50.9 3 S 0.25 6 SSE 59.2 58.6 58.6 29.945 0 0 0 0.02 0
5/21/18 22:50 58.9 59.1 58.9 75 51 2 SSE 0.17 4 S 58.9 58.3 58.3 29.946 0 0 0 0.021 0
5/21/18 22:55 58.9 58.9 58.8 75 51 2 SSE 0.17 4 SSE 58.9 58.3 58.3 29.947 0 0 0 0.021 0
5/21/18 23:00 58.8 58.9 58.7 75 50.9 2 SSE 0.17 5 SSE 58.8 58.2 58.2 29.947 0 0 0 0.022 0
5/21/18 23:05 58.8 58.9 58.7 75 50.9 2 SSE 0.17 5 SSE 58.8 58.2 58.2 29.948 0 0 0 0.022 0
5/21/18 23:10 58.6 58.8 58.5 75 50.7 2 SSE 0.17 5 SSE 58.6 58 58 29.948 0 0 0 0.022 0
5/21/18 23:15 57.8 58.5 57.8 76 50.3 1 SE 0.08 3 SSE 57.8 57.3 57.3 29.947 0 0 0 0.025 0
5/21/18 23:20 57.4 57.8 57.3 78 50.6 1 SSW 0.08 4 SSE 57.4 57 57 29.949 0 0 0 0.026 0
5/21/18 23:25 57.7 57.7 57.3 77 50.5 1 SSE 0.08 3 SSE 57.7 57.2 57.2 29.949 0 0 0 0.025 0
5/21/18 23:30 57.5 57.8 57.5 77 50.3 2 SSE 0.17 5 S 57.5 57 57 29.949 0 0 0 0.026 0
5/21/18 23:35 57.7 57.7 57.5 77 50.5 2 SSE 0.17 6 S 57.7 57.2 57.2 29.949 0 0 0 0.025 0
5/21/18 23:40 57.8 57.8 57.7 77 50.6 2 SSE 0.17 5 SSE 57.8 57.3 57.3 29.947 0 0 0 0.025 0
5/21/18 23:45 57.5 57.8 57.5 78 50.7 2 S 0.17 6 SSE 57.5 57.1 57.1 29.95 0 0 0 0.026 0
5/21/18 23:50 57.7 57.7 57.5 77 50.5 3 SSE 0.25 6 SSE 57.7 57.2 57.2 29.946 0 0 0 0.025 0
5/21/18 23:55 57.6 57.7 57.6 77 50.4 2 SSE 0.17 6 S 57.6 57.1 57.1 29.95 0 0 0 0.026 0
5/22/18 0:00 57.3 57.6 57.3 78 50.5 2 SSW 0.17 4 SSE 57.3 56.9 56.9 29.949 0 0 0 0.027 0
5/22/18 0:05 57 57.3 57 78 50.2 2 S 0.17 6 SSE 57 56.6 56.6 29.949 0 0 0 0.028 0
5/22/18 0:10 56.9 57 56.9 79 50.5 2 S 0.17 6 SSE 56.9 56.5 56.5 29.948 0 0 0 0.028 0
5/22/18 0:15 56.6 56.9 56.6 79 50.2 2 S 0.17 5 SSW 56.6 56.2 56.2 29.951 0 0 0 0.029 0
5/22/18 0:20 56.4 56.6 56.4 79 50 2 S 0.17 6 S 56.4 56 56 29.95 0 0 0 0.03 0
5/22/18 0:25 56.2 56.5 56.2 79 49.8 2 S 0.17 5 S 56.2 55.8 55.8 29.953 0 0 0 0.031 0
5/22/18 0:30 56.1 56.2 56.1 79 49.7 2 S 0.17 4 SSE 56.1 55.7 55.7 29.949 0 0 0 0.031 0
5/22/18 0:35 56.1 56.2 56 80 50 2 S 0.17 6 S 56.1 55.8 55.8 29.949 0 0 0 0.031 0
5/22/18 0:40 55.9 56.1 55.9 80 49.8 2 SSE 0.17 5 SSE 55.9 55.6 55.6 29.947 0 0 0 0.032 0
5/22/18 0:45 55.8 55.9 55.7 80 49.7 2 S 0.17 5 SSE 55.8 55.5 55.5 29.946 0 0 0 0.032 0
5/22/18 0:50 55.8 55.9 55.8 80 49.7 2 S 0.17 5 SSE 55.8 55.5 55.5 29.944 0 0 0 0.032 0
5/22/18 0:55 55.8 55.8 55.7 81 50.1 2 S 0.17 6 SSE 55.8 55.5 55.5 29.944 0 0 0 0.032 0
5/22/18 1:00 55.8 55.8 55.7 80 49.7 2 S 0.17 4 SSW 55.8 55.5 55.5 29.944 0 0 0 0.032 0
5/22/18 1:05 55.8 55.9 55.7 80 49.7 2 SSW 0.17 6 SSE 55.8 55.5 55.5 29.944 0 0 0 0.032 0
5/22/18 1:10 55.6 55.9 55.6 80 49.5 1 S 0.08 4 S 55.6 55.3 55.3 29.943 0 0 0 0.033 0
5/22/18 1:15 55.1 55.6 55.1 81 49.4 1 S 0.08 4 S 55.1 54.8 54.8 29.943 0 0 0 0.034 0
5/22/18 1:20 54.6 55.1 54.6 81 48.9 2 S 0.17 4 S 54.6 54.3 54.3 29.942 0 0 0 0.036 0
5/22/18 1:25 54.4 54.7 54.4 82 49 1 S 0.08 3 S 54.4 54.2 54.2 29.942 0 0 0 0.037 0
5/22/18 1:30 54.3 54.4 54.3 82 48.9 1 S 0.08 2 S 54.3 54.1 54.1 29.941 0 0 0 0.037 0
5/22/18 1:35 54.2 54.3 54.1 83 49.1 1 S 0.08 3 S 54.2 54 54 29.944 0 0 0 0.037 0
5/22/18 1:40 54 54.1 54 83 49 1 S 0.08 5 S 54 53.8 53.8 29.946 0 0 0 0.038 0
5/22/18 1:45 53.9 54 53.9 83 48.9 2 S 0.17 4 SSW 53.9 53.7 53.7 29.947 0 0 0 0.039 0
5/22/18 1:50 53.8 53.9 53.8 83 48.8 2 SSE 0.17 4 S 53.8 53.6 53.6 29.947 0 0 0 0.039 0
5/22/18 1:55 53.7 53.8 53.7 84 49 2 S 0.17 5 SSW 53.7 53.6 53.6 29.946 0 0 0 0.039 0
5/22/18 2:00 53.7 53.7 53.6 84 49 2 SSE 0.17 4 SSE 53.7 53.6 53.6 29.945 0 0 0 0.039 0
5/22/18 2:05 53.5 53.6 53.5 84 48.8 2 SSE 0.17 5 SSW 53.5 53.4 53.4 29.944 0 0 0 0.04 0
5/22/18 2:10 53.8 53.8 53.5 83 48.8 2 S 0.17 5 SSE 53.8 53.6 53.6 29.947 0 0 0 0.039 0
5/22/18 2:15 53.8 53.9 53.8 83 48.8 2 S 0.17 5 SSW 53.8 53.6 53.6 29.947 0 0 0 0.039 0
5/22/18 2:20 53.5 53.9 53.5 83 48.5 2 SSE 0.17 5 SSE 53.5 53.3 53.3 29.947 0 0 0 0.04 0
5/22/18 2:25 53.6 53.6 53.5 83 48.6 2 SSE 0.17 5 SSE 53.6 53.4 53.4 29.946 0 0 0 0.04 0
5/22/18 2:30 53.6 53.7 53.5 83 48.6 2 SSE 0.17 5 SSW 53.6 53.4 53.4 29.946 0 0 0 0.04 0
5/22/18 2:35 53.6 53.6 53.5 83 48.6 2 S 0.17 6 S 53.6 53.4 53.4 29.948 0 0 0 0.04 0
5/22/18 2:40 53.5 53.6 53.5 84 48.8 3 S 0.25 6 S 53.5 53.4 53.4 29.948 0 0 0 0.04 0
5/22/18 2:45 53.7 53.7 53.5 84 49 2 S 0.17 7 SSW 53.7 53.6 53.6 29.948 0 0 0 0.039 0
5/22/18 2:50 53.7 53.7 53.6 84 49 2 S 0.17 4 SW 53.7 53.6 53.6 29.949 0 0 0 0.039 0
5/22/18 2:55 53.8 53.8 53.6 84 49.1 1 SSE 0.08 5 SSE 53.8 53.7 53.7 29.95 0 0 0 0.039 0
5/22/18 3:00 53.6 53.8 53.6 83 48.6 1 S 0.08 5 S 53.6 53.4 53.4 29.949 0 0 0 0.04 0
5/22/18 3:05 53.1 53.6 53.1 84 48.4 1 S 0.08 4 SSE 53.1 53 53 29.95 0 0 0 0.041 0
5/22/18 3:10 52.7 53.1 52.7 84 48 2 SSE 0.17 7 SSE 52.7 52.6 52.6 29.948 0 0 0 0.043 0
5/22/18 3:15 52.8 52.8 52.6 85 48.4 2 S 0.17 5 SSW 52.8 52.7 52.7 29.949 0 0 0 0.042 0
5/22/18 3:20 53 53.1 52.9 85 48.6 2 S 0.17 5 SSE 53 52.9 52.9 29.945 0 0 0 0.042 0
5/22/18 3:25 53 53.1 52.9 85 48.6 1 S 0.08 5 SW 53 52.9 52.9 29.945 0 0 0 0.042 0
5/22/18 3:30 52.9 53 52.9 86 48.8 2 SSE 0.17 4 SSW 52.9 52.9 52.9 29.945 0 0 0 0.042 0
5/22/18 3:35 52.7 52.9 52.6 85 48.3 1 S 0.08 4 S 52.7 52.6 52.6 29.947 0 0 0 0.043 0
5/22/18 3:40 52.7 52.8 52.6 86 48.6 1 S 0.08 2 S 52.7 52.7 52.7 29.947 0 0 0 0.043 0
5/22/18 3:45 52.6 52.7 52.5 86 48.5 0 -- 0 1 S 52.6 52.6 52.6 29.948 0 0 0 0.043 0
5/22/18 3:50 52.2 52.6 52.2 86 48.1 0 -- 0 0 -- 52.2 52.2 52.2 29.949 0 0 0 0.044 0
5/22/18 3:55 52.1 52.2 52.1 86 48 0 -- 0 1 S 52.1 52.1 52.1 29.949 0 0 0 0.045 0
5/22/18 4:00 52.4 52.4 52 88 48.9 1 S 0.08 2 S 52.4 52.5 52.5 29.949 0 0 0 0.044 0
5/22/18 4:05 52.7 52.7 52.4 87 48.9 1 S 0.08 1 S 52.7 52.7 52.7 29.95 0 0 0 0.043 0
5/22/18 4:10 52.4 52.7 52.3 86 48.3 0 -- 0 1 S 52.4 52.4 52.4 29.953 0 0 0 0.044 0
5/22/18 4:15 51.8 52.3 51.8 87 48.1 0 -- 0 0 -- 51.8 51.9 51.9 29.956 0 0 0 0.046 0
5/22/18 4:20 51.8 51.9 51.8 87 48.1 0 -- 0 0 -- 51.8 51.9 51.9 29.956 0 0 0 0.046 0
5/22/18 4:25 51.6 51.8 51.6 87 47.9 0 -- 0 0 -- 51.6 51.7 51.7 29.956 0 0 0 0.047 0
5/22/18 4:30 51.3 51.6 51.3 87 47.6 0 -- 0 0 -- 51.3 51.4 51.4 29.957 0 0 0 0.048 0
5/22/18 4:35 51.6 51.6 51.3 87 47.9 0 -- 0 0 -- 51.6 51.7 51.7 29.953 0 0 0 0.047 0
5/22/18 4:40 51.2 51.6 51.2 87 47.5 1 S 0.08 2 S 51.2 51.3 51.3 29.956 0 0 0 0.048 0
5/22/18 4:45 51 51.2 51 87 47.3 0 -- 0 0 -- 51 51.1 51.1 29.958 0 0 0 0.049 0
5/22/18 4:50 50.8 51 50.8 88 47.4 0 -- 0 1 S 50.8 50.9 50.9 29.959 0 0 0 0.049 0
5/22/18 4:55 51.5 51.5 50.8 89 48.4 2 S 0.17 4 S 51.5 51.7 51.7 29.959 0 0 0 0.047 0
5/22/18 5:00 51.9 51.9 51.5 88 48.5 2 SSE 0.17 4 SSE 51.9 52 52 29.959 0 0 0 0.045 0
5/22/18 5:05 52 52.1 51.9 88 48.6 2 SSE 0.17 4 SSE 52 52.1 52.1 29.958 0 0 0 0.045 0
5/22/18 5:10 52.3 52.3 52 88 48.9 2 SSE 0.17 4 SSE 52.3 52.4 52.4 29.958 0 0 0 0.044 0
5/22/18 5:15 52.3 52.3 52.3 88 48.9 2 SSE 0.17 3 SSE 52.3 52.4 52.4 29.955 0 0 0 0.044 0
5/22/18 5:20 52.3 52.4 52.3 87 48.5 2 SSE 0.17 3 SSE 52.3 52.3 52.3 29.955 0 0 0 0.044 0
5/22/18 5:25 51.8 52.3 51.8 87 48.1 1 S 0.08 3 SSW 51.8 51.9 51.9 29.955 0 0 0 0.046 0
5/22/18 5:30 51.7 51.8 51.6 88 48.3 0 -- 0 2 SE 51.7 51.8 51.8 29.954 0 0 0 0.046 0
5/22/18 5:35 51.5 51.7 51.5 88 48.1 1 SSE 0.08 2 SSE 51.5 51.6 51.6 29.955 0 0 0 0.047 0
5/22/18 5:40 51.5 51.5 51.4 88 48.1 1 SSE 0.08 2 SSE 51.5 51.6 51.6 29.954 0 0 0 0.047 0
5/22/18 5:45 51.7 51.7 51.5 88 48.3 1 SSE 0.08 3 SE 51.7 51.8 51.8 29.955 0 0 0 0.046 0
5/22/18 5:50 51.7 51.8 51.7 88 48.3 1 SSE 0.08 3 S 51.7 51.8 51.8 29.954 0 0 0 0.046 0
5/22/18 5:55 51.8 51.9 51.7 88 48.4 2 SE 0.17 3 SE 51.8 51.9 51.9 29.953 0 0 0 0.046 0
5/22/18 6:00 52.1 52.1 51.9 88 48.7 2 SSE 0.17 4 SSE 52.1 52.2 52.2 29.956 0 0 0 0.045 0
5/22/18 6:05 52.2 52.2 52.1 88 48.8 2 SSE 0.17 4 SSE 52.2 52.3 52.3 29.956 0 0 0 0.044 0
5/22/18 6:10 52.3 52.3 52.1 88 48.9 3 SSE 0.25 5 SSE 52.2 52.4 52.3 29.955 0 0 0 0.044 0
5/22/18 6:15 52.2 52.3 52.2 88 48.8 2 SSE 0.17 5 SSE 52.2 52.3 52.3 29.955 0 0 0 0.044 0
5/22/18 6:20 52.3 52.4 52.2 88 48.9 2 SSE 0.17 4 SSE 52.3 52.4 52.4 29.956 0 0 0 0.044 0
5/22/18 6:25 52.3 52.4 52.3 88 48.9 1 SSE 0.08 3 SSE 52.3 52.4 52.4 29.957 0 0 0 0.044 0
5/22/18 6:30 52.5 52.5 52.2 88 49 1 SSE 0.08 4 SSE 52.5 52.6 52.6 29.958 0 0 0 0.043 0
5/22/18 6:35 53.5 53.5 52.5 88 50 2 SSE 0.17 4 SSE 53.5 53.5 53.5 29.958 0 0 0 0.04 0
5/22/18 6:40 54.2 54.2 53.5 88 50.7 2 SSE 0.17 7 SSW 54.2 54.2 54.2 29.957 0 0 0 0.037 0
5/22/18 6:45 54.8 54.8 54.1 88 51.3 3 SSE 0.25 7 SSE 54.8 54.8 54.8 29.957 0 0 0 0.035 0
5/22/18 6:50 55 55.1 54.8 87 51.2 3 SSE 0.25 6 SSE 55 54.9 54.9 29.959 0 0 0 0.035 0
5/22/18 6:55 55.2 55.2 55 87 51.4 3 SSE 0.25 6 S 55.2 55.1 55.1 29.96 0 0 0 0.034 0
5/22/18 7:00 55.3 55.3 55.2 87 51.5 4 SSE 0.33 9 SE 55 55.2 54.9 29.961 0 0 0 0.034 0
5/22/18 7:05 55.1 55.3 55.1 87 51.3 4 SSE 0.33 7 SSE 54.7 55 54.6 29.965 0 0 0 0.034 0
5/22/18 7:10 55 55.2 55 87 51.2 4 SSE 0.33 8 SE 54.6 54.9 54.5 29.962 0 0 0 0.035 0
5/22/18 7:15 54.8 55 54.8 88 51.3 4 S 0.33 6 SSE 54.4 54.8 54.4 29.965 0 0 0 0.035 0
5/22/18 7:20 54.8 54.9 54.8 87 51 4 SSE 0.33 9 SSE 54.4 54.7 54.3 29.967 0 0 0 0.035 0
5/22/18 7:25 54.7 54.8 54.7 88 51.2 4 SSE 0.33 8 SSE 54.3 54.7 54.3 29.964 0 0 0 0.036 0
5/22/18 7:30 55.1 55.1 54.8 88 51.6 4 SSE 0.33 8 SSE 54.7 55.1 54.7 29.963 0 0 0 0.034 0
5/22/18 7:35 55.2 55.3 55.1 88 51.7 3 SSE 0.25 6 S 55.2 55.2 55.2 29.965 0 0 0 0.034 0
5/22/18 7:40 55.1 55.3 55.1 88 51.6 4 SSE 0.33 7 S 54.7 55.1 54.7 29.967 0 0 0 0.034 0
5/22/18 7:45 55.2 55.2 55 88 51.7 4 SSE 0.33 7 SSE 54.8 55.2 54.8 29.967 0 0 0 0.034 0
5/22/18 7:50 55.3 55.4 55.2 88 51.8 3 SSE 0.25 7 SSE 55.3 55.3 55.3 29.969 0 0 0 0.034 0
5/22/18 7:55 55.5 55.6 55.4 88 52 4 SSE 0.33 8 S 55.2 55.5 55.2 29.969 0 0 0 0.033 0
5/22/18 8:00 55.8 55.8 55.5 88 52.3 4 SSE 0.33 7 SSE 55.6 55.8 55.5 29.969 0 0 0 0.032 0
5/22/18 8:05 55.9 55.9 55.7 88 52.4 2 S 0.17 6 S 55.9 55.9 55.9 29.971 0 0 0 0.032 0
5/22/18 8:10 56.1 56.1 55.9 88 52.6 4 SSE 0.33 8 SE 55.9 56.1 55.9 29.969 0 0 0 0.031 0
5/22/18 8:15 56.1 56.1 56 88 52.6 3 S 0.25 5 S 56.1 56.1 56.1 29.97 0 0 0 0.031 0
5/22/18 8:20 56.3 56.3 56.1 88 52.8 3 S 0.25 6 S 56.3 56.3 56.3 29.974 0 0 0 0.03 0
5/22/18 8:25 56.7 56.7 56.2 88 53.2 4 SSE 0.33 8 SSE 56.6 56.7 56.6 29.976 0 0 0 0.029 0
5/22/18 8:30 56.8 56.8 56.5 88 53.3 4 SSE 0.33 9 SSE 56.8 56.8 56.7 29.975 0 0 0 0.028 0
5/22/18 8:35 56.8 56.9 56.8 88 53.3 4 SSE 0.33 8 SSE 56.8 56.8 56.7 29.978 0 0 0 0.028 0
5/22/18 8:40 57.1 57.1 56.8 88 53.6 3 S 0.25 7 SSW 57.1 57.1 57.1 29.976 0 0 0 0.027 0
5/22/18 8:45 57.2 57.3 57.1 87 53.4 3 SSE 0.25 6 SW 57.2 57.1 57.1 29.974 0 0 0 0.027 0
5/22/18 8:50 57.1 57.2 57 87 53.3 3 SSE 0.25 8 SSE 57.1 57 57 29.974 0 0 0 0.027 0
5/22/18 8:55 56.9 57.1 56.9 87 53.1 3 SSW 0.25 8 S 56.9 56.8 56.8 29.976 0 0 0 0.028 0
5/22/18 9:00 57.1 57.1 56.9 87 53.3 2 SSE 0.17 5 SSE 57.1 57 57 29.978 0 0 0 0.027 0
5/22/18 9:05 57.5 57.5 57.1 87 53.7 4 SSE 0.33 12 S 57.5 57.5 57.5 29.979 0 0 0 0.026 0
5/22/18 9:10 57.6 57.6 57.5 86 53.4 3 SSW 0.25 7 SSE 57.6 57.5 57.5 29.981 0 0 0 0.026 0
5/22/18 9:15 57.8 57.8 57.6 86 53.6 4 S 0.33 8 SSW 57.8 57.7 57.7 29.979 0 0 0 0.025 0
5/22/18 9:20 58.1 58.1 57.8 85 53.6 3 S 0.25 11 SSE 58.1 58 58 29.98 0 0 0 0.024 0
5/22/18 9:25 58.1 58.2 58 85 53.6 5 S 0.42 11 SSE 57.7 58 57.6 29.981 0 0 0 0.024 0
5/22/18 9:30 58.6 58.6 58.1 85 54.1 3 SSE 0.25 7 SSE 58.6 58.5 58.5 29.983 0 0 0 0.022 0
5/22/18 9:35 58.6 58.6 58.5 84 53.8 5 SSE 0.42 10 ESE 58.3 58.5 58.2 29.984 0 0 0 0.022 0
5/22/18 9:40 59.2 59.2 58.6 84 54.4 5 SSE 0.42 8 S 59 59.1 58.9 29.986 0 0 0 0.02 0
5/22/18 9:45 58.9 59.3 58.9 83 53.7 3 S 0.25 8 SSE 58.9 58.8 58.8 29.991 0 0 0 0.021 0
5/22/18 9:50 59.1 59.2 58.9 82 53.6 6 SSE 0.5 11 SSE 58.5 58.9 58.4 29.991 0 0 0 0.02 0
5/22/18 9:55 59.1 59.2 59.1 82 53.6 4 SSE 0.33 9 SSW 59.1 58.9 58.9 29.991 0 0 0 0.02 0
5/22/18 10:00 59.4 59.4 59.1 82 53.9 5 S 0.42 10 S 59.3 59.3 59.1 29.994 0 0 0 0.019 0
5/22/18 10:05 59.1 59.4 59.1 82 53.6 3 S 0.25 11 SSE 59.1 58.9 58.9 29.992 0 0 0 0.02 0
5/22/18 10:10 59.4 59.4 59.1 82 53.9 4 SSE 0.33 9 S 59.4 59.3 59.3 29.989 0 0 0 0.019 0
5/22/18 10:15 59.8 59.9 59.4 81 54 5 SSE 0.42 9 SE 59.8 59.6 59.6 29.991 0 0 0 0.018 0
5/22/18 10:20 59.6 59.8 59.6 81 53.8 3 SSE 0.25 7 SSE 59.6 59.4 59.4 29.991 0 0 0 0.019 0
5/22/18 10:25 60.2 60.2 59.6 81 54.3 2 S 0.17 5 SSW 60.2 60.1 60.1 29.992 0 0 0 0.017 0
5/22/18 10:30 60.7 60.8 60.1 80 54.5 2 SSW 0.17 7 S 60.7 60.6 60.6 29.991 0 0 0 0.015 0
5/22/18 10:35 61.4 61.4 60.7 80 55.2 3 SSE 0.25 7 SSE 61.4 61.4 61.4 29.99 0 0 0 0.012 0
5/22/18 10:40 62.3 62.3 61.4 77 55 4 SSE 0.33 10 SSE 62.3 62.2 62.2 29.993 0 0 0 0.009 0
5/22/18 10:45 62.6 62.6 62.1 78 55.6 5 SSE 0.42 10 SSE 62.6 62.6 62.6 29.994 0 0 0 0.008 0
5/22/18 10:50 64.3 64.3 62.6 75 56.2 6 SSE 0.5 11 SE 64.3 64.3 64.3 29.994 0 0 0 0.002 0
5/22/18 10:55 64.2 64.3 64 75 56.1 5 SSE 0.42 10 SE 64.2 64.1 64.1 29.994 0 0 0 0.003 0
5/22/18 11:00 64.1 64.2 63.8 76 56.4 4 SSE 0.33 8 SSE 64.1 64.1 64.1 29.997 0 0 0 0.003 0
5/22/18 11:05 64.6 64.6 64.1 74 56.1 4 SSE 0.33 10 S 64.6 64.5 64.5 29.995 0 0 0 0.001 0
5/22/18 11:10 64.7 64.7 64.3 74 56.2 4 SSE 0.33 8 SSE 64.7 64.7 64.7 29.992 0 0 0 0.001 0
5/22/18 11:15 65.5 65.7 64.6 72 56.2 4 SSE 0.33 10 SSE 65.5 65.5 65.5 29.993 0 0 0 0 0.002
5/22/18 11:20 66 66.3 65.4 71 56.3